<?xml version="1.0" encoding="UTF-8" standalone="no" ?>
<gpx xmlns="http://www.topografix.com/GPX/1/1" xmlns:xsi="http://www.w3.org/2001/XMLSchema-instance" xsi:schemaLocation="http://www.topografix.com/GPX/1/1 http://www.topografix.com/GPX/1/1/gpx.xsd" version="1.1" creator="VisuGPX - https://www.visugpx.com">
  <metadata>
    <name>Riaillé 36 kms mélange de circuit</name>
    <desc><![CDATA[Petite trace sympa a découvrir . mélange de circuit conseil régional.
Merci de donner votre avis.
Bon Ride.

Le dénivelé : 400]]></desc>
  </metadata>
  <trk>
    <name><![CDATA[20180327110817-cEnrx]]></name>
    <trkseg>
      <trkpt lat="47.51793" lon="-1.29199">
        <ele>38</ele>
        <time>2018-03-21T14:07:52.000Z</time>
      </trkpt>
      <trkpt lat="47.51793" lon="-1.29205">
        <ele>38</ele>
        <time>2018-03-21T14:07:55.000Z</time>
      </trkpt>
      <trkpt lat="47.51789" lon="-1.29184">
        <ele>38</ele>
        <time>2018-03-21T14:08:13.000Z</time>
      </trkpt>
      <trkpt lat="47.51788" lon="-1.29179">
        <ele>37</ele>
        <time>2018-03-21T14:08:14.000Z</time>
      </trkpt>
      <trkpt lat="47.51789" lon="-1.29147">
        <ele>36</ele>
        <time>2018-03-21T14:08:19.000Z</time>
      </trkpt>
      <trkpt lat="47.51799" lon="-1.29117">
        <ele>35</ele>
        <time>2018-03-21T14:08:25.000Z</time>
      </trkpt>
      <trkpt lat="47.5182" lon="-1.29107">
        <ele>35</ele>
        <time>2018-03-21T14:08:32.000Z</time>
      </trkpt>
      <trkpt lat="47.51844" lon="-1.29112">
        <ele>35</ele>
        <time>2018-03-21T14:08:39.000Z</time>
      </trkpt>
      <trkpt lat="47.51864" lon="-1.29098">
        <ele>35</ele>
        <time>2018-03-21T14:08:45.000Z</time>
      </trkpt>
      <trkpt lat="47.51873" lon="-1.29066">
        <ele>33</ele>
        <time>2018-03-21T14:08:50.000Z</time>
      </trkpt>
      <trkpt lat="47.51879" lon="-1.29029">
        <ele>32</ele>
        <time>2018-03-21T14:08:55.000Z</time>
      </trkpt>
      <trkpt lat="47.51875" lon="-1.28987">
        <ele>31</ele>
        <time>2018-03-21T14:09:00.000Z</time>
      </trkpt>
      <trkpt lat="47.51851" lon="-1.28978">
        <ele>31</ele>
        <time>2018-03-21T14:09:04.000Z</time>
      </trkpt>
      <trkpt lat="47.51829" lon="-1.2896">
        <ele>31</ele>
        <time>2018-03-21T14:09:09.000Z</time>
      </trkpt>
      <trkpt lat="47.51819" lon="-1.28946">
        <ele>31</ele>
        <time>2018-03-21T14:09:12.000Z</time>
      </trkpt>
      <trkpt lat="47.51822" lon="-1.28931">
        <ele>30</ele>
        <time>2018-03-21T14:09:16.000Z</time>
      </trkpt>
      <trkpt lat="47.51828" lon="-1.28902">
        <ele>30</ele>
        <time>2018-03-21T14:09:25.000Z</time>
      </trkpt>
      <trkpt lat="47.51848" lon="-1.28897">
        <ele>30</ele>
        <time>2018-03-21T14:09:33.000Z</time>
      </trkpt>
      <trkpt lat="47.51871" lon="-1.28902">
        <ele>30</ele>
        <time>2018-03-21T14:09:40.000Z</time>
      </trkpt>
      <trkpt lat="47.51895" lon="-1.28903">
        <ele>30</ele>
        <time>2018-03-21T14:09:47.000Z</time>
      </trkpt>
      <trkpt lat="47.51917" lon="-1.28906">
        <ele>31</ele>
        <time>2018-03-21T14:09:54.000Z</time>
      </trkpt>
      <trkpt lat="47.51941" lon="-1.2891">
        <ele>31</ele>
        <time>2018-03-21T14:10:01.000Z</time>
      </trkpt>
      <trkpt lat="47.51965" lon="-1.28916">
        <ele>31</ele>
        <time>2018-03-21T14:10:08.000Z</time>
      </trkpt>
      <trkpt lat="47.51987" lon="-1.28931">
        <ele>31</ele>
        <time>2018-03-21T14:10:15.000Z</time>
      </trkpt>
      <trkpt lat="47.52008" lon="-1.28946">
        <ele>31</ele>
        <time>2018-03-21T14:10:22.000Z</time>
      </trkpt>
      <trkpt lat="47.52029" lon="-1.28962">
        <ele>31</ele>
        <time>2018-03-21T14:10:29.000Z</time>
      </trkpt>
      <trkpt lat="47.52052" lon="-1.28977">
        <ele>32</ele>
        <time>2018-03-21T14:10:36.000Z</time>
      </trkpt>
      <trkpt lat="47.52072" lon="-1.28993">
        <ele>32</ele>
        <time>2018-03-21T14:10:43.000Z</time>
      </trkpt>
      <trkpt lat="47.5209" lon="-1.29018">
        <ele>33</ele>
        <time>2018-03-21T14:10:50.000Z</time>
      </trkpt>
      <trkpt lat="47.52105" lon="-1.29045">
        <ele>34</ele>
        <time>2018-03-21T14:10:57.000Z</time>
      </trkpt>
      <trkpt lat="47.52124" lon="-1.29061">
        <ele>35</ele>
        <time>2018-03-21T14:11:03.000Z</time>
      </trkpt>
      <trkpt lat="47.52121" lon="-1.2909">
        <ele>36</ele>
        <time>2018-03-21T14:11:11.000Z</time>
      </trkpt>
      <trkpt lat="47.5214" lon="-1.29075">
        <ele>35</ele>
        <time>2018-03-21T14:11:19.000Z</time>
      </trkpt>
      <trkpt lat="47.52161" lon="-1.29055">
        <ele>35</ele>
        <time>2018-03-21T14:11:25.000Z</time>
      </trkpt>
      <trkpt lat="47.52177" lon="-1.29031">
        <ele>37</ele>
        <time>2018-03-21T14:11:31.000Z</time>
      </trkpt>
      <trkpt lat="47.52194" lon="-1.29002">
        <ele>37</ele>
        <time>2018-03-21T14:11:37.000Z</time>
      </trkpt>
      <trkpt lat="47.52208" lon="-1.2897">
        <ele>36</ele>
        <time>2018-03-21T14:11:43.000Z</time>
      </trkpt>
      <trkpt lat="47.5222" lon="-1.28937">
        <ele>36</ele>
        <time>2018-03-21T14:11:49.000Z</time>
      </trkpt>
      <trkpt lat="47.52231" lon="-1.28901">
        <ele>36</ele>
        <time>2018-03-21T14:11:55.000Z</time>
      </trkpt>
      <trkpt lat="47.5224" lon="-1.28865">
        <ele>35</ele>
        <time>2018-03-21T14:12:00.000Z</time>
      </trkpt>
      <trkpt lat="47.52239" lon="-1.28827">
        <ele>36</ele>
        <time>2018-03-21T14:12:05.000Z</time>
      </trkpt>
      <trkpt lat="47.52234" lon="-1.28792">
        <ele>36</ele>
        <time>2018-03-21T14:12:10.000Z</time>
      </trkpt>
      <trkpt lat="47.52228" lon="-1.28757">
        <ele>36</ele>
        <time>2018-03-21T14:12:15.000Z</time>
      </trkpt>
      <trkpt lat="47.52222" lon="-1.28724">
        <ele>38</ele>
        <time>2018-03-21T14:12:20.000Z</time>
      </trkpt>
      <trkpt lat="47.52217" lon="-1.28692">
        <ele>38</ele>
        <time>2018-03-21T14:12:25.000Z</time>
      </trkpt>
      <trkpt lat="47.52212" lon="-1.28659">
        <ele>40</ele>
        <time>2018-03-21T14:12:30.000Z</time>
      </trkpt>
      <trkpt lat="47.52206" lon="-1.28625">
        <ele>40</ele>
        <time>2018-03-21T14:12:35.000Z</time>
      </trkpt>
      <trkpt lat="47.522" lon="-1.28592">
        <ele>40</ele>
        <time>2018-03-21T14:12:40.000Z</time>
      </trkpt>
      <trkpt lat="47.52195" lon="-1.28559">
        <ele>42</ele>
        <time>2018-03-21T14:12:45.000Z</time>
      </trkpt>
      <trkpt lat="47.52193" lon="-1.28539">
        <ele>42</ele>
        <time>2018-03-21T14:12:48.000Z</time>
      </trkpt>
      <trkpt lat="47.52193" lon="-1.28525">
        <ele>42</ele>
        <time>2018-03-21T14:12:50.000Z</time>
      </trkpt>
      <trkpt lat="47.52198" lon="-1.28486">
        <ele>43</ele>
        <time>2018-03-21T14:12:56.000Z</time>
      </trkpt>
      <trkpt lat="47.52204" lon="-1.28448">
        <ele>44</ele>
        <time>2018-03-21T14:13:02.000Z</time>
      </trkpt>
      <trkpt lat="47.52209" lon="-1.28416">
        <ele>44</ele>
        <time>2018-03-21T14:13:07.000Z</time>
      </trkpt>
      <trkpt lat="47.52215" lon="-1.28378">
        <ele>44</ele>
        <time>2018-03-21T14:13:13.000Z</time>
      </trkpt>
      <trkpt lat="47.5222" lon="-1.28345">
        <ele>45</ele>
        <time>2018-03-21T14:13:18.000Z</time>
      </trkpt>
      <trkpt lat="47.52225" lon="-1.28311">
        <ele>45</ele>
        <time>2018-03-21T14:13:23.000Z</time>
      </trkpt>
      <trkpt lat="47.52231" lon="-1.28277">
        <ele>45</ele>
        <time>2018-03-21T14:13:28.000Z</time>
      </trkpt>
      <trkpt lat="47.52239" lon="-1.28245">
        <ele>45</ele>
        <time>2018-03-21T14:13:33.000Z</time>
      </trkpt>
      <trkpt lat="47.52247" lon="-1.28214">
        <ele>45</ele>
        <time>2018-03-21T14:13:38.000Z</time>
      </trkpt>
      <trkpt lat="47.52258" lon="-1.28181">
        <ele>46</ele>
        <time>2018-03-21T14:13:43.000Z</time>
      </trkpt>
      <trkpt lat="47.52267" lon="-1.28148">
        <ele>46</ele>
        <time>2018-03-21T14:13:48.000Z</time>
      </trkpt>
      <trkpt lat="47.52278" lon="-1.28117">
        <ele>46</ele>
        <time>2018-03-21T14:13:53.000Z</time>
      </trkpt>
      <trkpt lat="47.52293" lon="-1.28094">
        <ele>46</ele>
        <time>2018-03-21T14:13:58.000Z</time>
      </trkpt>
      <trkpt lat="47.52316" lon="-1.28089">
        <ele>46</ele>
        <time>2018-03-21T14:14:03.000Z</time>
      </trkpt>
      <trkpt lat="47.52342" lon="-1.28084">
        <ele>46</ele>
        <time>2018-03-21T14:14:09.000Z</time>
      </trkpt>
      <trkpt lat="47.52367" lon="-1.28076">
        <ele>47</ele>
        <time>2018-03-21T14:14:15.000Z</time>
      </trkpt>
      <trkpt lat="47.52393" lon="-1.28067">
        <ele>47</ele>
        <time>2018-03-21T14:14:21.000Z</time>
      </trkpt>
      <trkpt lat="47.52415" lon="-1.28059">
        <ele>47</ele>
        <time>2018-03-21T14:14:26.000Z</time>
      </trkpt>
      <trkpt lat="47.52438" lon="-1.28051">
        <ele>48</ele>
        <time>2018-03-21T14:14:31.000Z</time>
      </trkpt>
      <trkpt lat="47.52463" lon="-1.28043">
        <ele>48</ele>
        <time>2018-03-21T14:14:36.000Z</time>
      </trkpt>
      <trkpt lat="47.52488" lon="-1.28036">
        <ele>48</ele>
        <time>2018-03-21T14:14:41.000Z</time>
      </trkpt>
      <trkpt lat="47.52514" lon="-1.28027">
        <ele>48</ele>
        <time>2018-03-21T14:14:46.000Z</time>
      </trkpt>
      <trkpt lat="47.52541" lon="-1.28018">
        <ele>48</ele>
        <time>2018-03-21T14:14:51.000Z</time>
      </trkpt>
      <trkpt lat="47.52568" lon="-1.28008">
        <ele>47</ele>
        <time>2018-03-21T14:14:56.000Z</time>
      </trkpt>
      <trkpt lat="47.52595" lon="-1.27999">
        <ele>48</ele>
        <time>2018-03-21T14:15:01.000Z</time>
      </trkpt>
      <trkpt lat="47.5262" lon="-1.27992">
        <ele>49</ele>
        <time>2018-03-21T14:15:06.000Z</time>
      </trkpt>
      <trkpt lat="47.52623" lon="-1.27959">
        <ele>49</ele>
        <time>2018-03-21T14:15:11.000Z</time>
      </trkpt>
      <trkpt lat="47.52615" lon="-1.27923">
        <ele>49</ele>
        <time>2018-03-21T14:15:16.000Z</time>
      </trkpt>
      <trkpt lat="47.52614" lon="-1.27885">
        <ele>50</ele>
        <time>2018-03-21T14:15:22.000Z</time>
      </trkpt>
      <trkpt lat="47.52609" lon="-1.27849">
        <ele>49</ele>
        <time>2018-03-21T14:15:27.000Z</time>
      </trkpt>
      <trkpt lat="47.52603" lon="-1.27814">
        <ele>49</ele>
        <time>2018-03-21T14:15:32.000Z</time>
      </trkpt>
      <trkpt lat="47.52597" lon="-1.2778">
        <ele>49</ele>
        <time>2018-03-21T14:15:37.000Z</time>
      </trkpt>
      <trkpt lat="47.5259" lon="-1.27747">
        <ele>48</ele>
        <time>2018-03-21T14:15:41.000Z</time>
      </trkpt>
      <trkpt lat="47.52586" lon="-1.27705">
        <ele>48</ele>
        <time>2018-03-21T14:15:46.000Z</time>
      </trkpt>
      <trkpt lat="47.52589" lon="-1.27671">
        <ele>46</ele>
        <time>2018-03-21T14:15:50.000Z</time>
      </trkpt>
      <trkpt lat="47.52597" lon="-1.27633">
        <ele>46</ele>
        <time>2018-03-21T14:15:55.000Z</time>
      </trkpt>
      <trkpt lat="47.52608" lon="-1.27598">
        <ele>46</ele>
        <time>2018-03-21T14:16:00.000Z</time>
      </trkpt>
      <trkpt lat="47.52617" lon="-1.27563">
        <ele>46</ele>
        <time>2018-03-21T14:16:05.000Z</time>
      </trkpt>
      <trkpt lat="47.52623" lon="-1.27531">
        <ele>47</ele>
        <time>2018-03-21T14:16:09.000Z</time>
      </trkpt>
      <trkpt lat="47.52629" lon="-1.27499">
        <ele>47</ele>
        <time>2018-03-21T14:16:15.000Z</time>
      </trkpt>
      <trkpt lat="47.52636" lon="-1.27469">
        <ele>47</ele>
        <time>2018-03-21T14:16:21.000Z</time>
      </trkpt>
      <trkpt lat="47.52645" lon="-1.27437">
        <ele>48</ele>
        <time>2018-03-21T14:16:27.000Z</time>
      </trkpt>
      <trkpt lat="47.52654" lon="-1.27403">
        <ele>48</ele>
        <time>2018-03-21T14:16:33.000Z</time>
      </trkpt>
      <trkpt lat="47.52665" lon="-1.27371">
        <ele>49</ele>
        <time>2018-03-21T14:16:38.000Z</time>
      </trkpt>
      <trkpt lat="47.52675" lon="-1.27335">
        <ele>51</ele>
        <time>2018-03-21T14:16:44.000Z</time>
      </trkpt>
      <trkpt lat="47.52683" lon="-1.27298">
        <ele>51</ele>
        <time>2018-03-21T14:16:50.000Z</time>
      </trkpt>
      <trkpt lat="47.52692" lon="-1.2726">
        <ele>51</ele>
        <time>2018-03-21T14:16:56.000Z</time>
      </trkpt>
      <trkpt lat="47.52701" lon="-1.27227">
        <ele>50</ele>
        <time>2018-03-21T14:17:01.000Z</time>
      </trkpt>
      <trkpt lat="47.52708" lon="-1.27194">
        <ele>50</ele>
        <time>2018-03-21T14:17:07.000Z</time>
      </trkpt>
      <trkpt lat="47.52716" lon="-1.27162">
        <ele>49</ele>
        <time>2018-03-21T14:17:14.000Z</time>
      </trkpt>
      <trkpt lat="47.52724" lon="-1.27136">
        <ele>49</ele>
        <time>2018-03-21T14:17:20.000Z</time>
      </trkpt>
      <trkpt lat="47.52726" lon="-1.27131">
        <ele>49</ele>
        <time>2018-03-21T14:17:24.000Z</time>
      </trkpt>
      <trkpt lat="47.52737" lon="-1.27077">
        <ele>49</ele>
        <time>2018-03-21T14:18:01.000Z</time>
      </trkpt>
      <trkpt lat="47.52746" lon="-1.27042">
        <ele>50</ele>
        <time>2018-03-21T14:18:08.000Z</time>
      </trkpt>
      <trkpt lat="47.52746" lon="-1.27042">
        <ele>50</ele>
        <time>2018-03-21T14:18:09.000Z</time>
      </trkpt>
      <trkpt lat="47.52752" lon="-1.27013">
        <ele>52</ele>
        <time>2018-03-21T14:18:16.000Z</time>
      </trkpt>
      <trkpt lat="47.5276" lon="-1.2698">
        <ele>52</ele>
        <time>2018-03-21T14:18:22.000Z</time>
      </trkpt>
      <trkpt lat="47.5277" lon="-1.26951">
        <ele>53</ele>
        <time>2018-03-21T14:18:27.000Z</time>
      </trkpt>
      <trkpt lat="47.52779" lon="-1.26916">
        <ele>53</ele>
        <time>2018-03-21T14:18:33.000Z</time>
      </trkpt>
      <trkpt lat="47.52784" lon="-1.26885">
        <ele>53</ele>
        <time>2018-03-21T14:18:38.000Z</time>
      </trkpt>
      <trkpt lat="47.52792" lon="-1.26855">
        <ele>53</ele>
        <time>2018-03-21T14:18:44.000Z</time>
      </trkpt>
      <trkpt lat="47.52801" lon="-1.26827">
        <ele>53</ele>
        <time>2018-03-21T14:18:49.000Z</time>
      </trkpt>
      <trkpt lat="47.5281" lon="-1.26794">
        <ele>53</ele>
        <time>2018-03-21T14:18:56.000Z</time>
      </trkpt>
      <trkpt lat="47.52815" lon="-1.26778">
        <ele>53</ele>
        <time>2018-03-21T14:19:00.000Z</time>
      </trkpt>
      <trkpt lat="47.52828" lon="-1.26782">
        <ele>53</ele>
        <time>2018-03-21T14:19:05.000Z</time>
      </trkpt>
      <trkpt lat="47.52846" lon="-1.26794">
        <ele>54</ele>
        <time>2018-03-21T14:19:11.000Z</time>
      </trkpt>
      <trkpt lat="47.52869" lon="-1.26806">
        <ele>54</ele>
        <time>2018-03-21T14:19:16.000Z</time>
      </trkpt>
      <trkpt lat="47.52892" lon="-1.26816">
        <ele>55</ele>
        <time>2018-03-21T14:19:21.000Z</time>
      </trkpt>
      <trkpt lat="47.52915" lon="-1.26831">
        <ele>56</ele>
        <time>2018-03-21T14:19:28.000Z</time>
      </trkpt>
      <trkpt lat="47.52939" lon="-1.26844">
        <ele>56</ele>
        <time>2018-03-21T14:19:34.000Z</time>
      </trkpt>
      <trkpt lat="47.52963" lon="-1.26855">
        <ele>57</ele>
        <time>2018-03-21T14:19:40.000Z</time>
      </trkpt>
      <trkpt lat="47.52987" lon="-1.26869">
        <ele>57</ele>
        <time>2018-03-21T14:19:46.000Z</time>
      </trkpt>
      <trkpt lat="47.53006" lon="-1.2688">
        <ele>57</ele>
        <time>2018-03-21T14:19:52.000Z</time>
      </trkpt>
      <trkpt lat="47.53029" lon="-1.26893">
        <ele>57</ele>
        <time>2018-03-21T14:19:58.000Z</time>
      </trkpt>
      <trkpt lat="47.53053" lon="-1.26907">
        <ele>56</ele>
        <time>2018-03-21T14:20:03.000Z</time>
      </trkpt>
      <trkpt lat="47.53065" lon="-1.26908">
        <ele>56</ele>
        <time>2018-03-21T14:20:06.000Z</time>
      </trkpt>
      <trkpt lat="47.53073" lon="-1.26894">
        <ele>56</ele>
        <time>2018-03-21T14:20:09.000Z</time>
      </trkpt>
      <trkpt lat="47.53082" lon="-1.26865">
        <ele>56</ele>
        <time>2018-03-21T14:20:14.000Z</time>
      </trkpt>
      <trkpt lat="47.53088" lon="-1.2683">
        <ele>56</ele>
        <time>2018-03-21T14:20:20.000Z</time>
      </trkpt>
      <trkpt lat="47.53097" lon="-1.26796">
        <ele>56</ele>
        <time>2018-03-21T14:20:25.000Z</time>
      </trkpt>
      <trkpt lat="47.53105" lon="-1.26762">
        <ele>56</ele>
        <time>2018-03-21T14:20:29.000Z</time>
      </trkpt>
      <trkpt lat="47.53114" lon="-1.26725">
        <ele>56</ele>
        <time>2018-03-21T14:20:34.000Z</time>
      </trkpt>
      <trkpt lat="47.53123" lon="-1.26689">
        <ele>55</ele>
        <time>2018-03-21T14:20:39.000Z</time>
      </trkpt>
      <trkpt lat="47.53132" lon="-1.26656">
        <ele>55</ele>
        <time>2018-03-21T14:20:43.000Z</time>
      </trkpt>
      <trkpt lat="47.53141" lon="-1.26622">
        <ele>54</ele>
        <time>2018-03-21T14:20:47.000Z</time>
      </trkpt>
      <trkpt lat="47.5315" lon="-1.26586">
        <ele>53</ele>
        <time>2018-03-21T14:20:51.000Z</time>
      </trkpt>
      <trkpt lat="47.53157" lon="-1.26542">
        <ele>52</ele>
        <time>2018-03-21T14:20:56.000Z</time>
      </trkpt>
      <trkpt lat="47.53166" lon="-1.26508">
        <ele>50</ele>
        <time>2018-03-21T14:21:00.000Z</time>
      </trkpt>
      <trkpt lat="47.53175" lon="-1.26487">
        <ele>48</ele>
        <time>2018-03-21T14:21:07.000Z</time>
      </trkpt>
      <trkpt lat="47.53189" lon="-1.26496">
        <ele>47</ele>
        <time>2018-03-21T14:21:14.000Z</time>
      </trkpt>
      <trkpt lat="47.53205" lon="-1.26504">
        <ele>48</ele>
        <time>2018-03-21T14:21:18.000Z</time>
      </trkpt>
      <trkpt lat="47.53224" lon="-1.26515">
        <ele>47</ele>
        <time>2018-03-21T14:21:22.000Z</time>
      </trkpt>
      <trkpt lat="47.53242" lon="-1.26527">
        <ele>47</ele>
        <time>2018-03-21T14:21:27.000Z</time>
      </trkpt>
      <trkpt lat="47.53263" lon="-1.26536">
        <ele>46</ele>
        <time>2018-03-21T14:21:32.000Z</time>
      </trkpt>
      <trkpt lat="47.5328" lon="-1.2654">
        <ele>46</ele>
        <time>2018-03-21T14:21:37.000Z</time>
      </trkpt>
      <trkpt lat="47.53338" lon="-1.26556">
        <ele>48</ele>
        <time>2018-03-21T14:21:44.000Z</time>
      </trkpt>
      <trkpt lat="47.53339" lon="-1.26562">
        <ele>48</ele>
        <time>2018-03-21T14:21:45.000Z</time>
      </trkpt>
      <trkpt lat="47.53336" lon="-1.26565">
        <ele>48</ele>
        <time>2018-03-21T14:21:47.000Z</time>
      </trkpt>
      <trkpt lat="47.53338" lon="-1.2657">
        <ele>48</ele>
        <time>2018-03-21T14:21:50.000Z</time>
      </trkpt>
      <trkpt lat="47.53333" lon="-1.26582">
        <ele>48</ele>
        <time>2018-03-21T14:22:04.000Z</time>
      </trkpt>
      <trkpt lat="47.53347" lon="-1.26584">
        <ele>50</ele>
        <time>2018-03-21T14:22:08.000Z</time>
      </trkpt>
      <trkpt lat="47.53352" lon="-1.26586">
        <ele>50</ele>
        <time>2018-03-21T14:22:11.000Z</time>
      </trkpt>
      <trkpt lat="47.5336" lon="-1.26589">
        <ele>50</ele>
        <time>2018-03-21T14:22:13.000Z</time>
      </trkpt>
      <trkpt lat="47.53379" lon="-1.26598">
        <ele>51</ele>
        <time>2018-03-21T14:22:15.000Z</time>
      </trkpt>
      <trkpt lat="47.53399" lon="-1.26607">
        <ele>52</ele>
        <time>2018-03-21T14:22:20.000Z</time>
      </trkpt>
      <trkpt lat="47.53421" lon="-1.2662">
        <ele>54</ele>
        <time>2018-03-21T14:22:26.000Z</time>
      </trkpt>
      <trkpt lat="47.53442" lon="-1.26632">
        <ele>54</ele>
        <time>2018-03-21T14:22:31.000Z</time>
      </trkpt>
      <trkpt lat="47.53461" lon="-1.26639">
        <ele>55</ele>
        <time>2018-03-21T14:22:36.000Z</time>
      </trkpt>
      <trkpt lat="47.53476" lon="-1.26642">
        <ele>55</ele>
        <time>2018-03-21T14:22:42.000Z</time>
      </trkpt>
      <trkpt lat="47.5349" lon="-1.26642">
        <ele>55</ele>
        <time>2018-03-21T14:22:45.000Z</time>
      </trkpt>
      <trkpt lat="47.53506" lon="-1.26657">
        <ele>57</ele>
        <time>2018-03-21T14:22:50.000Z</time>
      </trkpt>
      <trkpt lat="47.53499" lon="-1.26674">
        <ele>57</ele>
        <time>2018-03-21T14:22:56.000Z</time>
      </trkpt>
      <trkpt lat="47.53489" lon="-1.26686">
        <ele>57</ele>
        <time>2018-03-21T14:23:00.000Z</time>
      </trkpt>
      <trkpt lat="47.53473" lon="-1.26706">
        <ele>57</ele>
        <time>2018-03-21T14:23:04.000Z</time>
      </trkpt>
      <trkpt lat="47.53459" lon="-1.2673">
        <ele>58</ele>
        <time>2018-03-21T14:23:10.000Z</time>
      </trkpt>
      <trkpt lat="47.53439" lon="-1.26755">
        <ele>58</ele>
        <time>2018-03-21T14:23:16.000Z</time>
      </trkpt>
      <trkpt lat="47.53424" lon="-1.26778">
        <ele>58</ele>
        <time>2018-03-21T14:23:21.000Z</time>
      </trkpt>
      <trkpt lat="47.53406" lon="-1.26806">
        <ele>58</ele>
        <time>2018-03-21T14:23:26.000Z</time>
      </trkpt>
      <trkpt lat="47.53387" lon="-1.26834">
        <ele>58</ele>
        <time>2018-03-21T14:23:32.000Z</time>
      </trkpt>
      <trkpt lat="47.53371" lon="-1.26852">
        <ele>59</ele>
        <time>2018-03-21T14:23:38.000Z</time>
      </trkpt>
      <trkpt lat="47.5336" lon="-1.26873">
        <ele>59</ele>
        <time>2018-03-21T14:23:51.000Z</time>
      </trkpt>
      <trkpt lat="47.53348" lon="-1.26899">
        <ele>59</ele>
        <time>2018-03-21T14:23:57.000Z</time>
      </trkpt>
      <trkpt lat="47.53334" lon="-1.26923">
        <ele>60</ele>
        <time>2018-03-21T14:24:03.000Z</time>
      </trkpt>
      <trkpt lat="47.5332" lon="-1.26946">
        <ele>59</ele>
        <time>2018-03-21T14:24:08.000Z</time>
      </trkpt>
      <trkpt lat="47.53305" lon="-1.26968">
        <ele>59</ele>
        <time>2018-03-21T14:24:15.000Z</time>
      </trkpt>
      <trkpt lat="47.53291" lon="-1.26983">
        <ele>59</ele>
        <time>2018-03-21T14:24:23.000Z</time>
      </trkpt>
      <trkpt lat="47.53278" lon="-1.27003">
        <ele>59</ele>
        <time>2018-03-21T14:24:26.000Z</time>
      </trkpt>
      <trkpt lat="47.53259" lon="-1.27037">
        <ele>59</ele>
        <time>2018-03-21T14:24:31.000Z</time>
      </trkpt>
      <trkpt lat="47.53244" lon="-1.27059">
        <ele>59</ele>
        <time>2018-03-21T14:24:34.000Z</time>
      </trkpt>
      <trkpt lat="47.53232" lon="-1.27078">
        <ele>59</ele>
        <time>2018-03-21T14:24:42.000Z</time>
      </trkpt>
      <trkpt lat="47.53223" lon="-1.27093">
        <ele>60</ele>
        <time>2018-03-21T14:24:49.000Z</time>
      </trkpt>
      <trkpt lat="47.53217" lon="-1.2711">
        <ele>60</ele>
        <time>2018-03-21T14:24:51.000Z</time>
      </trkpt>
      <trkpt lat="47.53208" lon="-1.27133">
        <ele>59</ele>
        <time>2018-03-21T14:24:53.000Z</time>
      </trkpt>
      <trkpt lat="47.53194" lon="-1.27155">
        <ele>59</ele>
        <time>2018-03-21T14:24:58.000Z</time>
      </trkpt>
      <trkpt lat="47.5318" lon="-1.27178">
        <ele>59</ele>
        <time>2018-03-21T14:25:04.000Z</time>
      </trkpt>
      <trkpt lat="47.53174" lon="-1.27201">
        <ele>58</ele>
        <time>2018-03-21T14:25:09.000Z</time>
      </trkpt>
      <trkpt lat="47.53168" lon="-1.27229">
        <ele>58</ele>
        <time>2018-03-21T14:25:14.000Z</time>
      </trkpt>
      <trkpt lat="47.53161" lon="-1.27257">
        <ele>57</ele>
        <time>2018-03-21T14:25:18.000Z</time>
      </trkpt>
      <trkpt lat="47.53158" lon="-1.27287">
        <ele>58</ele>
        <time>2018-03-21T14:25:23.000Z</time>
      </trkpt>
      <trkpt lat="47.53155" lon="-1.27318">
        <ele>58</ele>
        <time>2018-03-21T14:25:28.000Z</time>
      </trkpt>
      <trkpt lat="47.53151" lon="-1.27351">
        <ele>60</ele>
        <time>2018-03-21T14:25:34.000Z</time>
      </trkpt>
      <trkpt lat="47.53148" lon="-1.27384">
        <ele>60</ele>
        <time>2018-03-21T14:25:40.000Z</time>
      </trkpt>
      <trkpt lat="47.53148" lon="-1.27418">
        <ele>61</ele>
        <time>2018-03-21T14:25:46.000Z</time>
      </trkpt>
      <trkpt lat="47.53141" lon="-1.27451">
        <ele>61</ele>
        <time>2018-03-21T14:25:52.000Z</time>
      </trkpt>
      <trkpt lat="47.53135" lon="-1.27479">
        <ele>61</ele>
        <time>2018-03-21T14:25:57.000Z</time>
      </trkpt>
      <trkpt lat="47.5313" lon="-1.27509">
        <ele>60</ele>
        <time>2018-03-21T14:26:02.000Z</time>
      </trkpt>
      <trkpt lat="47.53122" lon="-1.27539">
        <ele>60</ele>
        <time>2018-03-21T14:26:08.000Z</time>
      </trkpt>
      <trkpt lat="47.53115" lon="-1.27568">
        <ele>60</ele>
        <time>2018-03-21T14:26:13.000Z</time>
      </trkpt>
      <trkpt lat="47.53105" lon="-1.2759">
        <ele>60</ele>
        <time>2018-03-21T14:26:18.000Z</time>
      </trkpt>
      <trkpt lat="47.53093" lon="-1.27617">
        <ele>60</ele>
        <time>2018-03-21T14:26:23.000Z</time>
      </trkpt>
      <trkpt lat="47.53081" lon="-1.27647">
        <ele>60</ele>
        <time>2018-03-21T14:26:27.000Z</time>
      </trkpt>
      <trkpt lat="47.53069" lon="-1.27682">
        <ele>59</ele>
        <time>2018-03-21T14:26:32.000Z</time>
      </trkpt>
      <trkpt lat="47.53054" lon="-1.27719">
        <ele>60</ele>
        <time>2018-03-21T14:26:36.000Z</time>
      </trkpt>
      <trkpt lat="47.53043" lon="-1.27756">
        <ele>59</ele>
        <time>2018-03-21T14:26:41.000Z</time>
      </trkpt>
      <trkpt lat="47.53035" lon="-1.2779">
        <ele>59</ele>
        <time>2018-03-21T14:26:46.000Z</time>
      </trkpt>
      <trkpt lat="47.53026" lon="-1.27825">
        <ele>59</ele>
        <time>2018-03-21T14:26:52.000Z</time>
      </trkpt>
      <trkpt lat="47.53013" lon="-1.27852">
        <ele>58</ele>
        <time>2018-03-21T14:26:57.000Z</time>
      </trkpt>
      <trkpt lat="47.53002" lon="-1.27879">
        <ele>58</ele>
        <time>2018-03-21T14:27:03.000Z</time>
      </trkpt>
      <trkpt lat="47.52995" lon="-1.27909">
        <ele>57</ele>
        <time>2018-03-21T14:27:10.000Z</time>
      </trkpt>
      <trkpt lat="47.5299" lon="-1.2794">
        <ele>56</ele>
        <time>2018-03-21T14:27:16.000Z</time>
      </trkpt>
      <trkpt lat="47.52988" lon="-1.27973">
        <ele>55</ele>
        <time>2018-03-21T14:27:22.000Z</time>
      </trkpt>
      <trkpt lat="47.52984" lon="-1.28007">
        <ele>54</ele>
        <time>2018-03-21T14:27:28.000Z</time>
      </trkpt>
      <trkpt lat="47.52982" lon="-1.28038">
        <ele>54</ele>
        <time>2018-03-21T14:27:33.000Z</time>
      </trkpt>
      <trkpt lat="47.52978" lon="-1.2807">
        <ele>54</ele>
        <time>2018-03-21T14:27:38.000Z</time>
      </trkpt>
      <trkpt lat="47.52975" lon="-1.28107">
        <ele>54</ele>
        <time>2018-03-21T14:27:44.000Z</time>
      </trkpt>
      <trkpt lat="47.52972" lon="-1.28141">
        <ele>54</ele>
        <time>2018-03-21T14:27:49.000Z</time>
      </trkpt>
      <trkpt lat="47.52967" lon="-1.28178">
        <ele>55</ele>
        <time>2018-03-21T14:27:53.000Z</time>
      </trkpt>
      <trkpt lat="47.52963" lon="-1.28216">
        <ele>54</ele>
        <time>2018-03-21T14:27:58.000Z</time>
      </trkpt>
      <trkpt lat="47.52956" lon="-1.2825">
        <ele>54</ele>
        <time>2018-03-21T14:28:02.000Z</time>
      </trkpt>
      <trkpt lat="47.52951" lon="-1.28284">
        <ele>55</ele>
        <time>2018-03-21T14:28:06.000Z</time>
      </trkpt>
      <trkpt lat="47.52948" lon="-1.28318">
        <ele>55</ele>
        <time>2018-03-21T14:28:11.000Z</time>
      </trkpt>
      <trkpt lat="47.52944" lon="-1.28352">
        <ele>55</ele>
        <time>2018-03-21T14:28:16.000Z</time>
      </trkpt>
      <trkpt lat="47.52938" lon="-1.28395">
        <ele>55</ele>
        <time>2018-03-21T14:28:21.000Z</time>
      </trkpt>
      <trkpt lat="47.52933" lon="-1.28428">
        <ele>54</ele>
        <time>2018-03-21T14:28:25.000Z</time>
      </trkpt>
      <trkpt lat="47.52929" lon="-1.28463">
        <ele>55</ele>
        <time>2018-03-21T14:28:30.000Z</time>
      </trkpt>
      <trkpt lat="47.52923" lon="-1.28504">
        <ele>53</ele>
        <time>2018-03-21T14:28:35.000Z</time>
      </trkpt>
      <trkpt lat="47.5292" lon="-1.28542">
        <ele>55</ele>
        <time>2018-03-21T14:28:41.000Z</time>
      </trkpt>
      <trkpt lat="47.52918" lon="-1.28575">
        <ele>54</ele>
        <time>2018-03-21T14:28:46.000Z</time>
      </trkpt>
      <trkpt lat="47.52915" lon="-1.28609">
        <ele>52</ele>
        <time>2018-03-21T14:28:51.000Z</time>
      </trkpt>
      <trkpt lat="47.52911" lon="-1.28643">
        <ele>53</ele>
        <time>2018-03-21T14:28:56.000Z</time>
      </trkpt>
      <trkpt lat="47.52906" lon="-1.28683">
        <ele>54</ele>
        <time>2018-03-21T14:29:01.000Z</time>
      </trkpt>
      <trkpt lat="47.529" lon="-1.2872">
        <ele>53</ele>
        <time>2018-03-21T14:29:05.000Z</time>
      </trkpt>
      <trkpt lat="47.52895" lon="-1.28756">
        <ele>53</ele>
        <time>2018-03-21T14:29:10.000Z</time>
      </trkpt>
      <trkpt lat="47.52889" lon="-1.28793">
        <ele>52</ele>
        <time>2018-03-21T14:29:15.000Z</time>
      </trkpt>
      <trkpt lat="47.5289" lon="-1.28821">
        <ele>52</ele>
        <time>2018-03-21T14:29:20.000Z</time>
      </trkpt>
      <trkpt lat="47.52913" lon="-1.28812">
        <ele>52</ele>
        <time>2018-03-21T14:29:27.000Z</time>
      </trkpt>
      <trkpt lat="47.52936" lon="-1.28804">
        <ele>53</ele>
        <time>2018-03-21T14:29:32.000Z</time>
      </trkpt>
      <trkpt lat="47.52958" lon="-1.28793">
        <ele>54</ele>
        <time>2018-03-21T14:29:37.000Z</time>
      </trkpt>
      <trkpt lat="47.52979" lon="-1.28784">
        <ele>54</ele>
        <time>2018-03-21T14:29:42.000Z</time>
      </trkpt>
      <trkpt lat="47.53004" lon="-1.28774">
        <ele>54</ele>
        <time>2018-03-21T14:29:48.000Z</time>
      </trkpt>
      <trkpt lat="47.53026" lon="-1.28769">
        <ele>54</ele>
        <time>2018-03-21T14:29:53.000Z</time>
      </trkpt>
      <trkpt lat="47.53042" lon="-1.28789">
        <ele>53</ele>
        <time>2018-03-21T14:30:00.000Z</time>
      </trkpt>
      <trkpt lat="47.53053" lon="-1.28817">
        <ele>52</ele>
        <time>2018-03-21T14:30:09.000Z</time>
      </trkpt>
      <trkpt lat="47.53063" lon="-1.28842">
        <ele>50</ele>
        <time>2018-03-21T14:30:16.000Z</time>
      </trkpt>
      <trkpt lat="47.53072" lon="-1.28869">
        <ele>50</ele>
        <time>2018-03-21T14:30:24.000Z</time>
      </trkpt>
      <trkpt lat="47.53083" lon="-1.28896">
        <ele>50</ele>
        <time>2018-03-21T14:30:30.000Z</time>
      </trkpt>
      <trkpt lat="47.53093" lon="-1.28924">
        <ele>49</ele>
        <time>2018-03-21T14:30:36.000Z</time>
      </trkpt>
      <trkpt lat="47.53106" lon="-1.28953">
        <ele>48</ele>
        <time>2018-03-21T14:30:42.000Z</time>
      </trkpt>
      <trkpt lat="47.53116" lon="-1.28984">
        <ele>48</ele>
        <time>2018-03-21T14:30:48.000Z</time>
      </trkpt>
      <trkpt lat="47.53124" lon="-1.29015">
        <ele>49</ele>
        <time>2018-03-21T14:30:55.000Z</time>
      </trkpt>
      <trkpt lat="47.53127" lon="-1.29047">
        <ele>49</ele>
        <time>2018-03-21T14:31:03.000Z</time>
      </trkpt>
      <trkpt lat="47.5313" lon="-1.29077">
        <ele>49</ele>
        <time>2018-03-21T14:31:10.000Z</time>
      </trkpt>
      <trkpt lat="47.53136" lon="-1.29106">
        <ele>51</ele>
        <time>2018-03-21T14:31:17.000Z</time>
      </trkpt>
      <trkpt lat="47.53141" lon="-1.29138">
        <ele>51</ele>
        <time>2018-03-21T14:31:24.000Z</time>
      </trkpt>
      <trkpt lat="47.53148" lon="-1.29167">
        <ele>52</ele>
        <time>2018-03-21T14:31:31.000Z</time>
      </trkpt>
      <trkpt lat="47.53154" lon="-1.29199">
        <ele>52</ele>
        <time>2018-03-21T14:31:38.000Z</time>
      </trkpt>
      <trkpt lat="47.53153" lon="-1.29228">
        <ele>52</ele>
        <time>2018-03-21T14:31:47.000Z</time>
      </trkpt>
      <trkpt lat="47.5317" lon="-1.29245">
        <ele>53</ele>
        <time>2018-03-21T14:31:56.000Z</time>
      </trkpt>
      <trkpt lat="47.53177" lon="-1.29271">
        <ele>53</ele>
        <time>2018-03-21T14:32:02.000Z</time>
      </trkpt>
      <trkpt lat="47.53173" lon="-1.29302">
        <ele>53</ele>
        <time>2018-03-21T14:32:08.000Z</time>
      </trkpt>
      <trkpt lat="47.53171" lon="-1.29332">
        <ele>53</ele>
        <time>2018-03-21T14:32:13.000Z</time>
      </trkpt>
      <trkpt lat="47.53169" lon="-1.29365">
        <ele>53</ele>
        <time>2018-03-21T14:32:18.000Z</time>
      </trkpt>
      <trkpt lat="47.53167" lon="-1.29397">
        <ele>54</ele>
        <time>2018-03-21T14:32:23.000Z</time>
      </trkpt>
      <trkpt lat="47.53164" lon="-1.29433">
        <ele>53</ele>
        <time>2018-03-21T14:32:29.000Z</time>
      </trkpt>
      <trkpt lat="47.53162" lon="-1.29467">
        <ele>53</ele>
        <time>2018-03-21T14:32:35.000Z</time>
      </trkpt>
      <trkpt lat="47.53161" lon="-1.29496">
        <ele>53</ele>
        <time>2018-03-21T14:32:40.000Z</time>
      </trkpt>
      <trkpt lat="47.53165" lon="-1.2953">
        <ele>52</ele>
        <time>2018-03-21T14:32:46.000Z</time>
      </trkpt>
      <trkpt lat="47.5317" lon="-1.29567">
        <ele>53</ele>
        <time>2018-03-21T14:32:51.000Z</time>
      </trkpt>
      <trkpt lat="47.53172" lon="-1.29606">
        <ele>53</ele>
        <time>2018-03-21T14:32:57.000Z</time>
      </trkpt>
      <trkpt lat="47.53173" lon="-1.29639">
        <ele>54</ele>
        <time>2018-03-21T14:33:01.000Z</time>
      </trkpt>
      <trkpt lat="47.53167" lon="-1.29666">
        <ele>54</ele>
        <time>2018-03-21T14:33:12.000Z</time>
      </trkpt>
      <trkpt lat="47.53165" lon="-1.29698">
        <ele>53</ele>
        <time>2018-03-21T14:33:20.000Z</time>
      </trkpt>
      <trkpt lat="47.53166" lon="-1.29716">
        <ele>53</ele>
        <time>2018-03-21T14:33:30.000Z</time>
      </trkpt>
      <trkpt lat="47.53161" lon="-1.29749">
        <ele>54</ele>
        <time>2018-03-21T14:35:08.000Z</time>
      </trkpt>
      <trkpt lat="47.53156" lon="-1.29786">
        <ele>53</ele>
        <time>2018-03-21T14:35:16.000Z</time>
      </trkpt>
      <trkpt lat="47.53156" lon="-1.29786">
        <ele>53</ele>
        <time>2018-03-21T14:35:17.000Z</time>
      </trkpt>
      <trkpt lat="47.53152" lon="-1.29816">
        <ele>53</ele>
        <time>2018-03-21T14:35:25.000Z</time>
      </trkpt>
      <trkpt lat="47.53146" lon="-1.29848">
        <ele>52</ele>
        <time>2018-03-21T14:35:33.000Z</time>
      </trkpt>
      <trkpt lat="47.53138" lon="-1.29879">
        <ele>51</ele>
        <time>2018-03-21T14:35:41.000Z</time>
      </trkpt>
      <trkpt lat="47.5313" lon="-1.29908">
        <ele>51</ele>
        <time>2018-03-21T14:35:48.000Z</time>
      </trkpt>
      <trkpt lat="47.53121" lon="-1.29939">
        <ele>50</ele>
        <time>2018-03-21T14:35:55.000Z</time>
      </trkpt>
      <trkpt lat="47.53114" lon="-1.29971">
        <ele>50</ele>
        <time>2018-03-21T14:36:02.000Z</time>
      </trkpt>
      <trkpt lat="47.53108" lon="-1.30003">
        <ele>50</ele>
        <time>2018-03-21T14:36:09.000Z</time>
      </trkpt>
      <trkpt lat="47.53101" lon="-1.30035">
        <ele>49</ele>
        <time>2018-03-21T14:36:17.000Z</time>
      </trkpt>
      <trkpt lat="47.53096" lon="-1.30068">
        <ele>50</ele>
        <time>2018-03-21T14:36:24.000Z</time>
      </trkpt>
      <trkpt lat="47.53093" lon="-1.30102">
        <ele>50</ele>
        <time>2018-03-21T14:36:30.000Z</time>
      </trkpt>
      <trkpt lat="47.53096" lon="-1.3014">
        <ele>50</ele>
        <time>2018-03-21T14:36:36.000Z</time>
      </trkpt>
      <trkpt lat="47.53101" lon="-1.30178">
        <ele>50</ele>
        <time>2018-03-21T14:36:42.000Z</time>
      </trkpt>
      <trkpt lat="47.53106" lon="-1.30211">
        <ele>50</ele>
        <time>2018-03-21T14:36:47.000Z</time>
      </trkpt>
      <trkpt lat="47.53114" lon="-1.30244">
        <ele>50</ele>
        <time>2018-03-21T14:36:52.000Z</time>
      </trkpt>
      <trkpt lat="47.53122" lon="-1.30278">
        <ele>50</ele>
        <time>2018-03-21T14:36:57.000Z</time>
      </trkpt>
      <trkpt lat="47.53132" lon="-1.30308">
        <ele>49</ele>
        <time>2018-03-21T14:37:02.000Z</time>
      </trkpt>
      <trkpt lat="47.53146" lon="-1.30336">
        <ele>49</ele>
        <time>2018-03-21T14:37:07.000Z</time>
      </trkpt>
      <trkpt lat="47.53161" lon="-1.30365">
        <ele>49</ele>
        <time>2018-03-21T14:37:12.000Z</time>
      </trkpt>
      <trkpt lat="47.53176" lon="-1.30395">
        <ele>47</ele>
        <time>2018-03-21T14:37:17.000Z</time>
      </trkpt>
      <trkpt lat="47.53186" lon="-1.30428">
        <ele>47</ele>
        <time>2018-03-21T14:37:22.000Z</time>
      </trkpt>
      <trkpt lat="47.53197" lon="-1.30463">
        <ele>46</ele>
        <time>2018-03-21T14:37:27.000Z</time>
      </trkpt>
      <trkpt lat="47.53206" lon="-1.30498">
        <ele>46</ele>
        <time>2018-03-21T14:37:32.000Z</time>
      </trkpt>
      <trkpt lat="47.53214" lon="-1.30533">
        <ele>46</ele>
        <time>2018-03-21T14:37:37.000Z</time>
      </trkpt>
      <trkpt lat="47.53217" lon="-1.30567">
        <ele>46</ele>
        <time>2018-03-21T14:37:42.000Z</time>
      </trkpt>
      <trkpt lat="47.53217" lon="-1.30601">
        <ele>45</ele>
        <time>2018-03-21T14:37:47.000Z</time>
      </trkpt>
      <trkpt lat="47.53218" lon="-1.30619">
        <ele>45</ele>
        <time>2018-03-21T14:37:50.000Z</time>
      </trkpt>
      <trkpt lat="47.53228" lon="-1.30633">
        <ele>45</ele>
        <time>2018-03-21T14:37:53.000Z</time>
      </trkpt>
      <trkpt lat="47.53233" lon="-1.30652">
        <ele>45</ele>
        <time>2018-03-21T14:37:57.000Z</time>
      </trkpt>
      <trkpt lat="47.53215" lon="-1.30662">
        <ele>45</ele>
        <time>2018-03-21T14:38:01.000Z</time>
      </trkpt>
      <trkpt lat="47.53193" lon="-1.30672">
        <ele>45</ele>
        <time>2018-03-21T14:38:05.000Z</time>
      </trkpt>
      <trkpt lat="47.53176" lon="-1.30677">
        <ele>45</ele>
        <time>2018-03-21T14:38:08.000Z</time>
      </trkpt>
      <trkpt lat="47.53173" lon="-1.30689">
        <ele>45</ele>
        <time>2018-03-21T14:38:10.000Z</time>
      </trkpt>
      <trkpt lat="47.53189" lon="-1.30717">
        <ele>44</ele>
        <time>2018-03-21T14:38:15.000Z</time>
      </trkpt>
      <trkpt lat="47.53212" lon="-1.30742">
        <ele>44</ele>
        <time>2018-03-21T14:38:20.000Z</time>
      </trkpt>
      <trkpt lat="47.53237" lon="-1.3076">
        <ele>43</ele>
        <time>2018-03-21T14:38:25.000Z</time>
      </trkpt>
      <trkpt lat="47.53265" lon="-1.30769">
        <ele>42</ele>
        <time>2018-03-21T14:38:30.000Z</time>
      </trkpt>
      <trkpt lat="47.53291" lon="-1.30766">
        <ele>42</ele>
        <time>2018-03-21T14:38:34.000Z</time>
      </trkpt>
      <trkpt lat="47.53315" lon="-1.30768">
        <ele>42</ele>
        <time>2018-03-21T14:38:38.000Z</time>
      </trkpt>
      <trkpt lat="47.53341" lon="-1.30762">
        <ele>41</ele>
        <time>2018-03-21T14:38:42.000Z</time>
      </trkpt>
      <trkpt lat="47.53351" lon="-1.30735">
        <ele>41</ele>
        <time>2018-03-21T14:38:46.000Z</time>
      </trkpt>
      <trkpt lat="47.53359" lon="-1.30727">
        <ele>41</ele>
        <time>2018-03-21T14:38:51.000Z</time>
      </trkpt>
      <trkpt lat="47.53371" lon="-1.30748">
        <ele>41</ele>
        <time>2018-03-21T14:38:57.000Z</time>
      </trkpt>
      <trkpt lat="47.53386" lon="-1.30777">
        <ele>42</ele>
        <time>2018-03-21T14:39:03.000Z</time>
      </trkpt>
      <trkpt lat="47.534" lon="-1.30803">
        <ele>42</ele>
        <time>2018-03-21T14:39:09.000Z</time>
      </trkpt>
      <trkpt lat="47.53415" lon="-1.30831">
        <ele>43</ele>
        <time>2018-03-21T14:39:15.000Z</time>
      </trkpt>
      <trkpt lat="47.53431" lon="-1.30859">
        <ele>43</ele>
        <time>2018-03-21T14:39:21.000Z</time>
      </trkpt>
      <trkpt lat="47.53444" lon="-1.30886">
        <ele>44</ele>
        <time>2018-03-21T14:39:26.000Z</time>
      </trkpt>
      <trkpt lat="47.53447" lon="-1.30892">
        <ele>44</ele>
        <time>2018-03-21T14:39:27.000Z</time>
      </trkpt>
      <trkpt lat="47.53449" lon="-1.30897">
        <ele>44</ele>
        <time>2018-03-21T14:39:28.000Z</time>
      </trkpt>
      <trkpt lat="47.53451" lon="-1.30903">
        <ele>44</ele>
        <time>2018-03-21T14:39:29.000Z</time>
      </trkpt>
      <trkpt lat="47.53452" lon="-1.30909">
        <ele>44</ele>
        <time>2018-03-21T14:39:30.000Z</time>
      </trkpt>
      <trkpt lat="47.53436" lon="-1.30952">
        <ele>45</ele>
        <time>2018-03-21T14:39:37.000Z</time>
      </trkpt>
      <trkpt lat="47.53426" lon="-1.30983">
        <ele>44</ele>
        <time>2018-03-21T14:39:42.000Z</time>
      </trkpt>
      <trkpt lat="47.5342" lon="-1.31015">
        <ele>44</ele>
        <time>2018-03-21T14:39:47.000Z</time>
      </trkpt>
      <trkpt lat="47.53416" lon="-1.31051">
        <ele>42</ele>
        <time>2018-03-21T14:39:54.000Z</time>
      </trkpt>
      <trkpt lat="47.53417" lon="-1.31083">
        <ele>45</ele>
        <time>2018-03-21T14:40:00.000Z</time>
      </trkpt>
      <trkpt lat="47.53421" lon="-1.31123">
        <ele>46</ele>
        <time>2018-03-21T14:40:06.000Z</time>
      </trkpt>
      <trkpt lat="47.53426" lon="-1.31158">
        <ele>45</ele>
        <time>2018-03-21T14:40:11.000Z</time>
      </trkpt>
      <trkpt lat="47.53434" lon="-1.31195">
        <ele>46</ele>
        <time>2018-03-21T14:40:17.000Z</time>
      </trkpt>
      <trkpt lat="47.53438" lon="-1.31212">
        <ele>47</ele>
        <time>2018-03-21T14:40:20.000Z</time>
      </trkpt>
      <trkpt lat="47.53441" lon="-1.31231">
        <ele>47</ele>
        <time>2018-03-21T14:40:23.000Z</time>
      </trkpt>
      <trkpt lat="47.53446" lon="-1.31264">
        <ele>47</ele>
        <time>2018-03-21T14:40:28.000Z</time>
      </trkpt>
      <trkpt lat="47.53452" lon="-1.31296">
        <ele>47</ele>
        <time>2018-03-21T14:40:33.000Z</time>
      </trkpt>
      <trkpt lat="47.53458" lon="-1.31331">
        <ele>48</ele>
        <time>2018-03-21T14:40:38.000Z</time>
      </trkpt>
      <trkpt lat="47.53465" lon="-1.31366">
        <ele>47</ele>
        <time>2018-03-21T14:40:43.000Z</time>
      </trkpt>
      <trkpt lat="47.5347" lon="-1.31404">
        <ele>47</ele>
        <time>2018-03-21T14:40:48.000Z</time>
      </trkpt>
      <trkpt lat="47.53476" lon="-1.31442">
        <ele>46</ele>
        <time>2018-03-21T14:40:53.000Z</time>
      </trkpt>
      <trkpt lat="47.53484" lon="-1.31478">
        <ele>46</ele>
        <time>2018-03-21T14:40:58.000Z</time>
      </trkpt>
      <trkpt lat="47.53491" lon="-1.31515">
        <ele>46</ele>
        <time>2018-03-21T14:41:03.000Z</time>
      </trkpt>
      <trkpt lat="47.53497" lon="-1.31552">
        <ele>47</ele>
        <time>2018-03-21T14:41:08.000Z</time>
      </trkpt>
      <trkpt lat="47.53502" lon="-1.31588">
        <ele>50</ele>
        <time>2018-03-21T14:41:13.000Z</time>
      </trkpt>
      <trkpt lat="47.535" lon="-1.31594">
        <ele>50</ele>
        <time>2018-03-21T14:41:14.000Z</time>
      </trkpt>
      <trkpt lat="47.53497" lon="-1.31597">
        <ele>48</ele>
        <time>2018-03-21T14:41:15.000Z</time>
      </trkpt>
      <trkpt lat="47.53493" lon="-1.31599">
        <ele>48</ele>
        <time>2018-03-21T14:41:16.000Z</time>
      </trkpt>
      <trkpt lat="47.53489" lon="-1.31601">
        <ele>48</ele>
        <time>2018-03-21T14:41:17.000Z</time>
      </trkpt>
      <trkpt lat="47.53458" lon="-1.31623">
        <ele>46</ele>
        <time>2018-03-21T14:41:24.000Z</time>
      </trkpt>
      <trkpt lat="47.53436" lon="-1.31637">
        <ele>46</ele>
        <time>2018-03-21T14:41:29.000Z</time>
      </trkpt>
      <trkpt lat="47.53413" lon="-1.31653">
        <ele>45</ele>
        <time>2018-03-21T14:41:34.000Z</time>
      </trkpt>
      <trkpt lat="47.53392" lon="-1.31669">
        <ele>44</ele>
        <time>2018-03-21T14:41:39.000Z</time>
      </trkpt>
      <trkpt lat="47.53378" lon="-1.317">
        <ele>44</ele>
        <time>2018-03-21T14:41:45.000Z</time>
      </trkpt>
      <trkpt lat="47.53371" lon="-1.31736">
        <ele>44</ele>
        <time>2018-03-21T14:41:51.000Z</time>
      </trkpt>
      <trkpt lat="47.53364" lon="-1.31772">
        <ele>43</ele>
        <time>2018-03-21T14:41:57.000Z</time>
      </trkpt>
      <trkpt lat="47.53358" lon="-1.31806">
        <ele>43</ele>
        <time>2018-03-21T14:42:03.000Z</time>
      </trkpt>
      <trkpt lat="47.53352" lon="-1.31841">
        <ele>43</ele>
        <time>2018-03-21T14:42:09.000Z</time>
      </trkpt>
      <trkpt lat="47.53352" lon="-1.31877">
        <ele>43</ele>
        <time>2018-03-21T14:42:15.000Z</time>
      </trkpt>
      <trkpt lat="47.53363" lon="-1.31908">
        <ele>43</ele>
        <time>2018-03-21T14:42:21.000Z</time>
      </trkpt>
      <trkpt lat="47.53372" lon="-1.31939">
        <ele>42</ele>
        <time>2018-03-21T14:42:27.000Z</time>
      </trkpt>
      <trkpt lat="47.53378" lon="-1.31969">
        <ele>42</ele>
        <time>2018-03-21T14:42:33.000Z</time>
      </trkpt>
      <trkpt lat="47.53379" lon="-1.32003">
        <ele>41</ele>
        <time>2018-03-21T14:42:39.000Z</time>
      </trkpt>
      <trkpt lat="47.53376" lon="-1.32037">
        <ele>41</ele>
        <time>2018-03-21T14:42:45.000Z</time>
      </trkpt>
      <trkpt lat="47.53376" lon="-1.32072">
        <ele>41</ele>
        <time>2018-03-21T14:42:51.000Z</time>
      </trkpt>
      <trkpt lat="47.53373" lon="-1.32111">
        <ele>39</ele>
        <time>2018-03-21T14:42:57.000Z</time>
      </trkpt>
      <trkpt lat="47.53371" lon="-1.32146">
        <ele>39</ele>
        <time>2018-03-21T14:43:03.000Z</time>
      </trkpt>
      <trkpt lat="47.53368" lon="-1.3218">
        <ele>38</ele>
        <time>2018-03-21T14:43:09.000Z</time>
      </trkpt>
      <trkpt lat="47.53362" lon="-1.32215">
        <ele>38</ele>
        <time>2018-03-21T14:43:15.000Z</time>
      </trkpt>
      <trkpt lat="47.53357" lon="-1.32249">
        <ele>37</ele>
        <time>2018-03-21T14:43:20.000Z</time>
      </trkpt>
      <trkpt lat="47.5335" lon="-1.32285">
        <ele>36</ele>
        <time>2018-03-21T14:43:25.000Z</time>
      </trkpt>
      <trkpt lat="47.53345" lon="-1.3231">
        <ele>36</ele>
        <time>2018-03-21T14:43:28.000Z</time>
      </trkpt>
      <trkpt lat="47.5334" lon="-1.32326">
        <ele>36</ele>
        <time>2018-03-21T14:43:30.000Z</time>
      </trkpt>
      <trkpt lat="47.5332" lon="-1.32345">
        <ele>36</ele>
        <time>2018-03-21T14:43:34.000Z</time>
      </trkpt>
      <trkpt lat="47.53297" lon="-1.3235">
        <ele>35</ele>
        <time>2018-03-21T14:43:40.000Z</time>
      </trkpt>
      <trkpt lat="47.53276" lon="-1.32352">
        <ele>35</ele>
        <time>2018-03-21T14:43:47.000Z</time>
      </trkpt>
      <trkpt lat="47.53253" lon="-1.32355">
        <ele>35</ele>
        <time>2018-03-21T14:43:54.000Z</time>
      </trkpt>
      <trkpt lat="47.5323" lon="-1.32361">
        <ele>35</ele>
        <time>2018-03-21T14:44:01.000Z</time>
      </trkpt>
      <trkpt lat="47.53207" lon="-1.32365">
        <ele>35</ele>
        <time>2018-03-21T14:44:07.000Z</time>
      </trkpt>
      <trkpt lat="47.53186" lon="-1.3237">
        <ele>35</ele>
        <time>2018-03-21T14:44:14.000Z</time>
      </trkpt>
      <trkpt lat="47.53164" lon="-1.32374">
        <ele>36</ele>
        <time>2018-03-21T14:44:21.000Z</time>
      </trkpt>
      <trkpt lat="47.5314" lon="-1.32381">
        <ele>36</ele>
        <time>2018-03-21T14:44:27.000Z</time>
      </trkpt>
      <trkpt lat="47.53121" lon="-1.32397">
        <ele>36</ele>
        <time>2018-03-21T14:44:32.000Z</time>
      </trkpt>
      <trkpt lat="47.53119" lon="-1.32437">
        <ele>35</ele>
        <time>2018-03-21T14:44:37.000Z</time>
      </trkpt>
      <trkpt lat="47.5311" lon="-1.32471">
        <ele>35</ele>
        <time>2018-03-21T14:44:41.000Z</time>
      </trkpt>
      <trkpt lat="47.53087" lon="-1.32489">
        <ele>35</ele>
        <time>2018-03-21T14:44:45.000Z</time>
      </trkpt>
      <trkpt lat="47.53062" lon="-1.32501">
        <ele>34</ele>
        <time>2018-03-21T14:44:49.000Z</time>
      </trkpt>
      <trkpt lat="47.53042" lon="-1.32513">
        <ele>33</ele>
        <time>2018-03-21T14:44:56.000Z</time>
      </trkpt>
      <trkpt lat="47.53023" lon="-1.32522">
        <ele>32</ele>
        <time>2018-03-21T14:45:04.000Z</time>
      </trkpt>
      <trkpt lat="47.53008" lon="-1.32542">
        <ele>32</ele>
        <time>2018-03-21T14:45:12.000Z</time>
      </trkpt>
      <trkpt lat="47.52995" lon="-1.32565">
        <ele>32</ele>
        <time>2018-03-21T14:45:20.000Z</time>
      </trkpt>
      <trkpt lat="47.52984" lon="-1.32594">
        <ele>31</ele>
        <time>2018-03-21T14:45:27.000Z</time>
      </trkpt>
      <trkpt lat="47.52978" lon="-1.32627">
        <ele>32</ele>
        <time>2018-03-21T14:45:34.000Z</time>
      </trkpt>
      <trkpt lat="47.52974" lon="-1.32658">
        <ele>32</ele>
        <time>2018-03-21T14:45:41.000Z</time>
      </trkpt>
      <trkpt lat="47.52974" lon="-1.32689">
        <ele>32</ele>
        <time>2018-03-21T14:45:47.000Z</time>
      </trkpt>
      <trkpt lat="47.52972" lon="-1.32724">
        <ele>32</ele>
        <time>2018-03-21T14:45:55.000Z</time>
      </trkpt>
      <trkpt lat="47.52965" lon="-1.32759">
        <ele>32</ele>
        <time>2018-03-21T14:46:01.000Z</time>
      </trkpt>
      <trkpt lat="47.52956" lon="-1.32789">
        <ele>32</ele>
        <time>2018-03-21T14:46:06.000Z</time>
      </trkpt>
      <trkpt lat="47.5295" lon="-1.32821">
        <ele>33</ele>
        <time>2018-03-21T14:46:12.000Z</time>
      </trkpt>
      <trkpt lat="47.52942" lon="-1.3285">
        <ele>33</ele>
        <time>2018-03-21T14:46:18.000Z</time>
      </trkpt>
      <trkpt lat="47.5293" lon="-1.3288">
        <ele>33</ele>
        <time>2018-03-21T14:46:24.000Z</time>
      </trkpt>
      <trkpt lat="47.52924" lon="-1.32913">
        <ele>34</ele>
        <time>2018-03-21T14:46:31.000Z</time>
      </trkpt>
      <trkpt lat="47.52918" lon="-1.32946">
        <ele>33</ele>
        <time>2018-03-21T14:46:38.000Z</time>
      </trkpt>
      <trkpt lat="47.52908" lon="-1.32973">
        <ele>33</ele>
        <time>2018-03-21T14:46:44.000Z</time>
      </trkpt>
      <trkpt lat="47.52897" lon="-1.32999">
        <ele>32</ele>
        <time>2018-03-21T14:46:50.000Z</time>
      </trkpt>
      <trkpt lat="47.52892" lon="-1.33008">
        <ele>32</ele>
        <time>2018-03-21T14:46:54.000Z</time>
      </trkpt>
      <trkpt lat="47.52903" lon="-1.33035">
        <ele>32</ele>
        <time>2018-03-21T14:47:00.000Z</time>
      </trkpt>
      <trkpt lat="47.52916" lon="-1.33069">
        <ele>33</ele>
        <time>2018-03-21T14:47:06.000Z</time>
      </trkpt>
      <trkpt lat="47.52927" lon="-1.33102">
        <ele>34</ele>
        <time>2018-03-21T14:47:12.000Z</time>
      </trkpt>
      <trkpt lat="47.52922" lon="-1.33136">
        <ele>34</ele>
        <time>2018-03-21T14:47:18.000Z</time>
      </trkpt>
      <trkpt lat="47.5292" lon="-1.33169">
        <ele>33</ele>
        <time>2018-03-21T14:47:24.000Z</time>
      </trkpt>
      <trkpt lat="47.5292" lon="-1.33201">
        <ele>34</ele>
        <time>2018-03-21T14:47:30.000Z</time>
      </trkpt>
      <trkpt lat="47.52914" lon="-1.33236">
        <ele>32</ele>
        <time>2018-03-21T14:47:37.000Z</time>
      </trkpt>
      <trkpt lat="47.52908" lon="-1.3327">
        <ele>32</ele>
        <time>2018-03-21T14:47:43.000Z</time>
      </trkpt>
      <trkpt lat="47.52905" lon="-1.33303">
        <ele>32</ele>
        <time>2018-03-21T14:47:49.000Z</time>
      </trkpt>
      <trkpt lat="47.52903" lon="-1.33308">
        <ele>32</ele>
        <time>2018-03-21T14:47:51.000Z</time>
      </trkpt>
      <trkpt lat="47.52898" lon="-1.33304">
        <ele>32</ele>
        <time>2018-03-21T14:47:53.000Z</time>
      </trkpt>
      <trkpt lat="47.52895" lon="-1.33302">
        <ele>32</ele>
        <time>2018-03-21T14:47:54.000Z</time>
      </trkpt>
      <trkpt lat="47.52892" lon="-1.333">
        <ele>32</ele>
        <time>2018-03-21T14:47:55.000Z</time>
      </trkpt>
      <trkpt lat="47.52889" lon="-1.33299">
        <ele>32</ele>
        <time>2018-03-21T14:47:56.000Z</time>
      </trkpt>
      <trkpt lat="47.5286" lon="-1.33288">
        <ele>31</ele>
        <time>2018-03-21T14:48:06.000Z</time>
      </trkpt>
      <trkpt lat="47.52852" lon="-1.33297">
        <ele>31</ele>
        <time>2018-03-21T14:48:12.000Z</time>
      </trkpt>
      <trkpt lat="47.52858" lon="-1.33315">
        <ele>31</ele>
        <time>2018-03-21T14:48:21.000Z</time>
      </trkpt>
      <trkpt lat="47.52853" lon="-1.33343">
        <ele>31</ele>
        <time>2018-03-21T14:48:31.000Z</time>
      </trkpt>
      <trkpt lat="47.52853" lon="-1.33371">
        <ele>32</ele>
        <time>2018-03-21T14:48:38.000Z</time>
      </trkpt>
      <trkpt lat="47.52858" lon="-1.33399">
        <ele>32</ele>
        <time>2018-03-21T14:48:46.000Z</time>
      </trkpt>
      <trkpt lat="47.52861" lon="-1.33424">
        <ele>32</ele>
        <time>2018-03-21T14:49:02.000Z</time>
      </trkpt>
      <trkpt lat="47.52854" lon="-1.33451">
        <ele>32</ele>
        <time>2018-03-21T14:49:10.000Z</time>
      </trkpt>
      <trkpt lat="47.52857" lon="-1.33483">
        <ele>32</ele>
        <time>2018-03-21T14:49:19.000Z</time>
      </trkpt>
      <trkpt lat="47.52862" lon="-1.33513">
        <ele>32</ele>
        <time>2018-03-21T14:49:30.000Z</time>
      </trkpt>
      <trkpt lat="47.52869" lon="-1.33541">
        <ele>32</ele>
        <time>2018-03-21T14:49:41.000Z</time>
      </trkpt>
      <trkpt lat="47.52869" lon="-1.33541">
        <ele>32</ele>
        <time>2018-03-21T14:49:42.000Z</time>
      </trkpt>
      <trkpt lat="47.52876" lon="-1.33576">
        <ele>32</ele>
        <time>2018-03-21T14:50:18.000Z</time>
      </trkpt>
      <trkpt lat="47.529" lon="-1.33581">
        <ele>32</ele>
        <time>2018-03-21T14:50:26.000Z</time>
      </trkpt>
      <trkpt lat="47.52921" lon="-1.33583">
        <ele>33</ele>
        <time>2018-03-21T14:50:32.000Z</time>
      </trkpt>
      <trkpt lat="47.52946" lon="-1.33584">
        <ele>34</ele>
        <time>2018-03-21T14:50:39.000Z</time>
      </trkpt>
      <trkpt lat="47.5297" lon="-1.33586">
        <ele>35</ele>
        <time>2018-03-21T14:50:45.000Z</time>
      </trkpt>
      <trkpt lat="47.52992" lon="-1.33593">
        <ele>36</ele>
        <time>2018-03-21T14:50:51.000Z</time>
      </trkpt>
      <trkpt lat="47.53013" lon="-1.33601">
        <ele>37</ele>
        <time>2018-03-21T14:50:57.000Z</time>
      </trkpt>
      <trkpt lat="47.53035" lon="-1.33607">
        <ele>38</ele>
        <time>2018-03-21T14:51:03.000Z</time>
      </trkpt>
      <trkpt lat="47.53056" lon="-1.33607">
        <ele>38</ele>
        <time>2018-03-21T14:51:09.000Z</time>
      </trkpt>
      <trkpt lat="47.53077" lon="-1.33605">
        <ele>38</ele>
        <time>2018-03-21T14:51:15.000Z</time>
      </trkpt>
      <trkpt lat="47.53103" lon="-1.33603">
        <ele>40</ele>
        <time>2018-03-21T14:51:21.000Z</time>
      </trkpt>
      <trkpt lat="47.53125" lon="-1.33601">
        <ele>41</ele>
        <time>2018-03-21T14:51:27.000Z</time>
      </trkpt>
      <trkpt lat="47.53149" lon="-1.33596">
        <ele>42</ele>
        <time>2018-03-21T14:51:33.000Z</time>
      </trkpt>
      <trkpt lat="47.53173" lon="-1.33587">
        <ele>44</ele>
        <time>2018-03-21T14:51:39.000Z</time>
      </trkpt>
      <trkpt lat="47.53195" lon="-1.33577">
        <ele>46</ele>
        <time>2018-03-21T14:51:45.000Z</time>
      </trkpt>
      <trkpt lat="47.53217" lon="-1.33567">
        <ele>46</ele>
        <time>2018-03-21T14:51:51.000Z</time>
      </trkpt>
      <trkpt lat="47.5324" lon="-1.33562">
        <ele>47</ele>
        <time>2018-03-21T14:51:57.000Z</time>
      </trkpt>
      <trkpt lat="47.53257" lon="-1.33586">
        <ele>48</ele>
        <time>2018-03-21T14:52:03.000Z</time>
      </trkpt>
      <trkpt lat="47.53269" lon="-1.33619">
        <ele>49</ele>
        <time>2018-03-21T14:52:09.000Z</time>
      </trkpt>
      <trkpt lat="47.53279" lon="-1.33653">
        <ele>49</ele>
        <time>2018-03-21T14:52:15.000Z</time>
      </trkpt>
      <trkpt lat="47.53286" lon="-1.33687">
        <ele>50</ele>
        <time>2018-03-21T14:52:21.000Z</time>
      </trkpt>
      <trkpt lat="47.53295" lon="-1.33719">
        <ele>50</ele>
        <time>2018-03-21T14:52:27.000Z</time>
      </trkpt>
      <trkpt lat="47.53306" lon="-1.33747">
        <ele>50</ele>
        <time>2018-03-21T14:52:33.000Z</time>
      </trkpt>
      <trkpt lat="47.53322" lon="-1.33769">
        <ele>51</ele>
        <time>2018-03-21T14:52:39.000Z</time>
      </trkpt>
      <trkpt lat="47.53344" lon="-1.33781">
        <ele>53</ele>
        <time>2018-03-21T14:52:45.000Z</time>
      </trkpt>
      <trkpt lat="47.53369" lon="-1.3379">
        <ele>53</ele>
        <time>2018-03-21T14:52:51.000Z</time>
      </trkpt>
      <trkpt lat="47.53385" lon="-1.338">
        <ele>54</ele>
        <time>2018-03-21T14:52:55.000Z</time>
      </trkpt>
      <trkpt lat="47.5339" lon="-1.33809">
        <ele>54</ele>
        <time>2018-03-21T14:52:57.000Z</time>
      </trkpt>
      <trkpt lat="47.53373" lon="-1.33841">
        <ele>54</ele>
        <time>2018-03-21T14:53:03.000Z</time>
      </trkpt>
      <trkpt lat="47.53354" lon="-1.3387">
        <ele>54</ele>
        <time>2018-03-21T14:53:08.000Z</time>
      </trkpt>
      <trkpt lat="47.53337" lon="-1.33904">
        <ele>53</ele>
        <time>2018-03-21T14:53:13.000Z</time>
      </trkpt>
      <trkpt lat="47.53322" lon="-1.3394">
        <ele>52</ele>
        <time>2018-03-21T14:53:18.000Z</time>
      </trkpt>
      <trkpt lat="47.53307" lon="-1.33978">
        <ele>52</ele>
        <time>2018-03-21T14:53:23.000Z</time>
      </trkpt>
      <trkpt lat="47.53295" lon="-1.3401">
        <ele>51</ele>
        <time>2018-03-21T14:53:27.000Z</time>
      </trkpt>
      <trkpt lat="47.53283" lon="-1.34045">
        <ele>51</ele>
        <time>2018-03-21T14:53:31.000Z</time>
      </trkpt>
      <trkpt lat="47.53281" lon="-1.34082">
        <ele>51</ele>
        <time>2018-03-21T14:53:35.000Z</time>
      </trkpt>
      <trkpt lat="47.53288" lon="-1.3412">
        <ele>50</ele>
        <time>2018-03-21T14:53:39.000Z</time>
      </trkpt>
      <trkpt lat="47.53295" lon="-1.3416">
        <ele>50</ele>
        <time>2018-03-21T14:53:43.000Z</time>
      </trkpt>
      <trkpt lat="47.53302" lon="-1.34198">
        <ele>49</ele>
        <time>2018-03-21T14:53:47.000Z</time>
      </trkpt>
      <trkpt lat="47.5331" lon="-1.34234">
        <ele>49</ele>
        <time>2018-03-21T14:53:51.000Z</time>
      </trkpt>
      <trkpt lat="47.5332" lon="-1.34268">
        <ele>48</ele>
        <time>2018-03-21T14:53:55.000Z</time>
      </trkpt>
      <trkpt lat="47.53328" lon="-1.34308">
        <ele>48</ele>
        <time>2018-03-21T14:54:00.000Z</time>
      </trkpt>
      <trkpt lat="47.53339" lon="-1.34341">
        <ele>49</ele>
        <time>2018-03-21T14:54:04.000Z</time>
      </trkpt>
      <trkpt lat="47.53342" lon="-1.34358">
        <ele>50</ele>
        <time>2018-03-21T14:54:06.000Z</time>
      </trkpt>
      <trkpt lat="47.53344" lon="-1.34377">
        <ele>50</ele>
        <time>2018-03-21T14:54:08.000Z</time>
      </trkpt>
      <trkpt lat="47.53337" lon="-1.34412">
        <ele>49</ele>
        <time>2018-03-21T14:54:12.000Z</time>
      </trkpt>
      <trkpt lat="47.53325" lon="-1.34445">
        <ele>48</ele>
        <time>2018-03-21T14:54:16.000Z</time>
      </trkpt>
      <trkpt lat="47.53308" lon="-1.34476">
        <ele>48</ele>
        <time>2018-03-21T14:54:20.000Z</time>
      </trkpt>
      <trkpt lat="47.53297" lon="-1.34509">
        <ele>49</ele>
        <time>2018-03-21T14:54:24.000Z</time>
      </trkpt>
      <trkpt lat="47.53292" lon="-1.34544">
        <ele>49</ele>
        <time>2018-03-21T14:54:28.000Z</time>
      </trkpt>
      <trkpt lat="47.53287" lon="-1.34586">
        <ele>49</ele>
        <time>2018-03-21T14:54:33.000Z</time>
      </trkpt>
      <trkpt lat="47.53283" lon="-1.34621">
        <ele>49</ele>
        <time>2018-03-21T14:54:37.000Z</time>
      </trkpt>
      <trkpt lat="47.53279" lon="-1.34658">
        <ele>49</ele>
        <time>2018-03-21T14:54:41.000Z</time>
      </trkpt>
      <trkpt lat="47.53275" lon="-1.34696">
        <ele>49</ele>
        <time>2018-03-21T14:54:45.000Z</time>
      </trkpt>
      <trkpt lat="47.53274" lon="-1.34713">
        <ele>49</ele>
        <time>2018-03-21T14:54:47.000Z</time>
      </trkpt>
      <trkpt lat="47.53276" lon="-1.34739">
        <ele>49</ele>
        <time>2018-03-21T14:54:50.000Z</time>
      </trkpt>
      <trkpt lat="47.53283" lon="-1.34779">
        <ele>49</ele>
        <time>2018-03-21T14:54:55.000Z</time>
      </trkpt>
      <trkpt lat="47.53301" lon="-1.34807">
        <ele>49</ele>
        <time>2018-03-21T14:55:00.000Z</time>
      </trkpt>
      <trkpt lat="47.53325" lon="-1.34809">
        <ele>50</ele>
        <time>2018-03-21T14:55:05.000Z</time>
      </trkpt>
      <trkpt lat="47.53347" lon="-1.34804">
        <ele>51</ele>
        <time>2018-03-21T14:55:10.000Z</time>
      </trkpt>
      <trkpt lat="47.53369" lon="-1.34799">
        <ele>51</ele>
        <time>2018-03-21T14:55:15.000Z</time>
      </trkpt>
      <trkpt lat="47.53394" lon="-1.34792">
        <ele>51</ele>
        <time>2018-03-21T14:55:21.000Z</time>
      </trkpt>
      <trkpt lat="47.53417" lon="-1.34785">
        <ele>52</ele>
        <time>2018-03-21T14:55:26.000Z</time>
      </trkpt>
      <trkpt lat="47.5344" lon="-1.3478">
        <ele>52</ele>
        <time>2018-03-21T14:55:31.000Z</time>
      </trkpt>
      <trkpt lat="47.53466" lon="-1.34773">
        <ele>52</ele>
        <time>2018-03-21T14:55:37.000Z</time>
      </trkpt>
      <trkpt lat="47.53493" lon="-1.34766">
        <ele>52</ele>
        <time>2018-03-21T14:55:43.000Z</time>
      </trkpt>
      <trkpt lat="47.53515" lon="-1.34759">
        <ele>52</ele>
        <time>2018-03-21T14:55:48.000Z</time>
      </trkpt>
      <trkpt lat="47.53537" lon="-1.34754">
        <ele>52</ele>
        <time>2018-03-21T14:55:53.000Z</time>
      </trkpt>
      <trkpt lat="47.53561" lon="-1.34747">
        <ele>53</ele>
        <time>2018-03-21T14:55:58.000Z</time>
      </trkpt>
      <trkpt lat="47.53587" lon="-1.3474">
        <ele>53</ele>
        <time>2018-03-21T14:56:03.000Z</time>
      </trkpt>
      <trkpt lat="47.53613" lon="-1.34734">
        <ele>52</ele>
        <time>2018-03-21T14:56:08.000Z</time>
      </trkpt>
      <trkpt lat="47.53639" lon="-1.34726">
        <ele>52</ele>
        <time>2018-03-21T14:56:13.000Z</time>
      </trkpt>
      <trkpt lat="47.53655" lon="-1.34722">
        <ele>52</ele>
        <time>2018-03-21T14:56:16.000Z</time>
      </trkpt>
      <trkpt lat="47.53661" lon="-1.34732">
        <ele>52</ele>
        <time>2018-03-21T14:56:18.000Z</time>
      </trkpt>
      <trkpt lat="47.53665" lon="-1.34769">
        <ele>51</ele>
        <time>2018-03-21T14:56:23.000Z</time>
      </trkpt>
      <trkpt lat="47.53671" lon="-1.34805">
        <ele>52</ele>
        <time>2018-03-21T14:56:28.000Z</time>
      </trkpt>
      <trkpt lat="47.53676" lon="-1.34839">
        <ele>52</ele>
        <time>2018-03-21T14:56:33.000Z</time>
      </trkpt>
      <trkpt lat="47.53681" lon="-1.34876">
        <ele>53</ele>
        <time>2018-03-21T14:56:38.000Z</time>
      </trkpt>
      <trkpt lat="47.53686" lon="-1.34911">
        <ele>54</ele>
        <time>2018-03-21T14:56:44.000Z</time>
      </trkpt>
      <trkpt lat="47.53693" lon="-1.34943">
        <ele>56</ele>
        <time>2018-03-21T14:56:51.000Z</time>
      </trkpt>
      <trkpt lat="47.53705" lon="-1.34969">
        <ele>56</ele>
        <time>2018-03-21T14:56:58.000Z</time>
      </trkpt>
      <trkpt lat="47.5372" lon="-1.34995">
        <ele>56</ele>
        <time>2018-03-21T14:57:06.000Z</time>
      </trkpt>
      <trkpt lat="47.53733" lon="-1.35019">
        <ele>58</ele>
        <time>2018-03-21T14:57:14.000Z</time>
      </trkpt>
      <trkpt lat="47.53744" lon="-1.35046">
        <ele>58</ele>
        <time>2018-03-21T14:57:22.000Z</time>
      </trkpt>
      <trkpt lat="47.53754" lon="-1.35071">
        <ele>58</ele>
        <time>2018-03-21T14:57:29.000Z</time>
      </trkpt>
      <trkpt lat="47.53762" lon="-1.35103">
        <ele>59</ele>
        <time>2018-03-21T14:57:37.000Z</time>
      </trkpt>
      <trkpt lat="47.53767" lon="-1.35135">
        <ele>60</ele>
        <time>2018-03-21T14:57:45.000Z</time>
      </trkpt>
      <trkpt lat="47.53773" lon="-1.35165">
        <ele>60</ele>
        <time>2018-03-21T14:57:53.000Z</time>
      </trkpt>
      <trkpt lat="47.53775" lon="-1.35195">
        <ele>61</ele>
        <time>2018-03-21T14:58:00.000Z</time>
      </trkpt>
      <trkpt lat="47.53776" lon="-1.35229">
        <ele>61</ele>
        <time>2018-03-21T14:58:07.000Z</time>
      </trkpt>
      <trkpt lat="47.53777" lon="-1.35263">
        <ele>60</ele>
        <time>2018-03-21T14:58:13.000Z</time>
      </trkpt>
      <trkpt lat="47.5378" lon="-1.35294">
        <ele>60</ele>
        <time>2018-03-21T14:58:19.000Z</time>
      </trkpt>
      <trkpt lat="47.53783" lon="-1.35328">
        <ele>60</ele>
        <time>2018-03-21T14:58:26.000Z</time>
      </trkpt>
      <trkpt lat="47.53783" lon="-1.35363">
        <ele>58</ele>
        <time>2018-03-21T14:58:33.000Z</time>
      </trkpt>
      <trkpt lat="47.53768" lon="-1.35381">
        <ele>58</ele>
        <time>2018-03-21T14:58:40.000Z</time>
      </trkpt>
      <trkpt lat="47.53748" lon="-1.35396">
        <ele>60</ele>
        <time>2018-03-21T14:58:47.000Z</time>
      </trkpt>
      <trkpt lat="47.53726" lon="-1.35409">
        <ele>60</ele>
        <time>2018-03-21T14:58:54.000Z</time>
      </trkpt>
      <trkpt lat="47.53705" lon="-1.35422">
        <ele>58</ele>
        <time>2018-03-21T14:59:00.000Z</time>
      </trkpt>
      <trkpt lat="47.53685" lon="-1.35436">
        <ele>58</ele>
        <time>2018-03-21T14:59:06.000Z</time>
      </trkpt>
      <trkpt lat="47.53665" lon="-1.3545">
        <ele>58</ele>
        <time>2018-03-21T14:59:12.000Z</time>
      </trkpt>
      <trkpt lat="47.53643" lon="-1.35464">
        <ele>58</ele>
        <time>2018-03-21T14:59:20.000Z</time>
      </trkpt>
      <trkpt lat="47.53624" lon="-1.35475">
        <ele>58</ele>
        <time>2018-03-21T14:59:27.000Z</time>
      </trkpt>
      <trkpt lat="47.53611" lon="-1.35486">
        <ele>58</ele>
        <time>2018-03-21T14:59:33.000Z</time>
      </trkpt>
      <trkpt lat="47.53613" lon="-1.35499">
        <ele>58</ele>
        <time>2018-03-21T14:59:37.000Z</time>
      </trkpt>
      <trkpt lat="47.5362" lon="-1.35529">
        <ele>57</ele>
        <time>2018-03-21T14:59:44.000Z</time>
      </trkpt>
      <trkpt lat="47.53629" lon="-1.35558">
        <ele>57</ele>
        <time>2018-03-21T14:59:50.000Z</time>
      </trkpt>
      <trkpt lat="47.53638" lon="-1.35587">
        <ele>58</ele>
        <time>2018-03-21T14:59:56.000Z</time>
      </trkpt>
      <trkpt lat="47.53648" lon="-1.35619">
        <ele>58</ele>
        <time>2018-03-21T15:00:02.000Z</time>
      </trkpt>
      <trkpt lat="47.53656" lon="-1.35653">
        <ele>58</ele>
        <time>2018-03-21T15:00:09.000Z</time>
      </trkpt>
      <trkpt lat="47.53666" lon="-1.35686">
        <ele>59</ele>
        <time>2018-03-21T15:00:16.000Z</time>
      </trkpt>
      <trkpt lat="47.53674" lon="-1.35715">
        <ele>57</ele>
        <time>2018-03-21T15:00:22.000Z</time>
      </trkpt>
      <trkpt lat="47.53682" lon="-1.35744">
        <ele>58</ele>
        <time>2018-03-21T15:00:29.000Z</time>
      </trkpt>
      <trkpt lat="47.5368" lon="-1.35776">
        <ele>58</ele>
        <time>2018-03-21T15:00:37.000Z</time>
      </trkpt>
      <trkpt lat="47.53677" lon="-1.35808">
        <ele>57</ele>
        <time>2018-03-21T15:00:45.000Z</time>
      </trkpt>
      <trkpt lat="47.53676" lon="-1.35838">
        <ele>58</ele>
        <time>2018-03-21T15:00:55.000Z</time>
      </trkpt>
      <trkpt lat="47.53679" lon="-1.35869">
        <ele>58</ele>
        <time>2018-03-21T15:01:03.000Z</time>
      </trkpt>
      <trkpt lat="47.53687" lon="-1.35898">
        <ele>58</ele>
        <time>2018-03-21T15:01:11.000Z</time>
      </trkpt>
      <trkpt lat="47.53698" lon="-1.35926">
        <ele>59</ele>
        <time>2018-03-21T15:01:19.000Z</time>
      </trkpt>
      <trkpt lat="47.53709" lon="-1.35953">
        <ele>59</ele>
        <time>2018-03-21T15:01:26.000Z</time>
      </trkpt>
      <trkpt lat="47.53719" lon="-1.35982">
        <ele>59</ele>
        <time>2018-03-21T15:01:33.000Z</time>
      </trkpt>
      <trkpt lat="47.53726" lon="-1.36">
        <ele>59</ele>
        <time>2018-03-21T15:01:37.000Z</time>
      </trkpt>
      <trkpt lat="47.53734" lon="-1.36006">
        <ele>58</ele>
        <time>2018-03-21T15:01:40.000Z</time>
      </trkpt>
      <trkpt lat="47.53738" lon="-1.36019">
        <ele>58</ele>
        <time>2018-03-21T15:01:45.000Z</time>
      </trkpt>
      <trkpt lat="47.53727" lon="-1.36038">
        <ele>59</ele>
        <time>2018-03-21T15:01:50.000Z</time>
      </trkpt>
      <trkpt lat="47.5371" lon="-1.3606">
        <ele>59</ele>
        <time>2018-03-21T15:01:55.000Z</time>
      </trkpt>
      <trkpt lat="47.5369" lon="-1.36085">
        <ele>58</ele>
        <time>2018-03-21T15:02:00.000Z</time>
      </trkpt>
      <trkpt lat="47.5367" lon="-1.36111">
        <ele>58</ele>
        <time>2018-03-21T15:02:05.000Z</time>
      </trkpt>
      <trkpt lat="47.53652" lon="-1.36135">
        <ele>60</ele>
        <time>2018-03-21T15:02:10.000Z</time>
      </trkpt>
      <trkpt lat="47.53633" lon="-1.36161">
        <ele>60</ele>
        <time>2018-03-21T15:02:16.000Z</time>
      </trkpt>
      <trkpt lat="47.53614" lon="-1.36185">
        <ele>58</ele>
        <time>2018-03-21T15:02:22.000Z</time>
      </trkpt>
      <trkpt lat="47.53598" lon="-1.36207">
        <ele>58</ele>
        <time>2018-03-21T15:02:27.000Z</time>
      </trkpt>
      <trkpt lat="47.53579" lon="-1.36228">
        <ele>57</ele>
        <time>2018-03-21T15:02:32.000Z</time>
      </trkpt>
      <trkpt lat="47.53558" lon="-1.36249">
        <ele>57</ele>
        <time>2018-03-21T15:02:36.000Z</time>
      </trkpt>
      <trkpt lat="47.53536" lon="-1.36268">
        <ele>54</ele>
        <time>2018-03-21T15:02:40.000Z</time>
      </trkpt>
      <trkpt lat="47.53512" lon="-1.36289">
        <ele>54</ele>
        <time>2018-03-21T15:02:44.000Z</time>
      </trkpt>
      <trkpt lat="47.53489" lon="-1.3631">
        <ele>54</ele>
        <time>2018-03-21T15:02:48.000Z</time>
      </trkpt>
      <trkpt lat="47.53466" lon="-1.36329">
        <ele>54</ele>
        <time>2018-03-21T15:02:52.000Z</time>
      </trkpt>
      <trkpt lat="47.53444" lon="-1.36348">
        <ele>52</ele>
        <time>2018-03-21T15:02:56.000Z</time>
      </trkpt>
      <trkpt lat="47.53423" lon="-1.36365">
        <ele>52</ele>
        <time>2018-03-21T15:03:00.000Z</time>
      </trkpt>
      <trkpt lat="47.53414" lon="-1.36361">
        <ele>51</ele>
        <time>2018-03-21T15:03:02.000Z</time>
      </trkpt>
      <trkpt lat="47.53405" lon="-1.36343">
        <ele>52</ele>
        <time>2018-03-21T15:03:06.000Z</time>
      </trkpt>
      <trkpt lat="47.53391" lon="-1.36312">
        <ele>54</ele>
        <time>2018-03-21T15:03:13.000Z</time>
      </trkpt>
      <trkpt lat="47.53379" lon="-1.36284">
        <ele>54</ele>
        <time>2018-03-21T15:03:19.000Z</time>
      </trkpt>
      <trkpt lat="47.53367" lon="-1.36257">
        <ele>54</ele>
        <time>2018-03-21T15:03:25.000Z</time>
      </trkpt>
      <trkpt lat="47.53354" lon="-1.36231">
        <ele>56</ele>
        <time>2018-03-21T15:03:31.000Z</time>
      </trkpt>
      <trkpt lat="47.53342" lon="-1.36203">
        <ele>57</ele>
        <time>2018-03-21T15:03:38.000Z</time>
      </trkpt>
      <trkpt lat="47.53329" lon="-1.36177">
        <ele>55</ele>
        <time>2018-03-21T15:03:44.000Z</time>
      </trkpt>
      <trkpt lat="47.53318" lon="-1.36148">
        <ele>56</ele>
        <time>2018-03-21T15:03:51.000Z</time>
      </trkpt>
      <trkpt lat="47.53308" lon="-1.36119">
        <ele>56</ele>
        <time>2018-03-21T15:03:58.000Z</time>
      </trkpt>
      <trkpt lat="47.53297" lon="-1.36091">
        <ele>56</ele>
        <time>2018-03-21T15:04:04.000Z</time>
      </trkpt>
      <trkpt lat="47.53285" lon="-1.36064">
        <ele>57</ele>
        <time>2018-03-21T15:04:09.000Z</time>
      </trkpt>
      <trkpt lat="47.53274" lon="-1.36034">
        <ele>57</ele>
        <time>2018-03-21T15:04:15.000Z</time>
      </trkpt>
      <trkpt lat="47.53266" lon="-1.36005">
        <ele>56</ele>
        <time>2018-03-21T15:04:20.000Z</time>
      </trkpt>
      <trkpt lat="47.53256" lon="-1.35976">
        <ele>59</ele>
        <time>2018-03-21T15:04:26.000Z</time>
      </trkpt>
      <trkpt lat="47.53245" lon="-1.3595">
        <ele>55</ele>
        <time>2018-03-21T15:04:31.000Z</time>
      </trkpt>
      <trkpt lat="47.53228" lon="-1.35938">
        <ele>55</ele>
        <time>2018-03-21T15:04:39.000Z</time>
      </trkpt>
      <trkpt lat="47.53217" lon="-1.35963">
        <ele>54</ele>
        <time>2018-03-21T15:04:46.000Z</time>
      </trkpt>
      <trkpt lat="47.53226" lon="-1.35931">
        <ele>55</ele>
        <time>2018-03-21T15:05:01.000Z</time>
      </trkpt>
      <trkpt lat="47.53218" lon="-1.35897">
        <ele>56</ele>
        <time>2018-03-21T15:05:07.000Z</time>
      </trkpt>
      <trkpt lat="47.532" lon="-1.35868">
        <ele>55</ele>
        <time>2018-03-21T15:05:12.000Z</time>
      </trkpt>
      <trkpt lat="47.53183" lon="-1.35844">
        <ele>55</ele>
        <time>2018-03-21T15:05:16.000Z</time>
      </trkpt>
      <trkpt lat="47.53164" lon="-1.35819">
        <ele>52</ele>
        <time>2018-03-21T15:05:20.000Z</time>
      </trkpt>
      <trkpt lat="47.53145" lon="-1.35793">
        <ele>52</ele>
        <time>2018-03-21T15:05:24.000Z</time>
      </trkpt>
      <trkpt lat="47.53126" lon="-1.35771">
        <ele>51</ele>
        <time>2018-03-21T15:05:28.000Z</time>
      </trkpt>
      <trkpt lat="47.53109" lon="-1.35752">
        <ele>50</ele>
        <time>2018-03-21T15:05:32.000Z</time>
      </trkpt>
      <trkpt lat="47.53089" lon="-1.35733">
        <ele>50</ele>
        <time>2018-03-21T15:05:36.000Z</time>
      </trkpt>
      <trkpt lat="47.53062" lon="-1.35709">
        <ele>46</ele>
        <time>2018-03-21T15:05:40.000Z</time>
      </trkpt>
      <trkpt lat="47.53036" lon="-1.35683">
        <ele>45</ele>
        <time>2018-03-21T15:05:44.000Z</time>
      </trkpt>
      <trkpt lat="47.53013" lon="-1.35663">
        <ele>46</ele>
        <time>2018-03-21T15:05:47.000Z</time>
      </trkpt>
      <trkpt lat="47.52987" lon="-1.3564">
        <ele>44</ele>
        <time>2018-03-21T15:05:51.000Z</time>
      </trkpt>
      <trkpt lat="47.5296" lon="-1.35615">
        <ele>43</ele>
        <time>2018-03-21T15:05:55.000Z</time>
      </trkpt>
      <trkpt lat="47.52939" lon="-1.35591">
        <ele>43</ele>
        <time>2018-03-21T15:05:58.000Z</time>
      </trkpt>
      <trkpt lat="47.52913" lon="-1.35568">
        <ele>40</ele>
        <time>2018-03-21T15:06:02.000Z</time>
      </trkpt>
      <trkpt lat="47.5289" lon="-1.35549">
        <ele>40</ele>
        <time>2018-03-21T15:06:06.000Z</time>
      </trkpt>
      <trkpt lat="47.52869" lon="-1.35532">
        <ele>40</ele>
        <time>2018-03-21T15:06:11.000Z</time>
      </trkpt>
      <trkpt lat="47.52858" lon="-1.35521">
        <ele>40</ele>
        <time>2018-03-21T15:06:15.000Z</time>
      </trkpt>
      <trkpt lat="47.52845" lon="-1.35512">
        <ele>39</ele>
        <time>2018-03-21T15:06:18.000Z</time>
      </trkpt>
      <trkpt lat="47.52825" lon="-1.35493">
        <ele>38</ele>
        <time>2018-03-21T15:06:23.000Z</time>
      </trkpt>
      <trkpt lat="47.52806" lon="-1.35473">
        <ele>37</ele>
        <time>2018-03-21T15:06:28.000Z</time>
      </trkpt>
      <trkpt lat="47.52787" lon="-1.35452">
        <ele>37</ele>
        <time>2018-03-21T15:06:33.000Z</time>
      </trkpt>
      <trkpt lat="47.52768" lon="-1.35429">
        <ele>36</ele>
        <time>2018-03-21T15:06:39.000Z</time>
      </trkpt>
      <trkpt lat="47.52752" lon="-1.35408">
        <ele>36</ele>
        <time>2018-03-21T15:06:45.000Z</time>
      </trkpt>
      <trkpt lat="47.52746" lon="-1.35395">
        <ele>36</ele>
        <time>2018-03-21T15:06:48.000Z</time>
      </trkpt>
      <trkpt lat="47.52742" lon="-1.35374">
        <ele>36</ele>
        <time>2018-03-21T15:06:52.000Z</time>
      </trkpt>
      <trkpt lat="47.5274" lon="-1.35339">
        <ele>37</ele>
        <time>2018-03-21T15:06:58.000Z</time>
      </trkpt>
      <trkpt lat="47.52733" lon="-1.35306">
        <ele>37</ele>
        <time>2018-03-21T15:07:04.000Z</time>
      </trkpt>
      <trkpt lat="47.52723" lon="-1.3527">
        <ele>37</ele>
        <time>2018-03-21T15:07:09.000Z</time>
      </trkpt>
      <trkpt lat="47.52712" lon="-1.35237">
        <ele>37</ele>
        <time>2018-03-21T15:07:14.000Z</time>
      </trkpt>
      <trkpt lat="47.52703" lon="-1.35206">
        <ele>37</ele>
        <time>2018-03-21T15:07:19.000Z</time>
      </trkpt>
      <trkpt lat="47.52693" lon="-1.35174">
        <ele>37</ele>
        <time>2018-03-21T15:07:25.000Z</time>
      </trkpt>
      <trkpt lat="47.52678" lon="-1.35141">
        <ele>37</ele>
        <time>2018-03-21T15:07:31.000Z</time>
      </trkpt>
      <trkpt lat="47.52662" lon="-1.3511">
        <ele>37</ele>
        <time>2018-03-21T15:07:36.000Z</time>
      </trkpt>
      <trkpt lat="47.52646" lon="-1.35082">
        <ele>36</ele>
        <time>2018-03-21T15:07:41.000Z</time>
      </trkpt>
      <trkpt lat="47.52631" lon="-1.35049">
        <ele>36</ele>
        <time>2018-03-21T15:07:46.000Z</time>
      </trkpt>
      <trkpt lat="47.52612" lon="-1.35021">
        <ele>36</ele>
        <time>2018-03-21T15:07:50.000Z</time>
      </trkpt>
      <trkpt lat="47.52593" lon="-1.34996">
        <ele>36</ele>
        <time>2018-03-21T15:07:54.000Z</time>
      </trkpt>
      <trkpt lat="47.52573" lon="-1.3497">
        <ele>36</ele>
        <time>2018-03-21T15:07:58.000Z</time>
      </trkpt>
      <trkpt lat="47.52565" lon="-1.34955">
        <ele>36</ele>
        <time>2018-03-21T15:08:00.000Z</time>
      </trkpt>
      <trkpt lat="47.52561" lon="-1.34938">
        <ele>36</ele>
        <time>2018-03-21T15:08:02.000Z</time>
      </trkpt>
      <trkpt lat="47.52556" lon="-1.34903">
        <ele>35</ele>
        <time>2018-03-21T15:08:06.000Z</time>
      </trkpt>
      <trkpt lat="47.5255" lon="-1.34868">
        <ele>35</ele>
        <time>2018-03-21T15:08:10.000Z</time>
      </trkpt>
      <trkpt lat="47.52549" lon="-1.34827">
        <ele>33</ele>
        <time>2018-03-21T15:08:15.000Z</time>
      </trkpt>
      <trkpt lat="47.52544" lon="-1.34791">
        <ele>33</ele>
        <time>2018-03-21T15:08:20.000Z</time>
      </trkpt>
      <trkpt lat="47.52542" lon="-1.34757">
        <ele>33</ele>
        <time>2018-03-21T15:08:25.000Z</time>
      </trkpt>
      <trkpt lat="47.52535" lon="-1.34723">
        <ele>32</ele>
        <time>2018-03-21T15:08:30.000Z</time>
      </trkpt>
      <trkpt lat="47.5252" lon="-1.34696">
        <ele>32</ele>
        <time>2018-03-21T15:08:35.000Z</time>
      </trkpt>
      <trkpt lat="47.52502" lon="-1.34682">
        <ele>32</ele>
        <time>2018-03-21T15:08:41.000Z</time>
      </trkpt>
      <trkpt lat="47.52487" lon="-1.3471">
        <ele>32</ele>
        <time>2018-03-21T15:08:47.000Z</time>
      </trkpt>
      <trkpt lat="47.52471" lon="-1.34735">
        <ele>33</ele>
        <time>2018-03-21T15:08:52.000Z</time>
      </trkpt>
      <trkpt lat="47.52454" lon="-1.34761">
        <ele>33</ele>
        <time>2018-03-21T15:08:57.000Z</time>
      </trkpt>
      <trkpt lat="47.52432" lon="-1.34782">
        <ele>32</ele>
        <time>2018-03-21T15:09:02.000Z</time>
      </trkpt>
      <trkpt lat="47.5241" lon="-1.34798">
        <ele>30</ele>
        <time>2018-03-21T15:09:07.000Z</time>
      </trkpt>
      <trkpt lat="47.5239" lon="-1.34815">
        <ele>30</ele>
        <time>2018-03-21T15:09:12.000Z</time>
      </trkpt>
      <trkpt lat="47.5237" lon="-1.34831">
        <ele>29</ele>
        <time>2018-03-21T15:09:17.000Z</time>
      </trkpt>
      <trkpt lat="47.52349" lon="-1.34855">
        <ele>30</ele>
        <time>2018-03-21T15:09:22.000Z</time>
      </trkpt>
      <trkpt lat="47.52334" lon="-1.34893">
        <ele>31</ele>
        <time>2018-03-21T15:09:28.000Z</time>
      </trkpt>
      <trkpt lat="47.52328" lon="-1.34931">
        <ele>30</ele>
        <time>2018-03-21T15:09:33.000Z</time>
      </trkpt>
      <trkpt lat="47.52323" lon="-1.34965">
        <ele>30</ele>
        <time>2018-03-21T15:09:38.000Z</time>
      </trkpt>
      <trkpt lat="47.52318" lon="-1.35002">
        <ele>31</ele>
        <time>2018-03-21T15:09:43.000Z</time>
      </trkpt>
      <trkpt lat="47.52313" lon="-1.35038">
        <ele>31</ele>
        <time>2018-03-21T15:09:48.000Z</time>
      </trkpt>
      <trkpt lat="47.52307" lon="-1.35073">
        <ele>31</ele>
        <time>2018-03-21T15:09:53.000Z</time>
      </trkpt>
      <trkpt lat="47.52301" lon="-1.35106">
        <ele>31</ele>
        <time>2018-03-21T15:09:59.000Z</time>
      </trkpt>
      <trkpt lat="47.52296" lon="-1.35138">
        <ele>31</ele>
        <time>2018-03-21T15:10:06.000Z</time>
      </trkpt>
      <trkpt lat="47.52288" lon="-1.35174">
        <ele>31</ele>
        <time>2018-03-21T15:10:13.000Z</time>
      </trkpt>
      <trkpt lat="47.52284" lon="-1.35206">
        <ele>31</ele>
        <time>2018-03-21T15:10:20.000Z</time>
      </trkpt>
      <trkpt lat="47.52279" lon="-1.35238">
        <ele>31</ele>
        <time>2018-03-21T15:10:27.000Z</time>
      </trkpt>
      <trkpt lat="47.52272" lon="-1.35274">
        <ele>33</ele>
        <time>2018-03-21T15:10:33.000Z</time>
      </trkpt>
      <trkpt lat="47.52268" lon="-1.35304">
        <ele>33</ele>
        <time>2018-03-21T15:10:39.000Z</time>
      </trkpt>
      <trkpt lat="47.5226" lon="-1.35337">
        <ele>34</ele>
        <time>2018-03-21T15:10:46.000Z</time>
      </trkpt>
      <trkpt lat="47.5225" lon="-1.35368">
        <ele>32</ele>
        <time>2018-03-21T15:10:52.000Z</time>
      </trkpt>
      <trkpt lat="47.52239" lon="-1.354">
        <ele>34</ele>
        <time>2018-03-21T15:10:58.000Z</time>
      </trkpt>
      <trkpt lat="47.52227" lon="-1.3543">
        <ele>34</ele>
        <time>2018-03-21T15:11:04.000Z</time>
      </trkpt>
      <trkpt lat="47.52216" lon="-1.35458">
        <ele>33</ele>
        <time>2018-03-21T15:11:09.000Z</time>
      </trkpt>
      <trkpt lat="47.52211" lon="-1.35488">
        <ele>33</ele>
        <time>2018-03-21T15:11:16.000Z</time>
      </trkpt>
      <trkpt lat="47.52223" lon="-1.35513">
        <ele>34</ele>
        <time>2018-03-21T15:11:23.000Z</time>
      </trkpt>
      <trkpt lat="47.52239" lon="-1.35536">
        <ele>34</ele>
        <time>2018-03-21T15:11:28.000Z</time>
      </trkpt>
      <trkpt lat="47.52256" lon="-1.35559">
        <ele>37</ele>
        <time>2018-03-21T15:11:34.000Z</time>
      </trkpt>
      <trkpt lat="47.52274" lon="-1.35579">
        <ele>37</ele>
        <time>2018-03-21T15:11:40.000Z</time>
      </trkpt>
      <trkpt lat="47.52291" lon="-1.356">
        <ele>35</ele>
        <time>2018-03-21T15:11:46.000Z</time>
      </trkpt>
      <trkpt lat="47.52303" lon="-1.35627">
        <ele>34</ele>
        <time>2018-03-21T15:11:52.000Z</time>
      </trkpt>
      <trkpt lat="47.52312" lon="-1.35657">
        <ele>33</ele>
        <time>2018-03-21T15:11:57.000Z</time>
      </trkpt>
      <trkpt lat="47.52314" lon="-1.35694">
        <ele>32</ele>
        <time>2018-03-21T15:12:02.000Z</time>
      </trkpt>
      <trkpt lat="47.52311" lon="-1.35728">
        <ele>32</ele>
        <time>2018-03-21T15:12:07.000Z</time>
      </trkpt>
      <trkpt lat="47.52305" lon="-1.3576">
        <ele>32</ele>
        <time>2018-03-21T15:12:12.000Z</time>
      </trkpt>
      <trkpt lat="47.52292" lon="-1.35793">
        <ele>32</ele>
        <time>2018-03-21T15:12:17.000Z</time>
      </trkpt>
      <trkpt lat="47.52279" lon="-1.35821">
        <ele>32</ele>
        <time>2018-03-21T15:12:22.000Z</time>
      </trkpt>
      <trkpt lat="47.52263" lon="-1.35843">
        <ele>33</ele>
        <time>2018-03-21T15:12:27.000Z</time>
      </trkpt>
      <trkpt lat="47.52242" lon="-1.35864">
        <ele>31</ele>
        <time>2018-03-21T15:12:32.000Z</time>
      </trkpt>
      <trkpt lat="47.52222" lon="-1.35886">
        <ele>31</ele>
        <time>2018-03-21T15:12:38.000Z</time>
      </trkpt>
      <trkpt lat="47.52205" lon="-1.35906">
        <ele>31</ele>
        <time>2018-03-21T15:12:43.000Z</time>
      </trkpt>
      <trkpt lat="47.52188" lon="-1.35929">
        <ele>31</ele>
        <time>2018-03-21T15:12:49.000Z</time>
      </trkpt>
      <trkpt lat="47.52177" lon="-1.35959">
        <ele>31</ele>
        <time>2018-03-21T15:12:55.000Z</time>
      </trkpt>
      <trkpt lat="47.52168" lon="-1.3599">
        <ele>31</ele>
        <time>2018-03-21T15:13:00.000Z</time>
      </trkpt>
      <trkpt lat="47.52161" lon="-1.36026">
        <ele>30</ele>
        <time>2018-03-21T15:13:06.000Z</time>
      </trkpt>
      <trkpt lat="47.52157" lon="-1.3606">
        <ele>31</ele>
        <time>2018-03-21T15:13:11.000Z</time>
      </trkpt>
      <trkpt lat="47.52152" lon="-1.36096">
        <ele>32</ele>
        <time>2018-03-21T15:13:16.000Z</time>
      </trkpt>
      <trkpt lat="47.52146" lon="-1.36131">
        <ele>31</ele>
        <time>2018-03-21T15:13:21.000Z</time>
      </trkpt>
      <trkpt lat="47.52142" lon="-1.36164">
        <ele>31</ele>
        <time>2018-03-21T15:13:26.000Z</time>
      </trkpt>
      <trkpt lat="47.5214" lon="-1.36196">
        <ele>31</ele>
        <time>2018-03-21T15:13:32.000Z</time>
      </trkpt>
      <trkpt lat="47.52138" lon="-1.3623">
        <ele>31</ele>
        <time>2018-03-21T15:13:39.000Z</time>
      </trkpt>
      <trkpt lat="47.52139" lon="-1.36262">
        <ele>31</ele>
        <time>2018-03-21T15:13:44.000Z</time>
      </trkpt>
      <trkpt lat="47.52143" lon="-1.36294">
        <ele>31</ele>
        <time>2018-03-21T15:13:50.000Z</time>
      </trkpt>
      <trkpt lat="47.5214" lon="-1.36334">
        <ele>31</ele>
        <time>2018-03-21T15:13:55.000Z</time>
      </trkpt>
      <trkpt lat="47.52139" lon="-1.36378">
        <ele>30</ele>
        <time>2018-03-21T15:13:59.000Z</time>
      </trkpt>
      <trkpt lat="47.52142" lon="-1.36415">
        <ele>31</ele>
        <time>2018-03-21T15:14:04.000Z</time>
      </trkpt>
      <trkpt lat="47.5215" lon="-1.36449">
        <ele>30</ele>
        <time>2018-03-21T15:14:09.000Z</time>
      </trkpt>
      <trkpt lat="47.52166" lon="-1.36479">
        <ele>31</ele>
        <time>2018-03-21T15:14:15.000Z</time>
      </trkpt>
      <trkpt lat="47.52184" lon="-1.36505">
        <ele>33</ele>
        <time>2018-03-21T15:14:21.000Z</time>
      </trkpt>
      <trkpt lat="47.52187" lon="-1.36541">
        <ele>34</ele>
        <time>2018-03-21T15:14:27.000Z</time>
      </trkpt>
      <trkpt lat="47.52176" lon="-1.36571">
        <ele>33</ele>
        <time>2018-03-21T15:14:33.000Z</time>
      </trkpt>
      <trkpt lat="47.52162" lon="-1.36599">
        <ele>31</ele>
        <time>2018-03-21T15:14:38.000Z</time>
      </trkpt>
      <trkpt lat="47.52146" lon="-1.36631">
        <ele>30</ele>
        <time>2018-03-21T15:14:44.000Z</time>
      </trkpt>
      <trkpt lat="47.52141" lon="-1.36644">
        <ele>30</ele>
        <time>2018-03-21T15:14:46.000Z</time>
      </trkpt>
      <trkpt lat="47.52136" lon="-1.36662">
        <ele>30</ele>
        <time>2018-03-21T15:14:49.000Z</time>
      </trkpt>
      <trkpt lat="47.52131" lon="-1.36698">
        <ele>30</ele>
        <time>2018-03-21T15:14:55.000Z</time>
      </trkpt>
      <trkpt lat="47.52132" lon="-1.36731">
        <ele>30</ele>
        <time>2018-03-21T15:15:00.000Z</time>
      </trkpt>
      <trkpt lat="47.52133" lon="-1.36767">
        <ele>30</ele>
        <time>2018-03-21T15:15:06.000Z</time>
      </trkpt>
      <trkpt lat="47.52136" lon="-1.36799">
        <ele>30</ele>
        <time>2018-03-21T15:15:12.000Z</time>
      </trkpt>
      <trkpt lat="47.52139" lon="-1.36838">
        <ele>30</ele>
        <time>2018-03-21T15:15:18.000Z</time>
      </trkpt>
      <trkpt lat="47.52141" lon="-1.36874">
        <ele>30</ele>
        <time>2018-03-21T15:15:24.000Z</time>
      </trkpt>
      <trkpt lat="47.52144" lon="-1.36909">
        <ele>30</ele>
        <time>2018-03-21T15:15:30.000Z</time>
      </trkpt>
      <trkpt lat="47.52145" lon="-1.36933">
        <ele>30</ele>
        <time>2018-03-21T15:15:34.000Z</time>
      </trkpt>
      <trkpt lat="47.52143" lon="-1.36945">
        <ele>30</ele>
        <time>2018-03-21T15:15:36.000Z</time>
      </trkpt>
      <trkpt lat="47.52127" lon="-1.36972">
        <ele>29</ele>
        <time>2018-03-21T15:15:43.000Z</time>
      </trkpt>
      <trkpt lat="47.52113" lon="-1.37004">
        <ele>30</ele>
        <time>2018-03-21T15:15:49.000Z</time>
      </trkpt>
      <trkpt lat="47.52108" lon="-1.37037">
        <ele>30</ele>
        <time>2018-03-21T15:15:54.000Z</time>
      </trkpt>
      <trkpt lat="47.52107" lon="-1.37071">
        <ele>31</ele>
        <time>2018-03-21T15:15:59.000Z</time>
      </trkpt>
      <trkpt lat="47.52108" lon="-1.37104">
        <ele>33</ele>
        <time>2018-03-21T15:16:04.000Z</time>
      </trkpt>
      <trkpt lat="47.52105" lon="-1.3714">
        <ele>33</ele>
        <time>2018-03-21T15:16:10.000Z</time>
      </trkpt>
      <trkpt lat="47.521" lon="-1.37171">
        <ele>34</ele>
        <time>2018-03-21T15:16:17.000Z</time>
      </trkpt>
      <trkpt lat="47.52099" lon="-1.37207">
        <ele>35</ele>
        <time>2018-03-21T15:16:23.000Z</time>
      </trkpt>
      <trkpt lat="47.52099" lon="-1.3724">
        <ele>34</ele>
        <time>2018-03-21T15:16:29.000Z</time>
      </trkpt>
      <trkpt lat="47.52099" lon="-1.37272">
        <ele>34</ele>
        <time>2018-03-21T15:16:35.000Z</time>
      </trkpt>
      <trkpt lat="47.5209" lon="-1.373">
        <ele>34</ele>
        <time>2018-03-21T15:16:42.000Z</time>
      </trkpt>
      <trkpt lat="47.52079" lon="-1.37328">
        <ele>32</ele>
        <time>2018-03-21T15:16:51.000Z</time>
      </trkpt>
      <trkpt lat="47.52066" lon="-1.37358">
        <ele>32</ele>
        <time>2018-03-21T15:16:58.000Z</time>
      </trkpt>
      <trkpt lat="47.52054" lon="-1.37385">
        <ele>32</ele>
        <time>2018-03-21T15:17:04.000Z</time>
      </trkpt>
      <trkpt lat="47.52042" lon="-1.37414">
        <ele>32</ele>
        <time>2018-03-21T15:17:10.000Z</time>
      </trkpt>
      <trkpt lat="47.52028" lon="-1.37445">
        <ele>33</ele>
        <time>2018-03-21T15:17:16.000Z</time>
      </trkpt>
      <trkpt lat="47.52014" lon="-1.37476">
        <ele>33</ele>
        <time>2018-03-21T15:17:21.000Z</time>
      </trkpt>
      <trkpt lat="47.51999" lon="-1.37512">
        <ele>32</ele>
        <time>2018-03-21T15:17:26.000Z</time>
      </trkpt>
      <trkpt lat="47.51983" lon="-1.37548">
        <ele>33</ele>
        <time>2018-03-21T15:17:31.000Z</time>
      </trkpt>
      <trkpt lat="47.51969" lon="-1.37577">
        <ele>33</ele>
        <time>2018-03-21T15:17:36.000Z</time>
      </trkpt>
      <trkpt lat="47.51942" lon="-1.37576">
        <ele>33</ele>
        <time>2018-03-21T15:17:42.000Z</time>
      </trkpt>
      <trkpt lat="47.5192" lon="-1.37574">
        <ele>33</ele>
        <time>2018-03-21T15:17:47.000Z</time>
      </trkpt>
      <trkpt lat="47.51897" lon="-1.37571">
        <ele>33</ele>
        <time>2018-03-21T15:17:52.000Z</time>
      </trkpt>
      <trkpt lat="47.51875" lon="-1.37568">
        <ele>33</ele>
        <time>2018-03-21T15:17:57.000Z</time>
      </trkpt>
      <trkpt lat="47.51853" lon="-1.37564">
        <ele>34</ele>
        <time>2018-03-21T15:18:02.000Z</time>
      </trkpt>
      <trkpt lat="47.51828" lon="-1.3756">
        <ele>37</ele>
        <time>2018-03-21T15:18:08.000Z</time>
      </trkpt>
      <trkpt lat="47.51806" lon="-1.37559">
        <ele>37</ele>
        <time>2018-03-21T15:18:14.000Z</time>
      </trkpt>
      <trkpt lat="47.51783" lon="-1.37556">
        <ele>38</ele>
        <time>2018-03-21T15:18:20.000Z</time>
      </trkpt>
      <trkpt lat="47.51759" lon="-1.37554">
        <ele>38</ele>
        <time>2018-03-21T15:18:26.000Z</time>
      </trkpt>
      <trkpt lat="47.51735" lon="-1.3755">
        <ele>42</ele>
        <time>2018-03-21T15:18:32.000Z</time>
      </trkpt>
      <trkpt lat="47.51711" lon="-1.37548">
        <ele>43</ele>
        <time>2018-03-21T15:18:38.000Z</time>
      </trkpt>
      <trkpt lat="47.51688" lon="-1.37544">
        <ele>44</ele>
        <time>2018-03-21T15:18:44.000Z</time>
      </trkpt>
      <trkpt lat="47.51663" lon="-1.3754">
        <ele>47</ele>
        <time>2018-03-21T15:18:50.000Z</time>
      </trkpt>
      <trkpt lat="47.51638" lon="-1.37538">
        <ele>47</ele>
        <time>2018-03-21T15:18:56.000Z</time>
      </trkpt>
      <trkpt lat="47.51624" lon="-1.37535">
        <ele>47</ele>
        <time>2018-03-21T15:18:59.000Z</time>
      </trkpt>
      <trkpt lat="47.51611" lon="-1.37534">
        <ele>47</ele>
        <time>2018-03-21T15:19:02.000Z</time>
      </trkpt>
      <trkpt lat="47.51584" lon="-1.3753">
        <ele>48</ele>
        <time>2018-03-21T15:19:08.000Z</time>
      </trkpt>
      <trkpt lat="47.51562" lon="-1.37528">
        <ele>47</ele>
        <time>2018-03-21T15:19:13.000Z</time>
      </trkpt>
      <trkpt lat="47.51537" lon="-1.37521">
        <ele>47</ele>
        <time>2018-03-21T15:19:19.000Z</time>
      </trkpt>
      <trkpt lat="47.51525" lon="-1.37489">
        <ele>45</ele>
        <time>2018-03-21T15:19:24.000Z</time>
      </trkpt>
      <trkpt lat="47.51518" lon="-1.37455">
        <ele>45</ele>
        <time>2018-03-21T15:19:28.000Z</time>
      </trkpt>
      <trkpt lat="47.5151" lon="-1.37419">
        <ele>44</ele>
        <time>2018-03-21T15:19:32.000Z</time>
      </trkpt>
      <trkpt lat="47.51502" lon="-1.37379">
        <ele>42</ele>
        <time>2018-03-21T15:19:36.000Z</time>
      </trkpt>
      <trkpt lat="47.515" lon="-1.37335">
        <ele>40</ele>
        <time>2018-03-21T15:19:40.000Z</time>
      </trkpt>
      <trkpt lat="47.51497" lon="-1.37311">
        <ele>38</ele>
        <time>2018-03-21T15:19:42.000Z</time>
      </trkpt>
      <trkpt lat="47.51492" lon="-1.37286">
        <ele>37</ele>
        <time>2018-03-21T15:19:44.000Z</time>
      </trkpt>
      <trkpt lat="47.5147" lon="-1.37245">
        <ele>33</ele>
        <time>2018-03-21T15:19:48.000Z</time>
      </trkpt>
      <trkpt lat="47.51445" lon="-1.37226">
        <ele>32</ele>
        <time>2018-03-21T15:19:51.000Z</time>
      </trkpt>
      <trkpt lat="47.51415" lon="-1.37214">
        <ele>29</ele>
        <time>2018-03-21T15:19:54.000Z</time>
      </trkpt>
      <trkpt lat="47.51384" lon="-1.37207">
        <ele>28</ele>
        <time>2018-03-21T15:19:57.000Z</time>
      </trkpt>
      <trkpt lat="47.51355" lon="-1.37196">
        <ele>27</ele>
        <time>2018-03-21T15:20:00.000Z</time>
      </trkpt>
      <trkpt lat="47.51323" lon="-1.37179">
        <ele>25</ele>
        <time>2018-03-21T15:20:03.000Z</time>
      </trkpt>
      <trkpt lat="47.51312" lon="-1.3717">
        <ele>25</ele>
        <time>2018-03-21T15:20:04.000Z</time>
      </trkpt>
      <trkpt lat="47.51294" lon="-1.37151">
        <ele>27</ele>
        <time>2018-03-21T15:20:06.000Z</time>
      </trkpt>
      <trkpt lat="47.51284" lon="-1.37122">
        <ele>28</ele>
        <time>2018-03-21T15:20:10.000Z</time>
      </trkpt>
      <trkpt lat="47.51305" lon="-1.37111">
        <ele>28</ele>
        <time>2018-03-21T15:20:16.000Z</time>
      </trkpt>
      <trkpt lat="47.51321" lon="-1.37107">
        <ele>28</ele>
        <time>2018-03-21T15:20:18.000Z</time>
      </trkpt>
      <trkpt lat="47.51345" lon="-1.371">
        <ele>27</ele>
        <time>2018-03-21T15:20:21.000Z</time>
      </trkpt>
      <trkpt lat="47.51362" lon="-1.37087">
        <ele>27</ele>
        <time>2018-03-21T15:20:28.000Z</time>
      </trkpt>
      <trkpt lat="47.51381" lon="-1.37076">
        <ele>31</ele>
        <time>2018-03-21T15:20:34.000Z</time>
      </trkpt>
      <trkpt lat="47.51405" lon="-1.37068">
        <ele>30</ele>
        <time>2018-03-21T15:20:40.000Z</time>
      </trkpt>
      <trkpt lat="47.51426" lon="-1.3706">
        <ele>30</ele>
        <time>2018-03-21T15:20:47.000Z</time>
      </trkpt>
      <trkpt lat="47.51447" lon="-1.3705">
        <ele>31</ele>
        <time>2018-03-21T15:20:54.000Z</time>
      </trkpt>
      <trkpt lat="47.51468" lon="-1.37039">
        <ele>32</ele>
        <time>2018-03-21T15:21:01.000Z</time>
      </trkpt>
      <trkpt lat="47.51487" lon="-1.37028">
        <ele>32</ele>
        <time>2018-03-21T15:21:07.000Z</time>
      </trkpt>
      <trkpt lat="47.5151" lon="-1.37015">
        <ele>33</ele>
        <time>2018-03-21T15:21:14.000Z</time>
      </trkpt>
      <trkpt lat="47.51517" lon="-1.37004">
        <ele>33</ele>
        <time>2018-03-21T15:21:17.000Z</time>
      </trkpt>
      <trkpt lat="47.51519" lon="-1.36986">
        <ele>37</ele>
        <time>2018-03-21T15:21:21.000Z</time>
      </trkpt>
      <trkpt lat="47.51517" lon="-1.36952">
        <ele>39</ele>
        <time>2018-03-21T15:21:29.000Z</time>
      </trkpt>
      <trkpt lat="47.51514" lon="-1.36921">
        <ele>41</ele>
        <time>2018-03-21T15:21:36.000Z</time>
      </trkpt>
      <trkpt lat="47.51512" lon="-1.36889">
        <ele>44</ele>
        <time>2018-03-21T15:21:43.000Z</time>
      </trkpt>
      <trkpt lat="47.5151" lon="-1.36854">
        <ele>45</ele>
        <time>2018-03-21T15:21:50.000Z</time>
      </trkpt>
      <trkpt lat="47.51508" lon="-1.36822">
        <ele>47</ele>
        <time>2018-03-21T15:21:57.000Z</time>
      </trkpt>
      <trkpt lat="47.51506" lon="-1.36787">
        <ele>47</ele>
        <time>2018-03-21T15:22:05.000Z</time>
      </trkpt>
      <trkpt lat="47.51504" lon="-1.36755">
        <ele>48</ele>
        <time>2018-03-21T15:22:12.000Z</time>
      </trkpt>
      <trkpt lat="47.51502" lon="-1.36721">
        <ele>48</ele>
        <time>2018-03-21T15:22:19.000Z</time>
      </trkpt>
      <trkpt lat="47.51499" lon="-1.36686">
        <ele>49</ele>
        <time>2018-03-21T15:22:26.000Z</time>
      </trkpt>
      <trkpt lat="47.51497" lon="-1.36649">
        <ele>49</ele>
        <time>2018-03-21T15:22:33.000Z</time>
      </trkpt>
      <trkpt lat="47.51496" lon="-1.36616">
        <ele>50</ele>
        <time>2018-03-21T15:22:39.000Z</time>
      </trkpt>
      <trkpt lat="47.51494" lon="-1.36583">
        <ele>51</ele>
        <time>2018-03-21T15:22:45.000Z</time>
      </trkpt>
      <trkpt lat="47.51493" lon="-1.36562">
        <ele>50</ele>
        <time>2018-03-21T15:22:49.000Z</time>
      </trkpt>
      <trkpt lat="47.5149" lon="-1.36551">
        <ele>50</ele>
        <time>2018-03-21T15:22:51.000Z</time>
      </trkpt>
      <trkpt lat="47.5149" lon="-1.36551">
        <ele>50</ele>
        <time>2018-03-21T15:22:51.000Z</time>
      </trkpt>
      <trkpt lat="47.51488" lon="-1.36547">
        <ele>50</ele>
        <time>2018-03-21T15:22:52.000Z</time>
      </trkpt>
      <trkpt lat="47.51485" lon="-1.36545">
        <ele>50</ele>
        <time>2018-03-21T15:22:53.000Z</time>
      </trkpt>
      <trkpt lat="47.51481" lon="-1.36544">
        <ele>50</ele>
        <time>2018-03-21T15:22:54.000Z</time>
      </trkpt>
      <trkpt lat="47.51476" lon="-1.36544">
        <ele>50</ele>
        <time>2018-03-21T15:22:55.000Z</time>
      </trkpt>
      <trkpt lat="47.51445" lon="-1.36547">
        <ele>50</ele>
        <time>2018-03-21T15:23:02.000Z</time>
      </trkpt>
      <trkpt lat="47.51419" lon="-1.36549">
        <ele>50</ele>
        <time>2018-03-21T15:23:07.000Z</time>
      </trkpt>
      <trkpt lat="47.51389" lon="-1.36551">
        <ele>48</ele>
        <time>2018-03-21T15:23:12.000Z</time>
      </trkpt>
      <trkpt lat="47.51363" lon="-1.36551">
        <ele>47</ele>
        <time>2018-03-21T15:23:16.000Z</time>
      </trkpt>
      <trkpt lat="47.51333" lon="-1.36544">
        <ele>44</ele>
        <time>2018-03-21T15:23:20.000Z</time>
      </trkpt>
      <trkpt lat="47.51301" lon="-1.36532">
        <ele>44</ele>
        <time>2018-03-21T15:23:24.000Z</time>
      </trkpt>
      <trkpt lat="47.51267" lon="-1.36521">
        <ele>44</ele>
        <time>2018-03-21T15:23:28.000Z</time>
      </trkpt>
      <trkpt lat="47.51236" lon="-1.36511">
        <ele>44</ele>
        <time>2018-03-21T15:23:32.000Z</time>
      </trkpt>
      <trkpt lat="47.51222" lon="-1.36506">
        <ele>44</ele>
        <time>2018-03-21T15:23:34.000Z</time>
      </trkpt>
      <trkpt lat="47.51207" lon="-1.36505">
        <ele>44</ele>
        <time>2018-03-21T15:23:36.000Z</time>
      </trkpt>
      <trkpt lat="47.51182" lon="-1.3652">
        <ele>44</ele>
        <time>2018-03-21T15:23:40.000Z</time>
      </trkpt>
      <trkpt lat="47.51168" lon="-1.3652">
        <ele>45</ele>
        <time>2018-03-21T15:23:43.000Z</time>
      </trkpt>
      <trkpt lat="47.5117" lon="-1.365">
        <ele>46</ele>
        <time>2018-03-21T15:23:47.000Z</time>
      </trkpt>
      <trkpt lat="47.51185" lon="-1.36469">
        <ele>46</ele>
        <time>2018-03-21T15:23:53.000Z</time>
      </trkpt>
      <trkpt lat="47.51199" lon="-1.3644">
        <ele>46</ele>
        <time>2018-03-21T15:23:59.000Z</time>
      </trkpt>
      <trkpt lat="47.5121" lon="-1.36412">
        <ele>47</ele>
        <time>2018-03-21T15:24:05.000Z</time>
      </trkpt>
      <trkpt lat="47.51223" lon="-1.36384">
        <ele>47</ele>
        <time>2018-03-21T15:24:11.000Z</time>
      </trkpt>
      <trkpt lat="47.51236" lon="-1.36354">
        <ele>47</ele>
        <time>2018-03-21T15:24:18.000Z</time>
      </trkpt>
      <trkpt lat="47.51242" lon="-1.36322">
        <ele>48</ele>
        <time>2018-03-21T15:24:24.000Z</time>
      </trkpt>
      <trkpt lat="47.51245" lon="-1.3629">
        <ele>48</ele>
        <time>2018-03-21T15:24:30.000Z</time>
      </trkpt>
      <trkpt lat="47.51247" lon="-1.36256">
        <ele>48</ele>
        <time>2018-03-21T15:24:36.000Z</time>
      </trkpt>
      <trkpt lat="47.51251" lon="-1.3622">
        <ele>50</ele>
        <time>2018-03-21T15:24:42.000Z</time>
      </trkpt>
      <trkpt lat="47.51254" lon="-1.36183">
        <ele>50</ele>
        <time>2018-03-21T15:24:48.000Z</time>
      </trkpt>
      <trkpt lat="47.51257" lon="-1.3615">
        <ele>50</ele>
        <time>2018-03-21T15:24:53.000Z</time>
      </trkpt>
      <trkpt lat="47.5126" lon="-1.36117">
        <ele>50</ele>
        <time>2018-03-21T15:24:58.000Z</time>
      </trkpt>
      <trkpt lat="47.51263" lon="-1.3608">
        <ele>49</ele>
        <time>2018-03-21T15:25:04.000Z</time>
      </trkpt>
      <trkpt lat="47.51267" lon="-1.36041">
        <ele>49</ele>
        <time>2018-03-21T15:25:10.000Z</time>
      </trkpt>
      <trkpt lat="47.5127" lon="-1.36004">
        <ele>49</ele>
        <time>2018-03-21T15:25:16.000Z</time>
      </trkpt>
      <trkpt lat="47.51273" lon="-1.35967">
        <ele>50</ele>
        <time>2018-03-21T15:25:22.000Z</time>
      </trkpt>
      <trkpt lat="47.51277" lon="-1.3593">
        <ele>50</ele>
        <time>2018-03-21T15:25:28.000Z</time>
      </trkpt>
      <trkpt lat="47.5128" lon="-1.35892">
        <ele>51</ele>
        <time>2018-03-21T15:25:34.000Z</time>
      </trkpt>
      <trkpt lat="47.51283" lon="-1.35855">
        <ele>52</ele>
        <time>2018-03-21T15:25:40.000Z</time>
      </trkpt>
      <trkpt lat="47.51286" lon="-1.35819">
        <ele>53</ele>
        <time>2018-03-21T15:25:46.000Z</time>
      </trkpt>
      <trkpt lat="47.51289" lon="-1.35786">
        <ele>53</ele>
        <time>2018-03-21T15:25:52.000Z</time>
      </trkpt>
      <trkpt lat="47.5129" lon="-1.35753">
        <ele>53</ele>
        <time>2018-03-21T15:25:58.000Z</time>
      </trkpt>
      <trkpt lat="47.51291" lon="-1.35719">
        <ele>54</ele>
        <time>2018-03-21T15:26:04.000Z</time>
      </trkpt>
      <trkpt lat="47.51294" lon="-1.35687">
        <ele>55</ele>
        <time>2018-03-21T15:26:10.000Z</time>
      </trkpt>
      <trkpt lat="47.51297" lon="-1.35654">
        <ele>55</ele>
        <time>2018-03-21T15:26:16.000Z</time>
      </trkpt>
      <trkpt lat="47.51299" lon="-1.35621">
        <ele>56</ele>
        <time>2018-03-21T15:26:22.000Z</time>
      </trkpt>
      <trkpt lat="47.513" lon="-1.35587">
        <ele>56</ele>
        <time>2018-03-21T15:26:28.000Z</time>
      </trkpt>
      <trkpt lat="47.51301" lon="-1.35553">
        <ele>56</ele>
        <time>2018-03-21T15:26:34.000Z</time>
      </trkpt>
      <trkpt lat="47.513" lon="-1.35518">
        <ele>56</ele>
        <time>2018-03-21T15:26:40.000Z</time>
      </trkpt>
      <trkpt lat="47.513" lon="-1.35482">
        <ele>56</ele>
        <time>2018-03-21T15:26:46.000Z</time>
      </trkpt>
      <trkpt lat="47.513" lon="-1.35445">
        <ele>55</ele>
        <time>2018-03-21T15:26:52.000Z</time>
      </trkpt>
      <trkpt lat="47.513" lon="-1.35426">
        <ele>55</ele>
        <time>2018-03-21T15:26:55.000Z</time>
      </trkpt>
      <trkpt lat="47.51301" lon="-1.35407">
        <ele>55</ele>
        <time>2018-03-21T15:26:58.000Z</time>
      </trkpt>
      <trkpt lat="47.51309" lon="-1.35371">
        <ele>55</ele>
        <time>2018-03-21T15:27:04.000Z</time>
      </trkpt>
      <trkpt lat="47.5132" lon="-1.35337">
        <ele>55</ele>
        <time>2018-03-21T15:27:10.000Z</time>
      </trkpt>
      <trkpt lat="47.51331" lon="-1.35304">
        <ele>55</ele>
        <time>2018-03-21T15:27:16.000Z</time>
      </trkpt>
      <trkpt lat="47.51342" lon="-1.35269">
        <ele>55</ele>
        <time>2018-03-21T15:27:22.000Z</time>
      </trkpt>
      <trkpt lat="47.51354" lon="-1.35234">
        <ele>55</ele>
        <time>2018-03-21T15:27:28.000Z</time>
      </trkpt>
      <trkpt lat="47.51356" lon="-1.35227">
        <ele>55</ele>
        <time>2018-03-21T15:27:29.000Z</time>
      </trkpt>
      <trkpt lat="47.51357" lon="-1.35221">
        <ele>54</ele>
        <time>2018-03-21T15:27:30.000Z</time>
      </trkpt>
      <trkpt lat="47.51359" lon="-1.35216">
        <ele>54</ele>
        <time>2018-03-21T15:27:31.000Z</time>
      </trkpt>
      <trkpt lat="47.51362" lon="-1.35211">
        <ele>54</ele>
        <time>2018-03-21T15:27:32.000Z</time>
      </trkpt>
      <trkpt lat="47.51381" lon="-1.3524">
        <ele>54</ele>
        <time>2018-03-21T15:27:39.000Z</time>
      </trkpt>
      <trkpt lat="47.51389" lon="-1.35274">
        <ele>55</ele>
        <time>2018-03-21T15:27:44.000Z</time>
      </trkpt>
      <trkpt lat="47.514" lon="-1.35307">
        <ele>55</ele>
        <time>2018-03-21T15:27:49.000Z</time>
      </trkpt>
      <trkpt lat="47.51407" lon="-1.35327">
        <ele>55</ele>
        <time>2018-03-21T15:27:52.000Z</time>
      </trkpt>
      <trkpt lat="47.51413" lon="-1.35339">
        <ele>55</ele>
        <time>2018-03-21T15:27:54.000Z</time>
      </trkpt>
      <trkpt lat="47.51437" lon="-1.35347">
        <ele>54</ele>
        <time>2018-03-21T15:27:59.000Z</time>
      </trkpt>
      <trkpt lat="47.51461" lon="-1.3535">
        <ele>54</ele>
        <time>2018-03-21T15:28:04.000Z</time>
      </trkpt>
      <trkpt lat="47.51482" lon="-1.3537">
        <ele>54</ele>
        <time>2018-03-21T15:28:09.000Z</time>
      </trkpt>
      <trkpt lat="47.51501" lon="-1.35394">
        <ele>53</ele>
        <time>2018-03-21T15:28:14.000Z</time>
      </trkpt>
      <trkpt lat="47.51524" lon="-1.35414">
        <ele>53</ele>
        <time>2018-03-21T15:28:19.000Z</time>
      </trkpt>
      <trkpt lat="47.51552" lon="-1.3543">
        <ele>53</ele>
        <time>2018-03-21T15:28:24.000Z</time>
      </trkpt>
      <trkpt lat="47.51577" lon="-1.35445">
        <ele>52</ele>
        <time>2018-03-21T15:28:28.000Z</time>
      </trkpt>
      <trkpt lat="47.51605" lon="-1.3546">
        <ele>49</ele>
        <time>2018-03-21T15:28:32.000Z</time>
      </trkpt>
      <trkpt lat="47.51619" lon="-1.35467">
        <ele>49</ele>
        <time>2018-03-21T15:28:34.000Z</time>
      </trkpt>
      <trkpt lat="47.51632" lon="-1.3547">
        <ele>49</ele>
        <time>2018-03-21T15:28:36.000Z</time>
      </trkpt>
      <trkpt lat="47.51645" lon="-1.3546">
        <ele>49</ele>
        <time>2018-03-21T15:28:38.000Z</time>
      </trkpt>
      <trkpt lat="47.51653" lon="-1.35441">
        <ele>48</ele>
        <time>2018-03-21T15:28:40.000Z</time>
      </trkpt>
      <trkpt lat="47.51667" lon="-1.35399">
        <ele>46</ele>
        <time>2018-03-21T15:28:44.000Z</time>
      </trkpt>
      <trkpt lat="47.51684" lon="-1.35362">
        <ele>44</ele>
        <time>2018-03-21T15:28:48.000Z</time>
      </trkpt>
      <trkpt lat="47.51704" lon="-1.3533">
        <ele>42</ele>
        <time>2018-03-21T15:28:52.000Z</time>
      </trkpt>
      <trkpt lat="47.51724" lon="-1.353">
        <ele>41</ele>
        <time>2018-03-21T15:28:56.000Z</time>
      </trkpt>
      <trkpt lat="47.51744" lon="-1.35268">
        <ele>40</ele>
        <time>2018-03-21T15:29:00.000Z</time>
      </trkpt>
      <trkpt lat="47.51765" lon="-1.35237">
        <ele>36</ele>
        <time>2018-03-21T15:29:04.000Z</time>
      </trkpt>
      <trkpt lat="47.51786" lon="-1.35205">
        <ele>35</ele>
        <time>2018-03-21T15:29:08.000Z</time>
      </trkpt>
      <trkpt lat="47.51806" lon="-1.35173">
        <ele>34</ele>
        <time>2018-03-21T15:29:12.000Z</time>
      </trkpt>
      <trkpt lat="47.51827" lon="-1.35141">
        <ele>34</ele>
        <time>2018-03-21T15:29:16.000Z</time>
      </trkpt>
      <trkpt lat="47.5185" lon="-1.35117">
        <ele>32</ele>
        <time>2018-03-21T15:29:20.000Z</time>
      </trkpt>
      <trkpt lat="47.51845" lon="-1.35082">
        <ele>34</ele>
        <time>2018-03-21T15:29:25.000Z</time>
      </trkpt>
      <trkpt lat="47.51829" lon="-1.3506">
        <ele>36</ele>
        <time>2018-03-21T15:29:30.000Z</time>
      </trkpt>
      <trkpt lat="47.51815" lon="-1.35036">
        <ele>37</ele>
        <time>2018-03-21T15:29:36.000Z</time>
      </trkpt>
      <trkpt lat="47.51805" lon="-1.35006">
        <ele>38</ele>
        <time>2018-03-21T15:29:43.000Z</time>
      </trkpt>
      <trkpt lat="47.51802" lon="-1.34974">
        <ele>40</ele>
        <time>2018-03-21T15:29:50.000Z</time>
      </trkpt>
      <trkpt lat="47.51806" lon="-1.34939">
        <ele>41</ele>
        <time>2018-03-21T15:29:57.000Z</time>
      </trkpt>
      <trkpt lat="47.51809" lon="-1.34907">
        <ele>43</ele>
        <time>2018-03-21T15:30:04.000Z</time>
      </trkpt>
      <trkpt lat="47.51812" lon="-1.34873">
        <ele>44</ele>
        <time>2018-03-21T15:30:11.000Z</time>
      </trkpt>
      <trkpt lat="47.51815" lon="-1.3484">
        <ele>45</ele>
        <time>2018-03-21T15:30:18.000Z</time>
      </trkpt>
      <trkpt lat="47.51818" lon="-1.34804">
        <ele>47</ele>
        <time>2018-03-21T15:30:25.000Z</time>
      </trkpt>
      <trkpt lat="47.5182" lon="-1.34771">
        <ele>48</ele>
        <time>2018-03-21T15:30:32.000Z</time>
      </trkpt>
      <trkpt lat="47.51821" lon="-1.34738">
        <ele>49</ele>
        <time>2018-03-21T15:30:39.000Z</time>
      </trkpt>
      <trkpt lat="47.51823" lon="-1.34706">
        <ele>50</ele>
        <time>2018-03-21T15:30:46.000Z</time>
      </trkpt>
      <trkpt lat="47.51825" lon="-1.34671">
        <ele>50</ele>
        <time>2018-03-21T15:30:53.000Z</time>
      </trkpt>
      <trkpt lat="47.51825" lon="-1.34637">
        <ele>51</ele>
        <time>2018-03-21T15:30:59.000Z</time>
      </trkpt>
      <trkpt lat="47.51827" lon="-1.346">
        <ele>51</ele>
        <time>2018-03-21T15:31:05.000Z</time>
      </trkpt>
      <trkpt lat="47.51828" lon="-1.3458">
        <ele>51</ele>
        <time>2018-03-21T15:31:08.000Z</time>
      </trkpt>
      <trkpt lat="47.51826" lon="-1.34561">
        <ele>52</ele>
        <time>2018-03-21T15:31:11.000Z</time>
      </trkpt>
      <trkpt lat="47.51814" lon="-1.34529">
        <ele>52</ele>
        <time>2018-03-21T15:31:17.000Z</time>
      </trkpt>
      <trkpt lat="47.51802" lon="-1.34497">
        <ele>53</ele>
        <time>2018-03-21T15:31:23.000Z</time>
      </trkpt>
      <trkpt lat="47.5179" lon="-1.34465">
        <ele>53</ele>
        <time>2018-03-21T15:31:29.000Z</time>
      </trkpt>
      <trkpt lat="47.51777" lon="-1.34433">
        <ele>53</ele>
        <time>2018-03-21T15:31:35.000Z</time>
      </trkpt>
      <trkpt lat="47.51763" lon="-1.344">
        <ele>53</ele>
        <time>2018-03-21T15:31:41.000Z</time>
      </trkpt>
      <trkpt lat="47.51739" lon="-1.3439">
        <ele>54</ele>
        <time>2018-03-21T15:31:47.000Z</time>
      </trkpt>
      <trkpt lat="47.51717" lon="-1.34385">
        <ele>54</ele>
        <time>2018-03-21T15:31:52.000Z</time>
      </trkpt>
      <trkpt lat="47.51691" lon="-1.34378">
        <ele>54</ele>
        <time>2018-03-21T15:31:58.000Z</time>
      </trkpt>
      <trkpt lat="47.51666" lon="-1.3437">
        <ele>54</ele>
        <time>2018-03-21T15:32:04.000Z</time>
      </trkpt>
      <trkpt lat="47.51642" lon="-1.34364">
        <ele>54</ele>
        <time>2018-03-21T15:32:10.000Z</time>
      </trkpt>
      <trkpt lat="47.51617" lon="-1.34356">
        <ele>55</ele>
        <time>2018-03-21T15:32:16.000Z</time>
      </trkpt>
      <trkpt lat="47.51592" lon="-1.34349">
        <ele>55</ele>
        <time>2018-03-21T15:32:22.000Z</time>
      </trkpt>
      <trkpt lat="47.51566" lon="-1.34343">
        <ele>55</ele>
        <time>2018-03-21T15:32:28.000Z</time>
      </trkpt>
      <trkpt lat="47.51541" lon="-1.34333">
        <ele>56</ele>
        <time>2018-03-21T15:32:34.000Z</time>
      </trkpt>
      <trkpt lat="47.51517" lon="-1.34326">
        <ele>57</ele>
        <time>2018-03-21T15:32:40.000Z</time>
      </trkpt>
      <trkpt lat="47.51492" lon="-1.34323">
        <ele>58</ele>
        <time>2018-03-21T15:32:46.000Z</time>
      </trkpt>
      <trkpt lat="47.51467" lon="-1.34327">
        <ele>59</ele>
        <time>2018-03-21T15:32:52.000Z</time>
      </trkpt>
      <trkpt lat="47.51442" lon="-1.34334">
        <ele>59</ele>
        <time>2018-03-21T15:32:58.000Z</time>
      </trkpt>
      <trkpt lat="47.51419" lon="-1.3434">
        <ele>60</ele>
        <time>2018-03-21T15:33:04.000Z</time>
      </trkpt>
      <trkpt lat="47.51395" lon="-1.3435">
        <ele>61</ele>
        <time>2018-03-21T15:33:10.000Z</time>
      </trkpt>
      <trkpt lat="47.5137" lon="-1.34356">
        <ele>61</ele>
        <time>2018-03-21T15:33:16.000Z</time>
      </trkpt>
      <trkpt lat="47.51346" lon="-1.3436">
        <ele>61</ele>
        <time>2018-03-21T15:33:22.000Z</time>
      </trkpt>
      <trkpt lat="47.51322" lon="-1.34365">
        <ele>62</ele>
        <time>2018-03-21T15:33:28.000Z</time>
      </trkpt>
      <trkpt lat="47.513" lon="-1.34371">
        <ele>62</ele>
        <time>2018-03-21T15:33:34.000Z</time>
      </trkpt>
      <trkpt lat="47.51287" lon="-1.34341">
        <ele>63</ele>
        <time>2018-03-21T15:33:42.000Z</time>
      </trkpt>
      <trkpt lat="47.51274" lon="-1.34311">
        <ele>63</ele>
        <time>2018-03-21T15:33:47.000Z</time>
      </trkpt>
      <trkpt lat="47.51253" lon="-1.34291">
        <ele>63</ele>
        <time>2018-03-21T15:33:53.000Z</time>
      </trkpt>
      <trkpt lat="47.51242" lon="-1.34257">
        <ele>64</ele>
        <time>2018-03-21T15:33:59.000Z</time>
      </trkpt>
      <trkpt lat="47.51239" lon="-1.34221">
        <ele>63</ele>
        <time>2018-03-21T15:34:04.000Z</time>
      </trkpt>
      <trkpt lat="47.51234" lon="-1.34179">
        <ele>63</ele>
        <time>2018-03-21T15:34:09.000Z</time>
      </trkpt>
      <trkpt lat="47.5123" lon="-1.34136">
        <ele>62</ele>
        <time>2018-03-21T15:34:14.000Z</time>
      </trkpt>
      <trkpt lat="47.51224" lon="-1.34095">
        <ele>62</ele>
        <time>2018-03-21T15:34:19.000Z</time>
      </trkpt>
      <trkpt lat="47.5122" lon="-1.3406">
        <ele>62</ele>
        <time>2018-03-21T15:34:23.000Z</time>
      </trkpt>
      <trkpt lat="47.51218" lon="-1.34016">
        <ele>62</ele>
        <time>2018-03-21T15:34:28.000Z</time>
      </trkpt>
      <trkpt lat="47.51215" lon="-1.33976">
        <ele>61</ele>
        <time>2018-03-21T15:34:33.000Z</time>
      </trkpt>
      <trkpt lat="47.51195" lon="-1.33957">
        <ele>61</ele>
        <time>2018-03-21T15:34:37.000Z</time>
      </trkpt>
      <trkpt lat="47.51171" lon="-1.33943">
        <ele>61</ele>
        <time>2018-03-21T15:34:41.000Z</time>
      </trkpt>
      <trkpt lat="47.51144" lon="-1.33929">
        <ele>59</ele>
        <time>2018-03-21T15:34:45.000Z</time>
      </trkpt>
      <trkpt lat="47.5112" lon="-1.33919">
        <ele>58</ele>
        <time>2018-03-21T15:34:49.000Z</time>
      </trkpt>
      <trkpt lat="47.51098" lon="-1.33909">
        <ele>57</ele>
        <time>2018-03-21T15:34:56.000Z</time>
      </trkpt>
      <trkpt lat="47.51077" lon="-1.33896">
        <ele>56</ele>
        <time>2018-03-21T15:35:02.000Z</time>
      </trkpt>
      <trkpt lat="47.51051" lon="-1.33879">
        <ele>55</ele>
        <time>2018-03-21T15:35:07.000Z</time>
      </trkpt>
      <trkpt lat="47.51029" lon="-1.33866">
        <ele>55</ele>
        <time>2018-03-21T15:35:11.000Z</time>
      </trkpt>
      <trkpt lat="47.51003" lon="-1.3385">
        <ele>54</ele>
        <time>2018-03-21T15:35:16.000Z</time>
      </trkpt>
      <trkpt lat="47.5098" lon="-1.33835">
        <ele>53</ele>
        <time>2018-03-21T15:35:20.000Z</time>
      </trkpt>
      <trkpt lat="47.50957" lon="-1.33819">
        <ele>52</ele>
        <time>2018-03-21T15:35:24.000Z</time>
      </trkpt>
      <trkpt lat="47.50932" lon="-1.33803">
        <ele>52</ele>
        <time>2018-03-21T15:35:29.000Z</time>
      </trkpt>
      <trkpt lat="47.50911" lon="-1.33788">
        <ele>52</ele>
        <time>2018-03-21T15:35:34.000Z</time>
      </trkpt>
      <trkpt lat="47.50892" lon="-1.33777">
        <ele>53</ele>
        <time>2018-03-21T15:35:41.000Z</time>
      </trkpt>
      <trkpt lat="47.50872" lon="-1.33765">
        <ele>53</ele>
        <time>2018-03-21T15:35:49.000Z</time>
      </trkpt>
      <trkpt lat="47.50852" lon="-1.33753">
        <ele>54</ele>
        <time>2018-03-21T15:35:58.000Z</time>
      </trkpt>
      <trkpt lat="47.50833" lon="-1.33742">
        <ele>56</ele>
        <time>2018-03-21T15:36:04.000Z</time>
      </trkpt>
      <trkpt lat="47.50813" lon="-1.3373">
        <ele>56</ele>
        <time>2018-03-21T15:36:12.000Z</time>
      </trkpt>
      <trkpt lat="47.50793" lon="-1.33718">
        <ele>56</ele>
        <time>2018-03-21T15:36:19.000Z</time>
      </trkpt>
      <trkpt lat="47.50772" lon="-1.33707">
        <ele>56</ele>
        <time>2018-03-21T15:36:27.000Z</time>
      </trkpt>
      <trkpt lat="47.5075" lon="-1.33701">
        <ele>54</ele>
        <time>2018-03-21T15:36:35.000Z</time>
      </trkpt>
      <trkpt lat="47.50727" lon="-1.33701">
        <ele>54</ele>
        <time>2018-03-21T15:36:41.000Z</time>
      </trkpt>
      <trkpt lat="47.50706" lon="-1.33696">
        <ele>53</ele>
        <time>2018-03-21T15:36:46.000Z</time>
      </trkpt>
      <trkpt lat="47.50682" lon="-1.33687">
        <ele>53</ele>
        <time>2018-03-21T15:36:51.000Z</time>
      </trkpt>
      <trkpt lat="47.50669" lon="-1.33678">
        <ele>52</ele>
        <time>2018-03-21T15:36:55.000Z</time>
      </trkpt>
      <trkpt lat="47.50672" lon="-1.33665">
        <ele>53</ele>
        <time>2018-03-21T15:36:59.000Z</time>
      </trkpt>
      <trkpt lat="47.50686" lon="-1.3364">
        <ele>54</ele>
        <time>2018-03-21T15:37:10.000Z</time>
      </trkpt>
      <trkpt lat="47.50699" lon="-1.33615">
        <ele>55</ele>
        <time>2018-03-21T15:37:18.000Z</time>
      </trkpt>
      <trkpt lat="47.50706" lon="-1.33582">
        <ele>55</ele>
        <time>2018-03-21T15:37:26.000Z</time>
      </trkpt>
      <trkpt lat="47.5069" lon="-1.33553">
        <ele>55</ele>
        <time>2018-03-21T15:37:33.000Z</time>
      </trkpt>
      <trkpt lat="47.50671" lon="-1.33524">
        <ele>55</ele>
        <time>2018-03-21T15:37:39.000Z</time>
      </trkpt>
      <trkpt lat="47.50661" lon="-1.33492">
        <ele>54</ele>
        <time>2018-03-21T15:37:44.000Z</time>
      </trkpt>
      <trkpt lat="47.50663" lon="-1.33453">
        <ele>54</ele>
        <time>2018-03-21T15:37:50.000Z</time>
      </trkpt>
      <trkpt lat="47.50665" lon="-1.33419">
        <ele>55</ele>
        <time>2018-03-21T15:37:56.000Z</time>
      </trkpt>
      <trkpt lat="47.50667" lon="-1.33385">
        <ele>56</ele>
        <time>2018-03-21T15:38:02.000Z</time>
      </trkpt>
      <trkpt lat="47.50668" lon="-1.33352">
        <ele>56</ele>
        <time>2018-03-21T15:38:08.000Z</time>
      </trkpt>
      <trkpt lat="47.50666" lon="-1.33314">
        <ele>55</ele>
        <time>2018-03-21T15:38:14.000Z</time>
      </trkpt>
      <trkpt lat="47.50664" lon="-1.3328">
        <ele>54</ele>
        <time>2018-03-21T15:38:19.000Z</time>
      </trkpt>
      <trkpt lat="47.50662" lon="-1.33244">
        <ele>54</ele>
        <time>2018-03-21T15:38:24.000Z</time>
      </trkpt>
      <trkpt lat="47.50656" lon="-1.33205">
        <ele>53</ele>
        <time>2018-03-21T15:38:29.000Z</time>
      </trkpt>
      <trkpt lat="47.50635" lon="-1.33175">
        <ele>53</ele>
        <time>2018-03-21T15:38:34.000Z</time>
      </trkpt>
      <trkpt lat="47.5061" lon="-1.33156">
        <ele>52</ele>
        <time>2018-03-21T15:38:38.000Z</time>
      </trkpt>
      <trkpt lat="47.5059" lon="-1.3312">
        <ele>52</ele>
        <time>2018-03-21T15:38:42.000Z</time>
      </trkpt>
      <trkpt lat="47.50579" lon="-1.33078">
        <ele>49</ele>
        <time>2018-03-21T15:38:46.000Z</time>
      </trkpt>
      <trkpt lat="47.50576" lon="-1.33039">
        <ele>49</ele>
        <time>2018-03-21T15:38:50.000Z</time>
      </trkpt>
      <trkpt lat="47.50581" lon="-1.33001">
        <ele>51</ele>
        <time>2018-03-21T15:38:55.000Z</time>
      </trkpt>
      <trkpt lat="47.50584" lon="-1.32962">
        <ele>53</ele>
        <time>2018-03-21T15:39:01.000Z</time>
      </trkpt>
      <trkpt lat="47.50583" lon="-1.32929">
        <ele>52</ele>
        <time>2018-03-21T15:39:06.000Z</time>
      </trkpt>
      <trkpt lat="47.50581" lon="-1.32895">
        <ele>52</ele>
        <time>2018-03-21T15:39:11.000Z</time>
      </trkpt>
      <trkpt lat="47.50579" lon="-1.32862">
        <ele>52</ele>
        <time>2018-03-21T15:39:16.000Z</time>
      </trkpt>
      <trkpt lat="47.50582" lon="-1.32824">
        <ele>53</ele>
        <time>2018-03-21T15:39:22.000Z</time>
      </trkpt>
      <trkpt lat="47.50587" lon="-1.32789">
        <ele>54</ele>
        <time>2018-03-21T15:39:28.000Z</time>
      </trkpt>
      <trkpt lat="47.50593" lon="-1.32751">
        <ele>54</ele>
        <time>2018-03-21T15:39:34.000Z</time>
      </trkpt>
      <trkpt lat="47.50599" lon="-1.32717">
        <ele>54</ele>
        <time>2018-03-21T15:39:39.000Z</time>
      </trkpt>
      <trkpt lat="47.50607" lon="-1.32679">
        <ele>54</ele>
        <time>2018-03-21T15:39:44.000Z</time>
      </trkpt>
      <trkpt lat="47.50615" lon="-1.32645">
        <ele>52</ele>
        <time>2018-03-21T15:39:48.000Z</time>
      </trkpt>
      <trkpt lat="47.50617" lon="-1.32638">
        <ele>52</ele>
        <time>2018-03-21T15:39:49.000Z</time>
      </trkpt>
      <trkpt lat="47.50621" lon="-1.32633">
        <ele>52</ele>
        <time>2018-03-21T15:39:50.000Z</time>
      </trkpt>
      <trkpt lat="47.50626" lon="-1.32633">
        <ele>52</ele>
        <time>2018-03-21T15:39:51.000Z</time>
      </trkpt>
      <trkpt lat="47.50662" lon="-1.32646">
        <ele>53</ele>
        <time>2018-03-21T15:39:58.000Z</time>
      </trkpt>
      <trkpt lat="47.50687" lon="-1.32657">
        <ele>53</ele>
        <time>2018-03-21T15:40:03.000Z</time>
      </trkpt>
      <trkpt lat="47.50697" lon="-1.32662">
        <ele>52</ele>
        <time>2018-03-21T15:40:05.000Z</time>
      </trkpt>
      <trkpt lat="47.50713" lon="-1.32673">
        <ele>54</ele>
        <time>2018-03-21T15:40:08.000Z</time>
      </trkpt>
      <trkpt lat="47.50733" lon="-1.32692">
        <ele>54</ele>
        <time>2018-03-21T15:40:12.000Z</time>
      </trkpt>
      <trkpt lat="47.50762" lon="-1.32702">
        <ele>53</ele>
        <time>2018-03-21T15:40:17.000Z</time>
      </trkpt>
      <trkpt lat="47.50789" lon="-1.327">
        <ele>53</ele>
        <time>2018-03-21T15:40:21.000Z</time>
      </trkpt>
      <trkpt lat="47.5082" lon="-1.32699">
        <ele>53</ele>
        <time>2018-03-21T15:40:25.000Z</time>
      </trkpt>
      <trkpt lat="47.50848" lon="-1.327">
        <ele>53</ele>
        <time>2018-03-21T15:40:29.000Z</time>
      </trkpt>
      <trkpt lat="47.50876" lon="-1.32699">
        <ele>53</ele>
        <time>2018-03-21T15:40:34.000Z</time>
      </trkpt>
      <trkpt lat="47.50903" lon="-1.32697">
        <ele>53</ele>
        <time>2018-03-21T15:40:39.000Z</time>
      </trkpt>
      <trkpt lat="47.50932" lon="-1.32692">
        <ele>54</ele>
        <time>2018-03-21T15:40:44.000Z</time>
      </trkpt>
      <trkpt lat="47.5096" lon="-1.32685">
        <ele>55</ele>
        <time>2018-03-21T15:40:49.000Z</time>
      </trkpt>
      <trkpt lat="47.50983" lon="-1.32673">
        <ele>56</ele>
        <time>2018-03-21T15:40:54.000Z</time>
      </trkpt>
      <trkpt lat="47.51004" lon="-1.32663">
        <ele>57</ele>
        <time>2018-03-21T15:40:59.000Z</time>
      </trkpt>
      <trkpt lat="47.51027" lon="-1.32664">
        <ele>57</ele>
        <time>2018-03-21T15:41:04.000Z</time>
      </trkpt>
      <trkpt lat="47.5105" lon="-1.32672">
        <ele>58</ele>
        <time>2018-03-21T15:41:09.000Z</time>
      </trkpt>
      <trkpt lat="47.51074" lon="-1.32679">
        <ele>59</ele>
        <time>2018-03-21T15:41:14.000Z</time>
      </trkpt>
      <trkpt lat="47.51078" lon="-1.32679">
        <ele>59</ele>
        <time>2018-03-21T15:41:15.000Z</time>
      </trkpt>
      <trkpt lat="47.51082" lon="-1.32676">
        <ele>59</ele>
        <time>2018-03-21T15:41:16.000Z</time>
      </trkpt>
      <trkpt lat="47.51085" lon="-1.3267">
        <ele>59</ele>
        <time>2018-03-21T15:41:17.000Z</time>
      </trkpt>
      <trkpt lat="47.51086" lon="-1.32664">
        <ele>59</ele>
        <time>2018-03-21T15:41:18.000Z</time>
      </trkpt>
      <trkpt lat="47.51082" lon="-1.32614">
        <ele>57</ele>
        <time>2018-03-21T15:41:25.000Z</time>
      </trkpt>
      <trkpt lat="47.5108" lon="-1.32578">
        <ele>56</ele>
        <time>2018-03-21T15:41:30.000Z</time>
      </trkpt>
      <trkpt lat="47.51077" lon="-1.32546">
        <ele>55</ele>
        <time>2018-03-21T15:41:35.000Z</time>
      </trkpt>
      <trkpt lat="47.51074" lon="-1.3251">
        <ele>55</ele>
        <time>2018-03-21T15:41:40.000Z</time>
      </trkpt>
      <trkpt lat="47.5107" lon="-1.32475">
        <ele>54</ele>
        <time>2018-03-21T15:41:45.000Z</time>
      </trkpt>
      <trkpt lat="47.51067" lon="-1.3244">
        <ele>54</ele>
        <time>2018-03-21T15:41:50.000Z</time>
      </trkpt>
      <trkpt lat="47.51066" lon="-1.32404">
        <ele>55</ele>
        <time>2018-03-21T15:41:55.000Z</time>
      </trkpt>
      <trkpt lat="47.51063" lon="-1.32369">
        <ele>55</ele>
        <time>2018-03-21T15:42:00.000Z</time>
      </trkpt>
      <trkpt lat="47.51061" lon="-1.32329">
        <ele>56</ele>
        <time>2018-03-21T15:42:05.000Z</time>
      </trkpt>
      <trkpt lat="47.5106" lon="-1.32289">
        <ele>56</ele>
        <time>2018-03-21T15:42:10.000Z</time>
      </trkpt>
      <trkpt lat="47.5106" lon="-1.32248">
        <ele>57</ele>
        <time>2018-03-21T15:42:15.000Z</time>
      </trkpt>
      <trkpt lat="47.5106" lon="-1.32208">
        <ele>58</ele>
        <time>2018-03-21T15:42:20.000Z</time>
      </trkpt>
      <trkpt lat="47.51057" lon="-1.32168">
        <ele>58</ele>
        <time>2018-03-21T15:42:25.000Z</time>
      </trkpt>
      <trkpt lat="47.51054" lon="-1.32126">
        <ele>58</ele>
        <time>2018-03-21T15:42:30.000Z</time>
      </trkpt>
      <trkpt lat="47.51049" lon="-1.32084">
        <ele>57</ele>
        <time>2018-03-21T15:42:35.000Z</time>
      </trkpt>
      <trkpt lat="47.51042" lon="-1.32048">
        <ele>58</ele>
        <time>2018-03-21T15:42:40.000Z</time>
      </trkpt>
      <trkpt lat="47.51037" lon="-1.32007">
        <ele>58</ele>
        <time>2018-03-21T15:42:45.000Z</time>
      </trkpt>
      <trkpt lat="47.51031" lon="-1.31967">
        <ele>58</ele>
        <time>2018-03-21T15:42:50.000Z</time>
      </trkpt>
      <trkpt lat="47.51015" lon="-1.31937">
        <ele>58</ele>
        <time>2018-03-21T15:42:55.000Z</time>
      </trkpt>
      <trkpt lat="47.51024" lon="-1.31905">
        <ele>57</ele>
        <time>2018-03-21T15:43:05.000Z</time>
      </trkpt>
      <trkpt lat="47.51037" lon="-1.31873">
        <ele>56</ele>
        <time>2018-03-21T15:43:11.000Z</time>
      </trkpt>
      <trkpt lat="47.5106" lon="-1.31843">
        <ele>55</ele>
        <time>2018-03-21T15:43:16.000Z</time>
      </trkpt>
      <trkpt lat="47.51086" lon="-1.31818">
        <ele>51</ele>
        <time>2018-03-21T15:43:20.000Z</time>
      </trkpt>
      <trkpt lat="47.51115" lon="-1.31787">
        <ele>49</ele>
        <time>2018-03-21T15:43:24.000Z</time>
      </trkpt>
      <trkpt lat="47.51135" lon="-1.31753">
        <ele>48</ele>
        <time>2018-03-21T15:43:27.000Z</time>
      </trkpt>
      <trkpt lat="47.51148" lon="-1.3171">
        <ele>46</ele>
        <time>2018-03-21T15:43:30.000Z</time>
      </trkpt>
      <trkpt lat="47.51162" lon="-1.31668">
        <ele>44</ele>
        <time>2018-03-21T15:43:33.000Z</time>
      </trkpt>
      <trkpt lat="47.5118" lon="-1.3163">
        <ele>40</ele>
        <time>2018-03-21T15:43:36.000Z</time>
      </trkpt>
      <trkpt lat="47.512" lon="-1.31595">
        <ele>40</ele>
        <time>2018-03-21T15:43:39.000Z</time>
      </trkpt>
      <trkpt lat="47.5122" lon="-1.31565">
        <ele>38</ele>
        <time>2018-03-21T15:43:42.000Z</time>
      </trkpt>
      <trkpt lat="47.51239" lon="-1.31536">
        <ele>38</ele>
        <time>2018-03-21T15:43:45.000Z</time>
      </trkpt>
      <trkpt lat="47.5125" lon="-1.31493">
        <ele>36</ele>
        <time>2018-03-21T15:43:49.000Z</time>
      </trkpt>
      <trkpt lat="47.51251" lon="-1.31451">
        <ele>36</ele>
        <time>2018-03-21T15:43:53.000Z</time>
      </trkpt>
      <trkpt lat="47.51243" lon="-1.31412">
        <ele>37</ele>
        <time>2018-03-21T15:43:57.000Z</time>
      </trkpt>
      <trkpt lat="47.51234" lon="-1.31378">
        <ele>38</ele>
        <time>2018-03-21T15:44:01.000Z</time>
      </trkpt>
      <trkpt lat="47.5123" lon="-1.31361">
        <ele>38</ele>
        <time>2018-03-21T15:44:03.000Z</time>
      </trkpt>
      <trkpt lat="47.51228" lon="-1.31343">
        <ele>38</ele>
        <time>2018-03-21T15:44:05.000Z</time>
      </trkpt>
      <trkpt lat="47.51234" lon="-1.31309">
        <ele>38</ele>
        <time>2018-03-21T15:44:09.000Z</time>
      </trkpt>
      <trkpt lat="47.51246" lon="-1.31277">
        <ele>38</ele>
        <time>2018-03-21T15:44:13.000Z</time>
      </trkpt>
      <trkpt lat="47.51258" lon="-1.31246">
        <ele>36</ele>
        <time>2018-03-21T15:44:17.000Z</time>
      </trkpt>
      <trkpt lat="47.51273" lon="-1.31208">
        <ele>35</ele>
        <time>2018-03-21T15:44:22.000Z</time>
      </trkpt>
      <trkpt lat="47.51286" lon="-1.31175">
        <ele>35</ele>
        <time>2018-03-21T15:44:26.000Z</time>
      </trkpt>
      <trkpt lat="47.51299" lon="-1.31141">
        <ele>34</ele>
        <time>2018-03-21T15:44:30.000Z</time>
      </trkpt>
      <trkpt lat="47.51312" lon="-1.31106">
        <ele>34</ele>
        <time>2018-03-21T15:44:34.000Z</time>
      </trkpt>
      <trkpt lat="47.5132" lon="-1.31069">
        <ele>33</ele>
        <time>2018-03-21T15:44:38.000Z</time>
      </trkpt>
      <trkpt lat="47.5133" lon="-1.31029">
        <ele>33</ele>
        <time>2018-03-21T15:44:42.000Z</time>
      </trkpt>
      <trkpt lat="47.5134" lon="-1.30989">
        <ele>33</ele>
        <time>2018-03-21T15:44:46.000Z</time>
      </trkpt>
      <trkpt lat="47.51348" lon="-1.3095">
        <ele>32</ele>
        <time>2018-03-21T15:44:50.000Z</time>
      </trkpt>
      <trkpt lat="47.51357" lon="-1.30913">
        <ele>32</ele>
        <time>2018-03-21T15:44:54.000Z</time>
      </trkpt>
      <trkpt lat="47.51366" lon="-1.30876">
        <ele>32</ele>
        <time>2018-03-21T15:44:58.000Z</time>
      </trkpt>
      <trkpt lat="47.51374" lon="-1.30839">
        <ele>32</ele>
        <time>2018-03-21T15:45:02.000Z</time>
      </trkpt>
      <trkpt lat="47.51383" lon="-1.30801">
        <ele>32</ele>
        <time>2018-03-21T15:45:06.000Z</time>
      </trkpt>
      <trkpt lat="47.51392" lon="-1.30762">
        <ele>32</ele>
        <time>2018-03-21T15:45:10.000Z</time>
      </trkpt>
      <trkpt lat="47.51401" lon="-1.30721">
        <ele>31</ele>
        <time>2018-03-21T15:45:14.000Z</time>
      </trkpt>
      <trkpt lat="47.5141" lon="-1.30681">
        <ele>30</ele>
        <time>2018-03-21T15:45:18.000Z</time>
      </trkpt>
      <trkpt lat="47.51419" lon="-1.30644">
        <ele>29</ele>
        <time>2018-03-21T15:45:22.000Z</time>
      </trkpt>
      <trkpt lat="47.51428" lon="-1.30608">
        <ele>28</ele>
        <time>2018-03-21T15:45:26.000Z</time>
      </trkpt>
      <trkpt lat="47.51436" lon="-1.30575">
        <ele>28</ele>
        <time>2018-03-21T15:45:30.000Z</time>
      </trkpt>
      <trkpt lat="47.51436" lon="-1.30536">
        <ele>28</ele>
        <time>2018-03-21T15:45:35.000Z</time>
      </trkpt>
      <trkpt lat="47.51413" lon="-1.30522">
        <ele>30</ele>
        <time>2018-03-21T15:45:40.000Z</time>
      </trkpt>
      <trkpt lat="47.51388" lon="-1.30511">
        <ele>30</ele>
        <time>2018-03-21T15:45:45.000Z</time>
      </trkpt>
      <trkpt lat="47.51364" lon="-1.305">
        <ele>31</ele>
        <time>2018-03-21T15:45:50.000Z</time>
      </trkpt>
      <trkpt lat="47.51341" lon="-1.30493">
        <ele>32</ele>
        <time>2018-03-21T15:45:55.000Z</time>
      </trkpt>
      <trkpt lat="47.51318" lon="-1.30483">
        <ele>33</ele>
        <time>2018-03-21T15:46:00.000Z</time>
      </trkpt>
      <trkpt lat="47.51293" lon="-1.30469">
        <ele>34</ele>
        <time>2018-03-21T15:46:06.000Z</time>
      </trkpt>
      <trkpt lat="47.5127" lon="-1.30453">
        <ele>35</ele>
        <time>2018-03-21T15:46:12.000Z</time>
      </trkpt>
      <trkpt lat="47.51248" lon="-1.30445">
        <ele>35</ele>
        <time>2018-03-21T15:46:19.000Z</time>
      </trkpt>
      <trkpt lat="47.51226" lon="-1.30434">
        <ele>35</ele>
        <time>2018-03-21T15:46:25.000Z</time>
      </trkpt>
      <trkpt lat="47.51203" lon="-1.3042">
        <ele>34</ele>
        <time>2018-03-21T15:46:30.000Z</time>
      </trkpt>
      <trkpt lat="47.51179" lon="-1.30407">
        <ele>33</ele>
        <time>2018-03-21T15:46:34.000Z</time>
      </trkpt>
      <trkpt lat="47.51149" lon="-1.30389">
        <ele>30</ele>
        <time>2018-03-21T15:46:38.000Z</time>
      </trkpt>
      <trkpt lat="47.51125" lon="-1.30368">
        <ele>29</ele>
        <time>2018-03-21T15:46:41.000Z</time>
      </trkpt>
      <trkpt lat="47.51101" lon="-1.30344">
        <ele>28</ele>
        <time>2018-03-21T15:46:44.000Z</time>
      </trkpt>
      <trkpt lat="47.51093" lon="-1.30336">
        <ele>28</ele>
        <time>2018-03-21T15:46:45.000Z</time>
      </trkpt>
      <trkpt lat="47.5108" lon="-1.30318">
        <ele>26</ele>
        <time>2018-03-21T15:46:47.000Z</time>
      </trkpt>
      <trkpt lat="47.51075" lon="-1.30272">
        <ele>25</ele>
        <time>2018-03-21T15:46:51.000Z</time>
      </trkpt>
      <trkpt lat="47.51085" lon="-1.30228">
        <ele>25</ele>
        <time>2018-03-21T15:46:55.000Z</time>
      </trkpt>
      <trkpt lat="47.51102" lon="-1.30195">
        <ele>25</ele>
        <time>2018-03-21T15:46:59.000Z</time>
      </trkpt>
      <trkpt lat="47.5112" lon="-1.30171">
        <ele>25</ele>
        <time>2018-03-21T15:47:04.000Z</time>
      </trkpt>
      <trkpt lat="47.51137" lon="-1.30151">
        <ele>25</ele>
        <time>2018-03-21T15:47:11.000Z</time>
      </trkpt>
      <trkpt lat="47.51152" lon="-1.30132">
        <ele>25</ele>
        <time>2018-03-21T15:47:21.000Z</time>
      </trkpt>
      <trkpt lat="47.51168" lon="-1.30119">
        <ele>27</ele>
        <time>2018-03-21T15:47:37.000Z</time>
      </trkpt>
      <trkpt lat="47.51187" lon="-1.3011">
        <ele>28</ele>
        <time>2018-03-21T15:47:44.000Z</time>
      </trkpt>
      <trkpt lat="47.51208" lon="-1.30101">
        <ele>28</ele>
        <time>2018-03-21T15:47:51.000Z</time>
      </trkpt>
      <trkpt lat="47.51233" lon="-1.3009">
        <ele>30</ele>
        <time>2018-03-21T15:47:57.000Z</time>
      </trkpt>
      <trkpt lat="47.51255" lon="-1.30086">
        <ele>31</ele>
        <time>2018-03-21T15:48:02.000Z</time>
      </trkpt>
      <trkpt lat="47.51277" lon="-1.30083">
        <ele>32</ele>
        <time>2018-03-21T15:48:07.000Z</time>
      </trkpt>
      <trkpt lat="47.51299" lon="-1.30081">
        <ele>32</ele>
        <time>2018-03-21T15:48:13.000Z</time>
      </trkpt>
      <trkpt lat="47.51323" lon="-1.30081">
        <ele>33</ele>
        <time>2018-03-21T15:48:19.000Z</time>
      </trkpt>
      <trkpt lat="47.51329" lon="-1.30083">
        <ele>34</ele>
        <time>2018-03-21T15:48:22.000Z</time>
      </trkpt>
      <trkpt lat="47.51299" lon="-1.3008">
        <ele>32</ele>
        <time>2018-03-21T15:48:32.000Z</time>
      </trkpt>
      <trkpt lat="47.51292" lon="-1.30051">
        <ele>32</ele>
        <time>2018-03-21T15:48:41.000Z</time>
      </trkpt>
      <trkpt lat="47.51293" lon="-1.3004">
        <ele>32</ele>
        <time>2018-03-21T15:48:46.000Z</time>
      </trkpt>
      <trkpt lat="47.51294" lon="-1.30083">
        <ele>33</ele>
        <time>2018-03-21T15:48:57.000Z</time>
      </trkpt>
      <trkpt lat="47.51293" lon="-1.3012">
        <ele>33</ele>
        <time>2018-03-21T15:49:03.000Z</time>
      </trkpt>
      <trkpt lat="47.51291" lon="-1.30153">
        <ele>33</ele>
        <time>2018-03-21T15:49:08.000Z</time>
      </trkpt>
      <trkpt lat="47.51286" lon="-1.30193">
        <ele>33</ele>
        <time>2018-03-21T15:49:14.000Z</time>
      </trkpt>
      <trkpt lat="47.51279" lon="-1.30233">
        <ele>33</ele>
        <time>2018-03-21T15:49:20.000Z</time>
      </trkpt>
      <trkpt lat="47.51274" lon="-1.30269">
        <ele>33</ele>
        <time>2018-03-21T15:49:25.000Z</time>
      </trkpt>
      <trkpt lat="47.51267" lon="-1.30308">
        <ele>34</ele>
        <time>2018-03-21T15:49:30.000Z</time>
      </trkpt>
      <trkpt lat="47.51263" lon="-1.30345">
        <ele>35</ele>
        <time>2018-03-21T15:49:35.000Z</time>
      </trkpt>
      <trkpt lat="47.51267" lon="-1.30377">
        <ele>35</ele>
        <time>2018-03-21T15:49:40.000Z</time>
      </trkpt>
      <trkpt lat="47.51274" lon="-1.30408">
        <ele>35</ele>
        <time>2018-03-21T15:49:45.000Z</time>
      </trkpt>
      <trkpt lat="47.51278" lon="-1.30437">
        <ele>35</ele>
        <time>2018-03-21T15:49:53.000Z</time>
      </trkpt>
      <trkpt lat="47.51262" lon="-1.30455">
        <ele>35</ele>
        <time>2018-03-21T15:50:02.000Z</time>
      </trkpt>
      <trkpt lat="47.51244" lon="-1.30473">
        <ele>35</ele>
        <time>2018-03-21T15:50:08.000Z</time>
      </trkpt>
      <trkpt lat="47.51222" lon="-1.30492">
        <ele>34</ele>
        <time>2018-03-21T15:50:14.000Z</time>
      </trkpt>
      <trkpt lat="47.51202" lon="-1.30511">
        <ele>34</ele>
        <time>2018-03-21T15:50:19.000Z</time>
      </trkpt>
      <trkpt lat="47.5118" lon="-1.30532">
        <ele>34</ele>
        <time>2018-03-21T15:50:24.000Z</time>
      </trkpt>
      <trkpt lat="47.51154" lon="-1.3055">
        <ele>32</ele>
        <time>2018-03-21T15:50:29.000Z</time>
      </trkpt>
      <trkpt lat="47.51132" lon="-1.30561">
        <ele>32</ele>
        <time>2018-03-21T15:50:33.000Z</time>
      </trkpt>
      <trkpt lat="47.51112" lon="-1.30576">
        <ele>32</ele>
        <time>2018-03-21T15:50:39.000Z</time>
      </trkpt>
      <trkpt lat="47.5109" lon="-1.30587">
        <ele>32</ele>
        <time>2018-03-21T15:50:44.000Z</time>
      </trkpt>
      <trkpt lat="47.51068" lon="-1.30602">
        <ele>31</ele>
        <time>2018-03-21T15:50:49.000Z</time>
      </trkpt>
      <trkpt lat="47.51042" lon="-1.30618">
        <ele>30</ele>
        <time>2018-03-21T15:50:54.000Z</time>
      </trkpt>
      <trkpt lat="47.51019" lon="-1.30636">
        <ele>30</ele>
        <time>2018-03-21T15:50:59.000Z</time>
      </trkpt>
      <trkpt lat="47.5101" lon="-1.30663">
        <ele>29</ele>
        <time>2018-03-21T15:51:11.000Z</time>
      </trkpt>
      <trkpt lat="47.51001" lon="-1.30695">
        <ele>30</ele>
        <time>2018-03-21T15:51:19.000Z</time>
      </trkpt>
      <trkpt lat="47.50993" lon="-1.30728">
        <ele>29</ele>
        <time>2018-03-21T15:51:25.000Z</time>
      </trkpt>
      <trkpt lat="47.50985" lon="-1.30761">
        <ele>31</ele>
        <time>2018-03-21T15:51:31.000Z</time>
      </trkpt>
      <trkpt lat="47.5098" lon="-1.30793">
        <ele>31</ele>
        <time>2018-03-21T15:51:37.000Z</time>
      </trkpt>
      <trkpt lat="47.50975" lon="-1.30826">
        <ele>32</ele>
        <time>2018-03-21T15:51:43.000Z</time>
      </trkpt>
      <trkpt lat="47.50966" lon="-1.30858">
        <ele>35</ele>
        <time>2018-03-21T15:51:49.000Z</time>
      </trkpt>
      <trkpt lat="47.50956" lon="-1.3089">
        <ele>36</ele>
        <time>2018-03-21T15:51:55.000Z</time>
      </trkpt>
      <trkpt lat="47.5095" lon="-1.30902">
        <ele>36</ele>
        <time>2018-03-21T15:51:59.000Z</time>
      </trkpt>
      <trkpt lat="47.50936" lon="-1.30893">
        <ele>36</ele>
        <time>2018-03-21T15:52:04.000Z</time>
      </trkpt>
      <trkpt lat="47.50915" lon="-1.30881">
        <ele>33</ele>
        <time>2018-03-21T15:52:10.000Z</time>
      </trkpt>
      <trkpt lat="47.50902" lon="-1.30905">
        <ele>34</ele>
        <time>2018-03-21T15:52:17.000Z</time>
      </trkpt>
      <trkpt lat="47.50893" lon="-1.30931">
        <ele>37</ele>
        <time>2018-03-21T15:52:25.000Z</time>
      </trkpt>
      <trkpt lat="47.50883" lon="-1.30958">
        <ele>38</ele>
        <time>2018-03-21T15:52:34.000Z</time>
      </trkpt>
      <trkpt lat="47.50877" lon="-1.30984">
        <ele>39</ele>
        <time>2018-03-21T15:52:43.000Z</time>
      </trkpt>
      <trkpt lat="47.50867" lon="-1.31011">
        <ele>44</ele>
        <time>2018-03-21T15:52:52.000Z</time>
      </trkpt>
      <trkpt lat="47.50859" lon="-1.31037">
        <ele>45</ele>
        <time>2018-03-21T15:53:05.000Z</time>
      </trkpt>
      <trkpt lat="47.50859" lon="-1.31037">
        <ele>45</ele>
        <time>2018-03-21T15:53:06.000Z</time>
      </trkpt>
      <trkpt lat="47.50835" lon="-1.31089">
        <ele>52</ele>
        <time>2018-03-21T15:53:37.000Z</time>
      </trkpt>
      <trkpt lat="47.50828" lon="-1.31112">
        <ele>47</ele>
        <time>2018-03-21T15:53:47.000Z</time>
      </trkpt>
      <trkpt lat="47.50821" lon="-1.31137">
        <ele>47</ele>
        <time>2018-03-21T15:53:56.000Z</time>
      </trkpt>
      <trkpt lat="47.50821" lon="-1.31137">
        <ele>47</ele>
        <time>2018-03-21T15:53:57.000Z</time>
      </trkpt>
      <trkpt lat="47.508" lon="-1.3116">
        <ele>45</ele>
        <time>2018-03-21T15:54:54.000Z</time>
      </trkpt>
      <trkpt lat="47.508" lon="-1.3116">
        <ele>45</ele>
        <time>2018-03-21T15:54:55.000Z</time>
      </trkpt>
      <trkpt lat="47.50798" lon="-1.31162">
        <ele>45</ele>
        <time>2018-03-21T15:55:06.000Z</time>
      </trkpt>
      <trkpt lat="47.50797" lon="-1.31164">
        <ele>44</ele>
        <time>2018-03-21T15:55:07.000Z</time>
      </trkpt>
      <trkpt lat="47.50788" lon="-1.31176">
        <ele>45</ele>
        <time>2018-03-21T15:55:09.000Z</time>
      </trkpt>
      <trkpt lat="47.50775" lon="-1.31198">
        <ele>44</ele>
        <time>2018-03-21T15:55:13.000Z</time>
      </trkpt>
      <trkpt lat="47.50765" lon="-1.31222">
        <ele>44</ele>
        <time>2018-03-21T15:55:21.000Z</time>
      </trkpt>
      <trkpt lat="47.50755" lon="-1.31251">
        <ele>43</ele>
        <time>2018-03-21T15:55:30.000Z</time>
      </trkpt>
      <trkpt lat="47.50743" lon="-1.31274">
        <ele>39</ele>
        <time>2018-03-21T15:55:37.000Z</time>
      </trkpt>
      <trkpt lat="47.5073" lon="-1.31299">
        <ele>39</ele>
        <time>2018-03-21T15:55:44.000Z</time>
      </trkpt>
      <trkpt lat="47.50716" lon="-1.31319">
        <ele>38</ele>
        <time>2018-03-21T15:55:52.000Z</time>
      </trkpt>
      <trkpt lat="47.50717" lon="-1.31318">
        <ele>38</ele>
        <time>2018-03-21T15:55:57.000Z</time>
      </trkpt>
      <trkpt lat="47.50711" lon="-1.31328">
        <ele>38</ele>
        <time>2018-03-21T15:56:29.000Z</time>
      </trkpt>
      <trkpt lat="47.50694" lon="-1.31361">
        <ele>41</ele>
        <time>2018-03-21T15:56:38.000Z</time>
      </trkpt>
      <trkpt lat="47.50694" lon="-1.31361">
        <ele>41</ele>
        <time>2018-03-21T15:56:39.000Z</time>
      </trkpt>
      <trkpt lat="47.50688" lon="-1.31391">
        <ele>42</ele>
        <time>2018-03-21T15:56:44.000Z</time>
      </trkpt>
      <trkpt lat="47.50686" lon="-1.31403">
        <ele>42</ele>
        <time>2018-03-21T15:56:48.000Z</time>
      </trkpt>
      <trkpt lat="47.50671" lon="-1.31398">
        <ele>42</ele>
        <time>2018-03-21T15:56:55.000Z</time>
      </trkpt>
      <trkpt lat="47.5067" lon="-1.31397">
        <ele>42</ele>
        <time>2018-03-21T15:56:57.000Z</time>
      </trkpt>
      <trkpt lat="47.50663" lon="-1.31384">
        <ele>35</ele>
        <time>2018-03-21T15:57:20.000Z</time>
      </trkpt>
      <trkpt lat="47.50659" lon="-1.31354">
        <ele>32</ele>
        <time>2018-03-21T15:57:59.000Z</time>
      </trkpt>
      <trkpt lat="47.50659" lon="-1.31354">
        <ele>32</ele>
        <time>2018-03-21T15:58:00.000Z</time>
      </trkpt>
      <trkpt lat="47.5068" lon="-1.31425">
        <ele>45</ele>
        <time>2018-03-21T16:01:12.000Z</time>
      </trkpt>
      <trkpt lat="47.5068" lon="-1.31425">
        <ele>45</ele>
        <time>2018-03-21T16:01:13.000Z</time>
      </trkpt>
      <trkpt lat="47.50682" lon="-1.31493">
        <ele>49</ele>
        <time>2018-03-21T16:02:34.000Z</time>
      </trkpt>
      <trkpt lat="47.50676" lon="-1.31524">
        <ele>50</ele>
        <time>2018-03-21T16:02:49.000Z</time>
      </trkpt>
      <trkpt lat="47.50676" lon="-1.31524">
        <ele>50</ele>
        <time>2018-03-21T16:02:50.000Z</time>
      </trkpt>
      <trkpt lat="47.5067" lon="-1.3155">
        <ele>51</ele>
        <time>2018-03-21T16:03:04.000Z</time>
      </trkpt>
      <trkpt lat="47.5067" lon="-1.3158">
        <ele>52</ele>
        <time>2018-03-21T16:03:15.000Z</time>
      </trkpt>
      <trkpt lat="47.50665" lon="-1.31608">
        <ele>50</ele>
        <time>2018-03-21T16:03:25.000Z</time>
      </trkpt>
      <trkpt lat="47.50666" lon="-1.31618">
        <ele>50</ele>
        <time>2018-03-21T16:03:29.000Z</time>
      </trkpt>
      <trkpt lat="47.50681" lon="-1.31625">
        <ele>52</ele>
        <time>2018-03-21T16:03:37.000Z</time>
      </trkpt>
      <trkpt lat="47.50702" lon="-1.31632">
        <ele>52</ele>
        <time>2018-03-21T16:03:46.000Z</time>
      </trkpt>
      <trkpt lat="47.50718" lon="-1.31643">
        <ele>52</ele>
        <time>2018-03-21T16:03:56.000Z</time>
      </trkpt>
      <trkpt lat="47.50718" lon="-1.31645">
        <ele>52</ele>
        <time>2018-03-21T16:04:00.000Z</time>
      </trkpt>
      <trkpt lat="47.50724" lon="-1.31646">
        <ele>52</ele>
        <time>2018-03-21T16:06:08.000Z</time>
      </trkpt>
      <trkpt lat="47.50746" lon="-1.31655">
        <ele>53</ele>
        <time>2018-03-21T16:06:18.000Z</time>
      </trkpt>
      <trkpt lat="47.50746" lon="-1.31655">
        <ele>53</ele>
        <time>2018-03-21T16:06:19.000Z</time>
      </trkpt>
      <trkpt lat="47.50768" lon="-1.31662">
        <ele>53</ele>
        <time>2018-03-21T16:06:28.000Z</time>
      </trkpt>
      <trkpt lat="47.50789" lon="-1.31668">
        <ele>53</ele>
        <time>2018-03-21T16:06:35.000Z</time>
      </trkpt>
      <trkpt lat="47.50813" lon="-1.31674">
        <ele>53</ele>
        <time>2018-03-21T16:06:42.000Z</time>
      </trkpt>
      <trkpt lat="47.50836" lon="-1.31679">
        <ele>54</ele>
        <time>2018-03-21T16:06:49.000Z</time>
      </trkpt>
      <trkpt lat="47.50859" lon="-1.31686">
        <ele>54</ele>
        <time>2018-03-21T16:06:56.000Z</time>
      </trkpt>
      <trkpt lat="47.50882" lon="-1.31692">
        <ele>55</ele>
        <time>2018-03-21T16:07:03.000Z</time>
      </trkpt>
      <trkpt lat="47.50898" lon="-1.31696">
        <ele>55</ele>
        <time>2018-03-21T16:07:08.000Z</time>
      </trkpt>
      <trkpt lat="47.50903" lon="-1.31692">
        <ele>55</ele>
        <time>2018-03-21T16:07:10.000Z</time>
      </trkpt>
      <trkpt lat="47.50915" lon="-1.3166">
        <ele>56</ele>
        <time>2018-03-21T16:07:17.000Z</time>
      </trkpt>
      <trkpt lat="47.50938" lon="-1.3165">
        <ele>56</ele>
        <time>2018-03-21T16:07:24.000Z</time>
      </trkpt>
      <trkpt lat="47.50962" lon="-1.31651">
        <ele>55</ele>
        <time>2018-03-21T16:07:30.000Z</time>
      </trkpt>
      <trkpt lat="47.50972" lon="-1.31652">
        <ele>55</ele>
        <time>2018-03-21T16:07:34.000Z</time>
      </trkpt>
      <trkpt lat="47.50979" lon="-1.31669">
        <ele>56</ele>
        <time>2018-03-21T16:07:38.000Z</time>
      </trkpt>
      <trkpt lat="47.50987" lon="-1.31703">
        <ele>56</ele>
        <time>2018-03-21T16:07:44.000Z</time>
      </trkpt>
      <trkpt lat="47.50993" lon="-1.31736">
        <ele>56</ele>
        <time>2018-03-21T16:07:50.000Z</time>
      </trkpt>
      <trkpt lat="47.51" lon="-1.31772">
        <ele>56</ele>
        <time>2018-03-21T16:07:56.000Z</time>
      </trkpt>
      <trkpt lat="47.51006" lon="-1.31806">
        <ele>55</ele>
        <time>2018-03-21T16:08:01.000Z</time>
      </trkpt>
      <trkpt lat="47.51014" lon="-1.31837">
        <ele>56</ele>
        <time>2018-03-21T16:08:06.000Z</time>
      </trkpt>
      <trkpt lat="47.5103" lon="-1.31862">
        <ele>56</ele>
        <time>2018-03-21T16:08:11.000Z</time>
      </trkpt>
      <trkpt lat="47.51028" lon="-1.31897">
        <ele>57</ele>
        <time>2018-03-21T16:08:17.000Z</time>
      </trkpt>
      <trkpt lat="47.51016" lon="-1.31929">
        <ele>58</ele>
        <time>2018-03-21T16:08:23.000Z</time>
      </trkpt>
      <trkpt lat="47.51001" lon="-1.31959">
        <ele>58</ele>
        <time>2018-03-21T16:08:29.000Z</time>
      </trkpt>
      <trkpt lat="47.50994" lon="-1.31991">
        <ele>59</ele>
        <time>2018-03-21T16:08:34.000Z</time>
      </trkpt>
      <trkpt lat="47.50989" lon="-1.32009">
        <ele>59</ele>
        <time>2018-03-21T16:08:37.000Z</time>
      </trkpt>
      <trkpt lat="47.50974" lon="-1.32014">
        <ele>58</ele>
        <time>2018-03-21T16:08:40.000Z</time>
      </trkpt>
      <trkpt lat="47.50943" lon="-1.32013">
        <ele>57</ele>
        <time>2018-03-21T16:08:45.000Z</time>
      </trkpt>
      <trkpt lat="47.50913" lon="-1.32012">
        <ele>54</ele>
        <time>2018-03-21T16:08:49.000Z</time>
      </trkpt>
      <trkpt lat="47.50879" lon="-1.32011">
        <ele>52</ele>
        <time>2018-03-21T16:08:53.000Z</time>
      </trkpt>
      <trkpt lat="47.50851" lon="-1.32009">
        <ele>50</ele>
        <time>2018-03-21T16:08:56.000Z</time>
      </trkpt>
      <trkpt lat="47.50821" lon="-1.32007">
        <ele>47</ele>
        <time>2018-03-21T16:08:59.000Z</time>
      </trkpt>
      <trkpt lat="47.50789" lon="-1.32012">
        <ele>45</ele>
        <time>2018-03-21T16:09:02.000Z</time>
      </trkpt>
      <trkpt lat="47.50762" lon="-1.3204">
        <ele>44</ele>
        <time>2018-03-21T16:09:05.000Z</time>
      </trkpt>
      <trkpt lat="47.50733" lon="-1.32063">
        <ele>41</ele>
        <time>2018-03-21T16:09:08.000Z</time>
      </trkpt>
      <trkpt lat="47.507" lon="-1.32076">
        <ele>40</ele>
        <time>2018-03-21T16:09:11.000Z</time>
      </trkpt>
      <trkpt lat="47.5067" lon="-1.3209">
        <ele>38</ele>
        <time>2018-03-21T16:09:14.000Z</time>
      </trkpt>
      <trkpt lat="47.50645" lon="-1.3212">
        <ele>38</ele>
        <time>2018-03-21T16:09:17.000Z</time>
      </trkpt>
      <trkpt lat="47.50623" lon="-1.32153">
        <ele>38</ele>
        <time>2018-03-21T16:09:20.000Z</time>
      </trkpt>
      <trkpt lat="47.50597" lon="-1.32177">
        <ele>36</ele>
        <time>2018-03-21T16:09:23.000Z</time>
      </trkpt>
      <trkpt lat="47.5057" lon="-1.32196">
        <ele>35</ele>
        <time>2018-03-21T16:09:26.000Z</time>
      </trkpt>
      <trkpt lat="47.50561" lon="-1.322">
        <ele>35</ele>
        <time>2018-03-21T16:09:27.000Z</time>
      </trkpt>
      <trkpt lat="47.50543" lon="-1.32205">
        <ele>34</ele>
        <time>2018-03-21T16:09:29.000Z</time>
      </trkpt>
      <trkpt lat="47.50526" lon="-1.32205">
        <ele>34</ele>
        <time>2018-03-21T16:09:31.000Z</time>
      </trkpt>
      <trkpt lat="47.50509" lon="-1.32196">
        <ele>33</ele>
        <time>2018-03-21T16:09:33.000Z</time>
      </trkpt>
      <trkpt lat="47.50479" lon="-1.32174">
        <ele>30</ele>
        <time>2018-03-21T16:09:37.000Z</time>
      </trkpt>
      <trkpt lat="47.5045" lon="-1.32152">
        <ele>29</ele>
        <time>2018-03-21T16:09:41.000Z</time>
      </trkpt>
      <trkpt lat="47.50423" lon="-1.32132">
        <ele>28</ele>
        <time>2018-03-21T16:09:45.000Z</time>
      </trkpt>
      <trkpt lat="47.50393" lon="-1.32112">
        <ele>24</ele>
        <time>2018-03-21T16:09:49.000Z</time>
      </trkpt>
      <trkpt lat="47.50363" lon="-1.32091">
        <ele>24</ele>
        <time>2018-03-21T16:09:53.000Z</time>
      </trkpt>
      <trkpt lat="47.50333" lon="-1.3207">
        <ele>23</ele>
        <time>2018-03-21T16:09:57.000Z</time>
      </trkpt>
      <trkpt lat="47.50306" lon="-1.32052">
        <ele>21</ele>
        <time>2018-03-21T16:10:01.000Z</time>
      </trkpt>
      <trkpt lat="47.5028" lon="-1.32032">
        <ele>21</ele>
        <time>2018-03-21T16:10:05.000Z</time>
      </trkpt>
      <trkpt lat="47.50266" lon="-1.32002">
        <ele>21</ele>
        <time>2018-03-21T16:10:09.000Z</time>
      </trkpt>
      <trkpt lat="47.50262" lon="-1.31976">
        <ele>21</ele>
        <time>2018-03-21T16:10:15.000Z</time>
      </trkpt>
      <trkpt lat="47.50244" lon="-1.31969">
        <ele>25</ele>
        <time>2018-03-21T16:10:22.000Z</time>
      </trkpt>
      <trkpt lat="47.50226" lon="-1.31964">
        <ele>27</ele>
        <time>2018-03-21T16:10:31.000Z</time>
      </trkpt>
      <trkpt lat="47.5021" lon="-1.31953">
        <ele>28</ele>
        <time>2018-03-21T16:10:43.000Z</time>
      </trkpt>
      <trkpt lat="47.50201" lon="-1.31928">
        <ele>29</ele>
        <time>2018-03-21T16:10:52.000Z</time>
      </trkpt>
      <trkpt lat="47.50205" lon="-1.319">
        <ele>30</ele>
        <time>2018-03-21T16:11:01.000Z</time>
      </trkpt>
      <trkpt lat="47.50211" lon="-1.31865">
        <ele>30</ele>
        <time>2018-03-21T16:11:07.000Z</time>
      </trkpt>
      <trkpt lat="47.50217" lon="-1.31831">
        <ele>32</ele>
        <time>2018-03-21T16:11:12.000Z</time>
      </trkpt>
      <trkpt lat="47.50222" lon="-1.31795">
        <ele>33</ele>
        <time>2018-03-21T16:11:19.000Z</time>
      </trkpt>
      <trkpt lat="47.50226" lon="-1.31761">
        <ele>32</ele>
        <time>2018-03-21T16:11:26.000Z</time>
      </trkpt>
      <trkpt lat="47.50235" lon="-1.31731">
        <ele>33</ele>
        <time>2018-03-21T16:11:32.000Z</time>
      </trkpt>
      <trkpt lat="47.50242" lon="-1.317">
        <ele>33</ele>
        <time>2018-03-21T16:11:39.000Z</time>
      </trkpt>
      <trkpt lat="47.50247" lon="-1.31671">
        <ele>31</ele>
        <time>2018-03-21T16:11:48.000Z</time>
      </trkpt>
      <trkpt lat="47.50252" lon="-1.31644">
        <ele>28</ele>
        <time>2018-03-21T16:11:58.000Z</time>
      </trkpt>
      <trkpt lat="47.50252" lon="-1.31644">
        <ele>28</ele>
        <time>2018-03-21T16:11:59.000Z</time>
      </trkpt>
      <trkpt lat="47.50244" lon="-1.31596">
        <ele>32</ele>
        <time>2018-03-21T16:13:15.000Z</time>
      </trkpt>
      <trkpt lat="47.50249" lon="-1.31569">
        <ele>32</ele>
        <time>2018-03-21T16:13:25.000Z</time>
      </trkpt>
      <trkpt lat="47.50255" lon="-1.31536">
        <ele>28</ele>
        <time>2018-03-21T16:13:34.000Z</time>
      </trkpt>
      <trkpt lat="47.50257" lon="-1.31507">
        <ele>29</ele>
        <time>2018-03-21T16:13:40.000Z</time>
      </trkpt>
      <trkpt lat="47.50257" lon="-1.31507">
        <ele>29</ele>
        <time>2018-03-21T16:13:41.000Z</time>
      </trkpt>
      <trkpt lat="47.50247" lon="-1.31499">
        <ele>30</ele>
        <time>2018-03-21T16:14:00.000Z</time>
      </trkpt>
      <trkpt lat="47.50226" lon="-1.31501">
        <ele>32</ele>
        <time>2018-03-21T16:14:08.000Z</time>
      </trkpt>
      <trkpt lat="47.50206" lon="-1.3151">
        <ele>33</ele>
        <time>2018-03-21T16:14:16.000Z</time>
      </trkpt>
      <trkpt lat="47.50185" lon="-1.31519">
        <ele>33</ele>
        <time>2018-03-21T16:14:24.000Z</time>
      </trkpt>
      <trkpt lat="47.50164" lon="-1.31522">
        <ele>36</ele>
        <time>2018-03-21T16:14:32.000Z</time>
      </trkpt>
      <trkpt lat="47.50162" lon="-1.31489">
        <ele>36</ele>
        <time>2018-03-21T16:14:41.000Z</time>
      </trkpt>
      <trkpt lat="47.50166" lon="-1.3146">
        <ele>37</ele>
        <time>2018-03-21T16:14:48.000Z</time>
      </trkpt>
      <trkpt lat="47.50168" lon="-1.31427">
        <ele>35</ele>
        <time>2018-03-21T16:14:56.000Z</time>
      </trkpt>
      <trkpt lat="47.5017" lon="-1.31396">
        <ele>37</ele>
        <time>2018-03-21T16:15:04.000Z</time>
      </trkpt>
      <trkpt lat="47.50168" lon="-1.31366">
        <ele>38</ele>
        <time>2018-03-21T16:15:13.000Z</time>
      </trkpt>
      <trkpt lat="47.50168" lon="-1.31364">
        <ele>38</ele>
        <time>2018-03-21T16:15:17.000Z</time>
      </trkpt>
      <trkpt lat="47.5017" lon="-1.31339">
        <ele>39</ele>
        <time>2018-03-21T16:15:36.000Z</time>
      </trkpt>
      <trkpt lat="47.50175" lon="-1.31302">
        <ele>40</ele>
        <time>2018-03-21T16:15:45.000Z</time>
      </trkpt>
      <trkpt lat="47.50175" lon="-1.31302">
        <ele>40</ele>
        <time>2018-03-21T16:15:46.000Z</time>
      </trkpt>
      <trkpt lat="47.50184" lon="-1.3127">
        <ele>40</ele>
        <time>2018-03-21T16:15:54.000Z</time>
      </trkpt>
      <trkpt lat="47.50195" lon="-1.31238">
        <ele>40</ele>
        <time>2018-03-21T16:16:01.000Z</time>
      </trkpt>
      <trkpt lat="47.50204" lon="-1.31204">
        <ele>40</ele>
        <time>2018-03-21T16:16:08.000Z</time>
      </trkpt>
      <trkpt lat="47.50213" lon="-1.31171">
        <ele>41</ele>
        <time>2018-03-21T16:16:15.000Z</time>
      </trkpt>
      <trkpt lat="47.50223" lon="-1.31139">
        <ele>39</ele>
        <time>2018-03-21T16:16:22.000Z</time>
      </trkpt>
      <trkpt lat="47.50231" lon="-1.31106">
        <ele>39</ele>
        <time>2018-03-21T16:16:29.000Z</time>
      </trkpt>
      <trkpt lat="47.50209" lon="-1.31088">
        <ele>38</ele>
        <time>2018-03-21T16:16:36.000Z</time>
      </trkpt>
      <trkpt lat="47.50186" lon="-1.31079">
        <ele>36</ele>
        <time>2018-03-21T16:16:41.000Z</time>
      </trkpt>
      <trkpt lat="47.50173" lon="-1.31072">
        <ele>36</ele>
        <time>2018-03-21T16:16:45.000Z</time>
      </trkpt>
      <trkpt lat="47.50171" lon="-1.31057">
        <ele>36</ele>
        <time>2018-03-21T16:16:49.000Z</time>
      </trkpt>
      <trkpt lat="47.50175" lon="-1.31025">
        <ele>36</ele>
        <time>2018-03-21T16:16:57.000Z</time>
      </trkpt>
      <trkpt lat="47.5018" lon="-1.30994">
        <ele>35</ele>
        <time>2018-03-21T16:17:04.000Z</time>
      </trkpt>
      <trkpt lat="47.50186" lon="-1.30959">
        <ele>35</ele>
        <time>2018-03-21T16:17:11.000Z</time>
      </trkpt>
      <trkpt lat="47.50192" lon="-1.30926">
        <ele>34</ele>
        <time>2018-03-21T16:17:17.000Z</time>
      </trkpt>
      <trkpt lat="47.50199" lon="-1.30891">
        <ele>33</ele>
        <time>2018-03-21T16:17:23.000Z</time>
      </trkpt>
      <trkpt lat="47.50205" lon="-1.30859">
        <ele>32</ele>
        <time>2018-03-21T16:17:29.000Z</time>
      </trkpt>
      <trkpt lat="47.50209" lon="-1.30829">
        <ele>31</ele>
        <time>2018-03-21T16:17:35.000Z</time>
      </trkpt>
      <trkpt lat="47.50211" lon="-1.30798">
        <ele>31</ele>
        <time>2018-03-21T16:17:42.000Z</time>
      </trkpt>
      <trkpt lat="47.50211" lon="-1.30783">
        <ele>31</ele>
        <time>2018-03-21T16:17:51.000Z</time>
      </trkpt>
      <trkpt lat="47.50201" lon="-1.3077">
        <ele>31</ele>
        <time>2018-03-21T16:17:55.000Z</time>
      </trkpt>
      <trkpt lat="47.50187" lon="-1.30748">
        <ele>32</ele>
        <time>2018-03-21T16:18:01.000Z</time>
      </trkpt>
      <trkpt lat="47.50184" lon="-1.30732">
        <ele>32</ele>
        <time>2018-03-21T16:18:05.000Z</time>
      </trkpt>
      <trkpt lat="47.50198" lon="-1.30723">
        <ele>32</ele>
        <time>2018-03-21T16:18:12.000Z</time>
      </trkpt>
      <trkpt lat="47.50216" lon="-1.30717">
        <ele>33</ele>
        <time>2018-03-21T16:18:21.000Z</time>
      </trkpt>
      <trkpt lat="47.50233" lon="-1.30704">
        <ele>33</ele>
        <time>2018-03-21T16:18:30.000Z</time>
      </trkpt>
      <trkpt lat="47.50249" lon="-1.30686">
        <ele>34</ele>
        <time>2018-03-21T16:18:37.000Z</time>
      </trkpt>
      <trkpt lat="47.50261" lon="-1.30663">
        <ele>35</ele>
        <time>2018-03-21T16:18:44.000Z</time>
      </trkpt>
      <trkpt lat="47.50275" lon="-1.3064">
        <ele>35</ele>
        <time>2018-03-21T16:18:51.000Z</time>
      </trkpt>
      <trkpt lat="47.50291" lon="-1.30619">
        <ele>35</ele>
        <time>2018-03-21T16:18:59.000Z</time>
      </trkpt>
      <trkpt lat="47.50308" lon="-1.306">
        <ele>35</ele>
        <time>2018-03-21T16:19:05.000Z</time>
      </trkpt>
      <trkpt lat="47.50323" lon="-1.30578">
        <ele>38</ele>
        <time>2018-03-21T16:19:12.000Z</time>
      </trkpt>
      <trkpt lat="47.50335" lon="-1.3055">
        <ele>40</ele>
        <time>2018-03-21T16:19:20.000Z</time>
      </trkpt>
      <trkpt lat="47.50348" lon="-1.30523">
        <ele>41</ele>
        <time>2018-03-21T16:19:28.000Z</time>
      </trkpt>
      <trkpt lat="47.50366" lon="-1.30506">
        <ele>41</ele>
        <time>2018-03-21T16:19:36.000Z</time>
      </trkpt>
      <trkpt lat="47.50383" lon="-1.30503">
        <ele>42</ele>
        <time>2018-03-21T16:19:44.000Z</time>
      </trkpt>
      <trkpt lat="47.50398" lon="-1.30501">
        <ele>43</ele>
        <time>2018-03-21T16:19:52.000Z</time>
      </trkpt>
      <trkpt lat="47.50414" lon="-1.30493">
        <ele>46</ele>
        <time>2018-03-21T16:20:02.000Z</time>
      </trkpt>
      <trkpt lat="47.5043" lon="-1.30486">
        <ele>49</ele>
        <time>2018-03-21T16:20:09.000Z</time>
      </trkpt>
      <trkpt lat="47.50447" lon="-1.30478">
        <ele>50</ele>
        <time>2018-03-21T16:20:16.000Z</time>
      </trkpt>
      <trkpt lat="47.50463" lon="-1.30469">
        <ele>51</ele>
        <time>2018-03-21T16:20:24.000Z</time>
      </trkpt>
      <trkpt lat="47.5048" lon="-1.30458">
        <ele>51</ele>
        <time>2018-03-21T16:20:32.000Z</time>
      </trkpt>
      <trkpt lat="47.50497" lon="-1.30449">
        <ele>52</ele>
        <time>2018-03-21T16:20:39.000Z</time>
      </trkpt>
      <trkpt lat="47.50514" lon="-1.30439">
        <ele>52</ele>
        <time>2018-03-21T16:20:45.000Z</time>
      </trkpt>
      <trkpt lat="47.50533" lon="-1.30427">
        <ele>51</ele>
        <time>2018-03-21T16:20:51.000Z</time>
      </trkpt>
      <trkpt lat="47.50554" lon="-1.30407">
        <ele>51</ele>
        <time>2018-03-21T16:20:56.000Z</time>
      </trkpt>
      <trkpt lat="47.50573" lon="-1.30383">
        <ele>51</ele>
        <time>2018-03-21T16:21:01.000Z</time>
      </trkpt>
      <trkpt lat="47.50589" lon="-1.30359">
        <ele>45</ele>
        <time>2018-03-21T16:21:06.000Z</time>
      </trkpt>
      <trkpt lat="47.50604" lon="-1.30332">
        <ele>47</ele>
        <time>2018-03-21T16:21:12.000Z</time>
      </trkpt>
      <trkpt lat="47.50618" lon="-1.30301">
        <ele>46</ele>
        <time>2018-03-21T16:21:19.000Z</time>
      </trkpt>
      <trkpt lat="47.50633" lon="-1.3027">
        <ele>46</ele>
        <time>2018-03-21T16:21:24.000Z</time>
      </trkpt>
      <trkpt lat="47.50646" lon="-1.30238">
        <ele>47</ele>
        <time>2018-03-21T16:21:28.000Z</time>
      </trkpt>
      <trkpt lat="47.5066" lon="-1.30206">
        <ele>47</ele>
        <time>2018-03-21T16:21:32.000Z</time>
      </trkpt>
      <trkpt lat="47.50675" lon="-1.30174">
        <ele>42</ele>
        <time>2018-03-21T16:21:36.000Z</time>
      </trkpt>
      <trkpt lat="47.50692" lon="-1.30142">
        <ele>40</ele>
        <time>2018-03-21T16:21:40.000Z</time>
      </trkpt>
      <trkpt lat="47.50715" lon="-1.30115">
        <ele>39</ele>
        <time>2018-03-21T16:21:44.000Z</time>
      </trkpt>
      <trkpt lat="47.50736" lon="-1.30092">
        <ele>38</ele>
        <time>2018-03-21T16:21:48.000Z</time>
      </trkpt>
      <trkpt lat="47.50753" lon="-1.30068">
        <ele>36</ele>
        <time>2018-03-21T16:21:52.000Z</time>
      </trkpt>
      <trkpt lat="47.50757" lon="-1.30032">
        <ele>37</ele>
        <time>2018-03-21T16:21:57.000Z</time>
      </trkpt>
      <trkpt lat="47.50754" lon="-1.29995">
        <ele>39</ele>
        <time>2018-03-21T16:22:02.000Z</time>
      </trkpt>
      <trkpt lat="47.50745" lon="-1.29964">
        <ele>42</ele>
        <time>2018-03-21T16:22:08.000Z</time>
      </trkpt>
      <trkpt lat="47.50732" lon="-1.29941">
        <ele>43</ele>
        <time>2018-03-21T16:22:14.000Z</time>
      </trkpt>
      <trkpt lat="47.50715" lon="-1.29916">
        <ele>45</ele>
        <time>2018-03-21T16:22:20.000Z</time>
      </trkpt>
      <trkpt lat="47.507" lon="-1.29889">
        <ele>46</ele>
        <time>2018-03-21T16:22:26.000Z</time>
      </trkpt>
      <trkpt lat="47.50689" lon="-1.29857">
        <ele>48</ele>
        <time>2018-03-21T16:22:33.000Z</time>
      </trkpt>
      <trkpt lat="47.50684" lon="-1.29824">
        <ele>50</ele>
        <time>2018-03-21T16:22:39.000Z</time>
      </trkpt>
      <trkpt lat="47.5068" lon="-1.29792">
        <ele>50</ele>
        <time>2018-03-21T16:22:45.000Z</time>
      </trkpt>
      <trkpt lat="47.50674" lon="-1.29759">
        <ele>52</ele>
        <time>2018-03-21T16:22:52.000Z</time>
      </trkpt>
      <trkpt lat="47.50663" lon="-1.29732">
        <ele>57</ele>
        <time>2018-03-21T16:23:00.000Z</time>
      </trkpt>
      <trkpt lat="47.50648" lon="-1.29708">
        <ele>59</ele>
        <time>2018-03-21T16:23:08.000Z</time>
      </trkpt>
      <trkpt lat="47.50634" lon="-1.29687">
        <ele>60</ele>
        <time>2018-03-21T16:23:16.000Z</time>
      </trkpt>
      <trkpt lat="47.50618" lon="-1.29664">
        <ele>63</ele>
        <time>2018-03-21T16:23:25.000Z</time>
      </trkpt>
      <trkpt lat="47.50604" lon="-1.2964">
        <ele>63</ele>
        <time>2018-03-21T16:23:34.000Z</time>
      </trkpt>
      <trkpt lat="47.5059" lon="-1.29615">
        <ele>64</ele>
        <time>2018-03-21T16:23:43.000Z</time>
      </trkpt>
      <trkpt lat="47.50577" lon="-1.29593">
        <ele>66</ele>
        <time>2018-03-21T16:23:51.000Z</time>
      </trkpt>
      <trkpt lat="47.50563" lon="-1.29568">
        <ele>67</ele>
        <time>2018-03-21T16:23:59.000Z</time>
      </trkpt>
      <trkpt lat="47.50548" lon="-1.29544">
        <ele>67</ele>
        <time>2018-03-21T16:24:07.000Z</time>
      </trkpt>
      <trkpt lat="47.50539" lon="-1.29529">
        <ele>67</ele>
        <time>2018-03-21T16:24:12.000Z</time>
      </trkpt>
      <trkpt lat="47.50531" lon="-1.29521">
        <ele>67</ele>
        <time>2018-03-21T16:24:15.000Z</time>
      </trkpt>
      <trkpt lat="47.50512" lon="-1.29507">
        <ele>68</ele>
        <time>2018-03-21T16:24:22.000Z</time>
      </trkpt>
      <trkpt lat="47.50497" lon="-1.29495">
        <ele>68</ele>
        <time>2018-03-21T16:24:27.000Z</time>
      </trkpt>
      <trkpt lat="47.50492" lon="-1.29489">
        <ele>68</ele>
        <time>2018-03-21T16:24:29.000Z</time>
      </trkpt>
      <trkpt lat="47.5048" lon="-1.2946">
        <ele>68</ele>
        <time>2018-03-21T16:24:36.000Z</time>
      </trkpt>
      <trkpt lat="47.50478" lon="-1.29425">
        <ele>68</ele>
        <time>2018-03-21T16:24:43.000Z</time>
      </trkpt>
      <trkpt lat="47.50477" lon="-1.29391">
        <ele>68</ele>
        <time>2018-03-21T16:24:50.000Z</time>
      </trkpt>
      <trkpt lat="47.50478" lon="-1.29359">
        <ele>68</ele>
        <time>2018-03-21T16:24:56.000Z</time>
      </trkpt>
      <trkpt lat="47.50482" lon="-1.29343">
        <ele>68</ele>
        <time>2018-03-21T16:24:59.000Z</time>
      </trkpt>
      <trkpt lat="47.50493" lon="-1.29335">
        <ele>68</ele>
        <time>2018-03-21T16:25:02.000Z</time>
      </trkpt>
      <trkpt lat="47.50517" lon="-1.29326">
        <ele>67</ele>
        <time>2018-03-21T16:25:07.000Z</time>
      </trkpt>
      <trkpt lat="47.50545" lon="-1.29315">
        <ele>66</ele>
        <time>2018-03-21T16:25:12.000Z</time>
      </trkpt>
      <trkpt lat="47.50571" lon="-1.29301">
        <ele>65</ele>
        <time>2018-03-21T16:25:16.000Z</time>
      </trkpt>
      <trkpt lat="47.50602" lon="-1.29299">
        <ele>62</ele>
        <time>2018-03-21T16:25:20.000Z</time>
      </trkpt>
      <trkpt lat="47.50635" lon="-1.29299">
        <ele>61</ele>
        <time>2018-03-21T16:25:24.000Z</time>
      </trkpt>
      <trkpt lat="47.50662" lon="-1.29294">
        <ele>60</ele>
        <time>2018-03-21T16:25:27.000Z</time>
      </trkpt>
      <trkpt lat="47.50697" lon="-1.29289">
        <ele>55</ele>
        <time>2018-03-21T16:25:31.000Z</time>
      </trkpt>
      <trkpt lat="47.50732" lon="-1.29284">
        <ele>54</ele>
        <time>2018-03-21T16:25:35.000Z</time>
      </trkpt>
      <trkpt lat="47.5076" lon="-1.29274">
        <ele>49</ele>
        <time>2018-03-21T16:25:38.000Z</time>
      </trkpt>
      <trkpt lat="47.50787" lon="-1.29254">
        <ele>48</ele>
        <time>2018-03-21T16:25:41.000Z</time>
      </trkpt>
      <trkpt lat="47.50813" lon="-1.29226">
        <ele>44</ele>
        <time>2018-03-21T16:25:44.000Z</time>
      </trkpt>
      <trkpt lat="47.50838" lon="-1.292">
        <ele>39</ele>
        <time>2018-03-21T16:25:47.000Z</time>
      </trkpt>
      <trkpt lat="47.50863" lon="-1.29174">
        <ele>38</ele>
        <time>2018-03-21T16:25:50.000Z</time>
      </trkpt>
      <trkpt lat="47.50889" lon="-1.29145">
        <ele>36</ele>
        <time>2018-03-21T16:25:53.000Z</time>
      </trkpt>
      <trkpt lat="47.50913" lon="-1.29118">
        <ele>35</ele>
        <time>2018-03-21T16:25:56.000Z</time>
      </trkpt>
      <trkpt lat="47.50935" lon="-1.29093">
        <ele>33</ele>
        <time>2018-03-21T16:25:59.000Z</time>
      </trkpt>
      <trkpt lat="47.50957" lon="-1.2907">
        <ele>32</ele>
        <time>2018-03-21T16:26:02.000Z</time>
      </trkpt>
      <trkpt lat="47.50983" lon="-1.29048">
        <ele>31</ele>
        <time>2018-03-21T16:26:06.000Z</time>
      </trkpt>
      <trkpt lat="47.51007" lon="-1.29031">
        <ele>28</ele>
        <time>2018-03-21T16:26:10.000Z</time>
      </trkpt>
      <trkpt lat="47.51026" lon="-1.29013">
        <ele>28</ele>
        <time>2018-03-21T16:26:18.000Z</time>
      </trkpt>
      <trkpt lat="47.51045" lon="-1.28994">
        <ele>27</ele>
        <time>2018-03-21T16:26:25.000Z</time>
      </trkpt>
      <trkpt lat="47.51063" lon="-1.28971">
        <ele>27</ele>
        <time>2018-03-21T16:26:32.000Z</time>
      </trkpt>
      <trkpt lat="47.51081" lon="-1.2895">
        <ele>26</ele>
        <time>2018-03-21T16:26:39.000Z</time>
      </trkpt>
      <trkpt lat="47.51092" lon="-1.28944">
        <ele>25</ele>
        <time>2018-03-21T16:26:43.000Z</time>
      </trkpt>
      <trkpt lat="47.51102" lon="-1.28962">
        <ele>25</ele>
        <time>2018-03-21T16:26:48.000Z</time>
      </trkpt>
      <trkpt lat="47.51107" lon="-1.28971">
        <ele>25</ele>
        <time>2018-03-21T16:26:50.000Z</time>
      </trkpt>
      <trkpt lat="47.51121" lon="-1.28985">
        <ele>24</ele>
        <time>2018-03-21T16:26:54.000Z</time>
      </trkpt>
      <trkpt lat="47.51141" lon="-1.29008">
        <ele>24</ele>
        <time>2018-03-21T16:27:00.000Z</time>
      </trkpt>
      <trkpt lat="47.51139" lon="-1.28975">
        <ele>24</ele>
        <time>2018-03-21T16:27:10.000Z</time>
      </trkpt>
      <trkpt lat="47.5114" lon="-1.28944">
        <ele>24</ele>
        <time>2018-03-21T16:27:17.000Z</time>
      </trkpt>
      <trkpt lat="47.51139" lon="-1.28912">
        <ele>24</ele>
        <time>2018-03-21T16:27:25.000Z</time>
      </trkpt>
      <trkpt lat="47.51151" lon="-1.28882">
        <ele>24</ele>
        <time>2018-03-21T16:27:31.000Z</time>
      </trkpt>
      <trkpt lat="47.51164" lon="-1.28849">
        <ele>24</ele>
        <time>2018-03-21T16:27:37.000Z</time>
      </trkpt>
      <trkpt lat="47.51161" lon="-1.28815">
        <ele>24</ele>
        <time>2018-03-21T16:27:43.000Z</time>
      </trkpt>
      <trkpt lat="47.51155" lon="-1.28783">
        <ele>24</ele>
        <time>2018-03-21T16:27:49.000Z</time>
      </trkpt>
      <trkpt lat="47.5117" lon="-1.28761">
        <ele>23</ele>
        <time>2018-03-21T16:27:57.000Z</time>
      </trkpt>
      <trkpt lat="47.51187" lon="-1.28742">
        <ele>23</ele>
        <time>2018-03-21T16:28:06.000Z</time>
      </trkpt>
      <trkpt lat="47.51197" lon="-1.28717">
        <ele>22</ele>
        <time>2018-03-21T16:28:15.000Z</time>
      </trkpt>
      <trkpt lat="47.51196" lon="-1.28684">
        <ele>22</ele>
        <time>2018-03-21T16:28:22.000Z</time>
      </trkpt>
      <trkpt lat="47.51189" lon="-1.28653">
        <ele>23</ele>
        <time>2018-03-21T16:28:29.000Z</time>
      </trkpt>
      <trkpt lat="47.5118" lon="-1.28624">
        <ele>23</ele>
        <time>2018-03-21T16:28:36.000Z</time>
      </trkpt>
      <trkpt lat="47.51168" lon="-1.28599">
        <ele>23</ele>
        <time>2018-03-21T16:28:43.000Z</time>
      </trkpt>
      <trkpt lat="47.51153" lon="-1.28575">
        <ele>24</ele>
        <time>2018-03-21T16:28:50.000Z</time>
      </trkpt>
      <trkpt lat="47.51151" lon="-1.28572">
        <ele>24</ele>
        <time>2018-03-21T16:28:51.000Z</time>
      </trkpt>
      <trkpt lat="47.51149" lon="-1.28569">
        <ele>24</ele>
        <time>2018-03-21T16:28:52.000Z</time>
      </trkpt>
      <trkpt lat="47.51146" lon="-1.28566">
        <ele>24</ele>
        <time>2018-03-21T16:28:53.000Z</time>
      </trkpt>
      <trkpt lat="47.51144" lon="-1.28563">
        <ele>25</ele>
        <time>2018-03-21T16:28:54.000Z</time>
      </trkpt>
      <trkpt lat="47.51144" lon="-1.28557">
        <ele>25</ele>
        <time>2018-03-21T16:28:56.000Z</time>
      </trkpt>
      <trkpt lat="47.51149" lon="-1.28555">
        <ele>25</ele>
        <time>2018-03-21T16:28:58.000Z</time>
      </trkpt>
      <trkpt lat="47.51151" lon="-1.28556">
        <ele>25</ele>
        <time>2018-03-21T16:28:59.000Z</time>
      </trkpt>
      <trkpt lat="47.51154" lon="-1.28557">
        <ele>25</ele>
        <time>2018-03-21T16:29:00.000Z</time>
      </trkpt>
      <trkpt lat="47.51158" lon="-1.28559">
        <ele>24</ele>
        <time>2018-03-21T16:29:01.000Z</time>
      </trkpt>
      <trkpt lat="47.51161" lon="-1.28562">
        <ele>24</ele>
        <time>2018-03-21T16:29:02.000Z</time>
      </trkpt>
      <trkpt lat="47.51164" lon="-1.28564">
        <ele>24</ele>
        <time>2018-03-21T16:29:03.000Z</time>
      </trkpt>
      <trkpt lat="47.51168" lon="-1.28567">
        <ele>23</ele>
        <time>2018-03-21T16:29:04.000Z</time>
      </trkpt>
      <trkpt lat="47.51194" lon="-1.28593">
        <ele>23</ele>
        <time>2018-03-21T16:29:12.000Z</time>
      </trkpt>
      <trkpt lat="47.51214" lon="-1.28615">
        <ele>22</ele>
        <time>2018-03-21T16:29:18.000Z</time>
      </trkpt>
      <trkpt lat="47.51231" lon="-1.28635">
        <ele>22</ele>
        <time>2018-03-21T16:29:24.000Z</time>
      </trkpt>
      <trkpt lat="47.5125" lon="-1.28661">
        <ele>22</ele>
        <time>2018-03-21T16:29:31.000Z</time>
      </trkpt>
      <trkpt lat="47.51268" lon="-1.28682">
        <ele>22</ele>
        <time>2018-03-21T16:29:36.000Z</time>
      </trkpt>
      <trkpt lat="47.51287" lon="-1.287">
        <ele>22</ele>
        <time>2018-03-21T16:29:41.000Z</time>
      </trkpt>
      <trkpt lat="47.51308" lon="-1.28706">
        <ele>23</ele>
        <time>2018-03-21T16:29:47.000Z</time>
      </trkpt>
      <trkpt lat="47.51334" lon="-1.2871">
        <ele>24</ele>
        <time>2018-03-21T16:29:53.000Z</time>
      </trkpt>
      <trkpt lat="47.51349" lon="-1.28718">
        <ele>24</ele>
        <time>2018-03-21T16:29:57.000Z</time>
      </trkpt>
      <trkpt lat="47.51348" lon="-1.2873">
        <ele>23</ele>
        <time>2018-03-21T16:30:00.000Z</time>
      </trkpt>
      <trkpt lat="47.51339" lon="-1.2876">
        <ele>23</ele>
        <time>2018-03-21T16:30:05.000Z</time>
      </trkpt>
      <trkpt lat="47.51332" lon="-1.28791">
        <ele>22</ele>
        <time>2018-03-21T16:30:10.000Z</time>
      </trkpt>
      <trkpt lat="47.51329" lon="-1.28824">
        <ele>23</ele>
        <time>2018-03-21T16:30:17.000Z</time>
      </trkpt>
      <trkpt lat="47.51319" lon="-1.28857">
        <ele>22</ele>
        <time>2018-03-21T16:30:24.000Z</time>
      </trkpt>
      <trkpt lat="47.5131" lon="-1.28888">
        <ele>22</ele>
        <time>2018-03-21T16:30:30.000Z</time>
      </trkpt>
      <trkpt lat="47.513" lon="-1.28919">
        <ele>22</ele>
        <time>2018-03-21T16:30:37.000Z</time>
      </trkpt>
      <trkpt lat="47.51294" lon="-1.28953">
        <ele>22</ele>
        <time>2018-03-21T16:30:44.000Z</time>
      </trkpt>
      <trkpt lat="47.51294" lon="-1.28969">
        <ele>23</ele>
        <time>2018-03-21T16:30:47.000Z</time>
      </trkpt>
      <trkpt lat="47.51302" lon="-1.28982">
        <ele>23</ele>
        <time>2018-03-21T16:30:51.000Z</time>
      </trkpt>
      <trkpt lat="47.5132" lon="-1.28998">
        <ele>23</ele>
        <time>2018-03-21T16:30:59.000Z</time>
      </trkpt>
      <trkpt lat="47.51338" lon="-1.29014">
        <ele>24</ele>
        <time>2018-03-21T16:31:06.000Z</time>
      </trkpt>
      <trkpt lat="47.51356" lon="-1.29029">
        <ele>25</ele>
        <time>2018-03-21T16:31:13.000Z</time>
      </trkpt>
      <trkpt lat="47.51376" lon="-1.29038">
        <ele>25</ele>
        <time>2018-03-21T16:31:22.000Z</time>
      </trkpt>
      <trkpt lat="47.51397" lon="-1.29049">
        <ele>26</ele>
        <time>2018-03-21T16:31:31.000Z</time>
      </trkpt>
      <trkpt lat="47.51416" lon="-1.2905">
        <ele>26</ele>
        <time>2018-03-21T16:31:39.000Z</time>
      </trkpt>
      <trkpt lat="47.51437" lon="-1.29038">
        <ele>27</ele>
        <time>2018-03-21T16:31:47.000Z</time>
      </trkpt>
      <trkpt lat="47.51458" lon="-1.29022">
        <ele>27</ele>
        <time>2018-03-21T16:31:54.000Z</time>
      </trkpt>
      <trkpt lat="47.51478" lon="-1.2901">
        <ele>27</ele>
        <time>2018-03-21T16:32:00.000Z</time>
      </trkpt>
      <trkpt lat="47.51499" lon="-1.28995">
        <ele>27</ele>
        <time>2018-03-21T16:32:06.000Z</time>
      </trkpt>
      <trkpt lat="47.51519" lon="-1.28983">
        <ele>28</ele>
        <time>2018-03-21T16:32:12.000Z</time>
      </trkpt>
      <trkpt lat="47.51538" lon="-1.2897">
        <ele>28</ele>
        <time>2018-03-21T16:32:18.000Z</time>
      </trkpt>
      <trkpt lat="47.51558" lon="-1.28958">
        <ele>28</ele>
        <time>2018-03-21T16:32:24.000Z</time>
      </trkpt>
      <trkpt lat="47.51579" lon="-1.28945">
        <ele>28</ele>
        <time>2018-03-21T16:32:30.000Z</time>
      </trkpt>
      <trkpt lat="47.51602" lon="-1.28933">
        <ele>30</ele>
        <time>2018-03-21T16:32:37.000Z</time>
      </trkpt>
      <trkpt lat="47.51614" lon="-1.28926">
        <ele>30</ele>
        <time>2018-03-21T16:32:41.000Z</time>
      </trkpt>
      <trkpt lat="47.51621" lon="-1.28915">
        <ele>30</ele>
        <time>2018-03-21T16:32:44.000Z</time>
      </trkpt>
      <trkpt lat="47.51638" lon="-1.28896">
        <ele>31</ele>
        <time>2018-03-21T16:32:50.000Z</time>
      </trkpt>
      <trkpt lat="47.5166" lon="-1.28893">
        <ele>31</ele>
        <time>2018-03-21T16:32:54.000Z</time>
      </trkpt>
      <trkpt lat="47.51682" lon="-1.28893">
        <ele>32</ele>
        <time>2018-03-21T16:32:59.000Z</time>
      </trkpt>
      <trkpt lat="47.51707" lon="-1.28888">
        <ele>32</ele>
        <time>2018-03-21T16:33:05.000Z</time>
      </trkpt>
      <trkpt lat="47.51729" lon="-1.28889">
        <ele>31</ele>
        <time>2018-03-21T16:33:11.000Z</time>
      </trkpt>
      <trkpt lat="47.5175" lon="-1.28893">
        <ele>31</ele>
        <time>2018-03-21T16:33:18.000Z</time>
      </trkpt>
      <trkpt lat="47.51771" lon="-1.28898">
        <ele>30</ele>
        <time>2018-03-21T16:33:25.000Z</time>
      </trkpt>
      <trkpt lat="47.51783" lon="-1.28923">
        <ele>31</ele>
        <time>2018-03-21T16:33:33.000Z</time>
      </trkpt>
      <trkpt lat="47.51799" lon="-1.28947">
        <ele>31</ele>
        <time>2018-03-21T16:33:40.000Z</time>
      </trkpt>
      <trkpt lat="47.51819" lon="-1.28954">
        <ele>31</ele>
        <time>2018-03-21T16:33:47.000Z</time>
      </trkpt>
      <trkpt lat="47.51838" lon="-1.28967">
        <ele>31</ele>
        <time>2018-03-21T16:33:54.000Z</time>
      </trkpt>
      <trkpt lat="47.51857" lon="-1.28981">
        <ele>31</ele>
        <time>2018-03-21T16:34:02.000Z</time>
      </trkpt>
      <trkpt lat="47.51878" lon="-1.28992">
        <ele>31</ele>
        <time>2018-03-21T16:34:09.000Z</time>
      </trkpt>
      <trkpt lat="47.51881" lon="-1.29023">
        <ele>32</ele>
        <time>2018-03-21T16:34:16.000Z</time>
      </trkpt>
      <trkpt lat="47.51876" lon="-1.29056">
        <ele>33</ele>
        <time>2018-03-21T16:34:22.000Z</time>
      </trkpt>
      <trkpt lat="47.51868" lon="-1.29092">
        <ele>35</ele>
        <time>2018-03-21T16:34:28.000Z</time>
      </trkpt>
      <trkpt lat="47.51852" lon="-1.29114">
        <ele>35</ele>
        <time>2018-03-21T16:34:33.000Z</time>
      </trkpt>
      <trkpt lat="47.51826" lon="-1.29114">
        <ele>35</ele>
        <time>2018-03-21T16:34:39.000Z</time>
      </trkpt>
      <trkpt lat="47.51801" lon="-1.29119">
        <ele>35</ele>
        <time>2018-03-21T16:34:44.000Z</time>
      </trkpt>
      <trkpt lat="47.51791" lon="-1.29148">
        <ele>36</ele>
        <time>2018-03-21T16:34:49.000Z</time>
      </trkpt>
      <trkpt lat="47.51788" lon="-1.29186">
        <ele>38</ele>
        <time>2018-03-21T16:34:55.000Z</time>
      </trkpt>
      <trkpt lat="47.51788" lon="-1.29203">
        <ele>38</ele>
        <time>2018-03-21T16:34:59.000Z</time>
      </trkpt>
      <trkpt lat="47.51794" lon="-1.29206">
        <ele>38</ele>
        <time>2018-03-21T16:35:07.000Z</time>
      </trkpt>
    </trkseg>
  </trk>
</gpx>